<?xml version="1.0" encoding="UTF-8"?>
<gpx xmlns="http://www.topografix.com/GPX/1/1" version="1.1" xmlns:xsi="http://www.w3.org/2001/XMLSchema-instance" xsi:schemaLocation="http://www.topografix.com/GPX/1/1 http://www.topografix.com/GPX/1/1/gpx.xsd" creator="MotionXGPSFull 24.4 Build 5112 R64">
<trk>
<name><![CDATA[VS Exped Trip 2b]]></name>
<desc><![CDATA[Nov 5, 2017  9:53 am]]></desc>
<trkseg>
<trkpt lat="22.5143647" lon="114.2322781">
<ele>112.397</ele>
<time>2017-11-05T01:54:09.018Z</time>
</trkpt>
<trkpt lat="22.5143647" lon="114.2322781">
<ele>112.346</ele>
<time>2017-11-05T01:54:15.017Z</time>
</trkpt>
<trkpt lat="22.5143647" lon="114.2322781">
<ele>112.293</ele>
<time>2017-11-05T01:54:19.482Z</time>
</trkpt>
<trkpt lat="22.5142690" lon="114.2323903">
<ele>112.245</ele>
<time>2017-11-05T01:54:36.753Z</time>
</trkpt>
<trkpt lat="22.5142139" lon="114.2324706">
<ele>111.351</ele>
<time>2017-11-05T01:54:44.411Z</time>
</trkpt>
<trkpt lat="22.5141504" lon="114.2325538">
<ele>109.091</ele>
<time>2017-11-05T01:54:52.332Z</time>
</trkpt>
<trkpt lat="22.5140913" lon="114.2326424">
<ele>106.828</ele>
<time>2017-11-05T01:55:00.152Z</time>
</trkpt>
<trkpt lat="22.5140219" lon="114.2327157">
<ele>105.857</ele>
<time>2017-11-05T01:55:06.979Z</time>
</trkpt>
<trkpt lat="22.5139781" lon="114.2328156">
<ele>105.662</ele>
<time>2017-11-05T01:55:13.290Z</time>
</trkpt>
<trkpt lat="22.5138979" lon="114.2328753">
<ele>105.469</ele>
<time>2017-11-05T01:55:19.278Z</time>
</trkpt>
<trkpt lat="22.5138546" lon="114.2329630">
<ele>105.164</ele>
<time>2017-11-05T01:55:24.906Z</time>
</trkpt>
<trkpt lat="22.5137674" lon="114.2330034">
<ele>105.098</ele>
<time>2017-11-05T01:55:30.354Z</time>
</trkpt>
<trkpt lat="22.5136814" lon="114.2330317">
<ele>105.439</ele>
<time>2017-11-05T01:55:35.437Z</time>
</trkpt>
<trkpt lat="22.5135987" lon="114.2330824">
<ele>105.983</ele>
<time>2017-11-05T01:55:41.061Z</time>
</trkpt>
<trkpt lat="22.5135175" lon="114.2331307">
<ele>106.484</ele>
<time>2017-11-05T01:55:47.188Z</time>
</trkpt>
<trkpt lat="22.5134838" lon="114.2332256">
<ele>106.991</ele>
<time>2017-11-05T01:55:53.842Z</time>
</trkpt>
<trkpt lat="22.5134032" lon="114.2332836">
<ele>107.526</ele>
<time>2017-11-05T01:56:00.446Z</time>
</trkpt>
<trkpt lat="22.5133222" lon="114.2333473">
<ele>107.606</ele>
<time>2017-11-05T01:56:08.030Z</time>
</trkpt>
<trkpt lat="22.5132900" lon="114.2334422">
<ele>106.950</ele>
<time>2017-11-05T01:56:15.572Z</time>
</trkpt>
<trkpt lat="22.5132063" lon="114.2334818">
<ele>106.101</ele>
<time>2017-11-05T01:56:22.918Z</time>
</trkpt>
<trkpt lat="22.5131500" lon="114.2335621">
<ele>105.592</ele>
<time>2017-11-05T01:56:30.079Z</time>
</trkpt>
<trkpt lat="22.5130518" lon="114.2336062">
<ele>105.115</ele>
<time>2017-11-05T01:56:36.318Z</time>
</trkpt>
<trkpt lat="22.5129608" lon="114.2336418">
<ele>104.225</ele>
<time>2017-11-05T01:56:41.742Z</time>
</trkpt>
<trkpt lat="22.5128877" lon="114.2337146">
<ele>103.102</ele>
<time>2017-11-05T01:56:47.758Z</time>
</trkpt>
<trkpt lat="22.5128106" lon="114.2337766">
<ele>102.251</ele>
<time>2017-11-05T01:56:55.729Z</time>
</trkpt>
<trkpt lat="22.5127139" lon="114.2338021">
<ele>101.836</ele>
<time>2017-11-05T01:57:04.692Z</time>
</trkpt>
<trkpt lat="22.5126367" lon="114.2338577">
<ele>101.598</ele>
<time>2017-11-05T01:57:13.081Z</time>
</trkpt>
<trkpt lat="22.5125424" lon="114.2338532">
<ele>101.258</ele>
<time>2017-11-05T01:57:19.712Z</time>
</trkpt>
<trkpt lat="22.5124485" lon="114.2338817">
<ele>100.926</ele>
<time>2017-11-05T01:57:26.061Z</time>
</trkpt>
<trkpt lat="22.5123499" lon="114.2339085">
<ele>100.735</ele>
<time>2017-11-05T01:57:31.598Z</time>
</trkpt>
<trkpt lat="22.5122462" lon="114.2339218">
<ele>100.592</ele>
<time>2017-11-05T01:57:36.840Z</time>
</trkpt>
<trkpt lat="22.5121494" lon="114.2339290">
<ele>100.462</ele>
<time>2017-11-05T01:57:42.186Z</time>
</trkpt>
<trkpt lat="22.5120436" lon="114.2339177">
<ele>100.402</ele>
<time>2017-11-05T01:57:48.527Z</time>
</trkpt>
<trkpt lat="22.5119474" lon="114.2339050">
<ele>100.446</ele>
<time>2017-11-05T01:57:56.069Z</time>
</trkpt>
<trkpt lat="22.5118553" lon="114.2339418">
<ele>100.532</ele>
<time>2017-11-05T01:58:04.800Z</time>
</trkpt>
<trkpt lat="22.5117593" lon="114.2339756">
<ele>100.313</ele>
<time>2017-11-05T01:58:17.781Z</time>
</trkpt>
<trkpt lat="22.5116672" lon="114.2339920">
<ele>99.390</ele>
<time>2017-11-05T01:58:24.580Z</time>
</trkpt>
<trkpt lat="22.5115636" lon="114.2339977">
<ele>97.996</ele>
<time>2017-11-05T01:58:31.024Z</time>
</trkpt>
<trkpt lat="22.5114737" lon="114.2340295">
<ele>96.833</ele>
<time>2017-11-05T01:58:37.174Z</time>
</trkpt>
<trkpt lat="22.5113837" lon="114.2340277">
<ele>96.104</ele>
<time>2017-11-05T01:58:43.579Z</time>
</trkpt>
<trkpt lat="22.5112870" lon="114.2340265">
<ele>95.522</ele>
<time>2017-11-05T01:58:49.819Z</time>
</trkpt>
<trkpt lat="22.5112009" lon="114.2340790">
<ele>94.721</ele>
<time>2017-11-05T01:58:56.471Z</time>
</trkpt>
<trkpt lat="22.5110995" lon="114.2340944">
<ele>93.414</ele>
<time>2017-11-05T01:59:04.505Z</time>
</trkpt>
<trkpt lat="22.5110067" lon="114.2341011">
<ele>91.753</ele>
<time>2017-11-05T01:59:11.491Z</time>
</trkpt>
<trkpt lat="22.5109149" lon="114.2341145">
<ele>90.197</ele>
<time>2017-11-05T01:59:18.619Z</time>
</trkpt>
<trkpt lat="22.5108139" lon="114.2341190">
<ele>89.019</ele>
<time>2017-11-05T01:59:27.244Z</time>
</trkpt>
<trkpt lat="22.5107131" lon="114.2341094">
<ele>88.333</ele>
<time>2017-11-05T01:59:34.542Z</time>
</trkpt>
<trkpt lat="22.5106228" lon="114.2341211">
<ele>88.122</ele>
<time>2017-11-05T01:59:39.667Z</time>
</trkpt>
<trkpt lat="22.5105368" lon="114.2341659">
<ele>88.186</ele>
<time>2017-11-05T01:59:44.975Z</time>
</trkpt>
<trkpt lat="22.5104372" lon="114.2341795">
<ele>88.267</ele>
<time>2017-11-05T01:59:50.973Z</time>
</trkpt>
<trkpt lat="22.5103425" lon="114.2341836">
<ele>88.231</ele>
<time>2017-11-05T01:59:57.221Z</time>
</trkpt>
<trkpt lat="22.5102486" lon="114.2342028">
<ele>88.139</ele>
<time>2017-11-05T02:00:06.009Z</time>
</trkpt>
<trkpt lat="22.5101633" lon="114.2342469">
<ele>87.990</ele>
<time>2017-11-05T02:00:15.754Z</time>
</trkpt>
<trkpt lat="22.5100676" lon="114.2342521">
<ele>87.678</ele>
<time>2017-11-05T02:00:24.994Z</time>
</trkpt>
<trkpt lat="22.5099672" lon="114.2342628">
<ele>87.298</ele>
<time>2017-11-05T02:00:33.286Z</time>
</trkpt>
<trkpt lat="22.5098739" lon="114.2342843">
<ele>87.068</ele>
<time>2017-11-05T02:00:40.049Z</time>
</trkpt>
<trkpt lat="22.5097789" lon="114.2342996">
<ele>87.017</ele>
<time>2017-11-05T02:00:46.014Z</time>
</trkpt>
<trkpt lat="22.5097789" lon="114.2342996">
<ele>87.020</ele>
<time>2017-11-05T02:00:53.014Z</time>
</trkpt>
<trkpt lat="22.5097789" lon="114.2342996">
<ele>86.990</ele>
<time>2017-11-05T02:03:57.983Z</time>
</trkpt>
<trkpt lat="22.5097949" lon="114.2341791">
<ele>86.943</ele>
<time>2017-11-05T02:04:18.764Z</time>
</trkpt>
<trkpt lat="22.5098305" lon="114.2340832">
<ele>87.882</ele>
<time>2017-11-05T02:04:30.519Z</time>
</trkpt>
<trkpt lat="22.5098088" lon="114.2339817">
<ele>90.918</ele>
<time>2017-11-05T02:04:41.895Z</time>
</trkpt>
<trkpt lat="22.5097399" lon="114.2339190">
<ele>94.940</ele>
<time>2017-11-05T02:04:54.426Z</time>
</trkpt>
<trkpt lat="22.5096609" lon="114.2338656">
<ele>97.987</ele>
<time>2017-11-05T02:05:07.379Z</time>
</trkpt>
<trkpt lat="22.5096260" lon="114.2337616">
<ele>99.773</ele>
<time>2017-11-05T02:05:16.475Z</time>
</trkpt>
<trkpt lat="22.5096529" lon="114.2336579">
<ele>100.757</ele>
<time>2017-11-05T02:05:24.264Z</time>
</trkpt>
<trkpt lat="22.5096987" lon="114.2335672">
<ele>101.475</ele>
<time>2017-11-05T02:05:33.099Z</time>
</trkpt>
<trkpt lat="22.5097382" lon="114.2334694">
<ele>102.540</ele>
<time>2017-11-05T02:05:43.704Z</time>
</trkpt>
<trkpt lat="22.5097865" lon="114.2333821">
<ele>104.806</ele>
<time>2017-11-05T02:05:54.933Z</time>
</trkpt>
<trkpt lat="22.5098353" lon="114.2332931">
<ele>108.212</ele>
<time>2017-11-05T02:06:05.576Z</time>
</trkpt>
<trkpt lat="22.5098918" lon="114.2332143">
<ele>110.963</ele>
<time>2017-11-05T02:06:15.516Z</time>
</trkpt>
<trkpt lat="22.5099321" lon="114.2331160">
<ele>111.580</ele>
<time>2017-11-05T02:06:26.093Z</time>
</trkpt>
<trkpt lat="22.5099904" lon="114.2330375">
<ele>110.677</ele>
<time>2017-11-05T02:06:37.287Z</time>
</trkpt>
<trkpt lat="22.5100748" lon="114.2329971">
<ele>109.606</ele>
<time>2017-11-05T02:06:50.012Z</time>
</trkpt>
<trkpt lat="22.5100748" lon="114.2329971">
<ele>109.136</ele>
<time>2017-11-05T02:06:55.012Z</time>
</trkpt>
<trkpt lat="22.5100748" lon="114.2329971">
<ele>109.162</ele>
<time>2017-11-05T02:07:56.020Z</time>
</trkpt>
<trkpt lat="22.5101829" lon="114.2328766">
<ele>109.339</ele>
<time>2017-11-05T02:08:15.299Z</time>
</trkpt>
<trkpt lat="22.5102443" lon="114.2327924">
<ele>110.216</ele>
<time>2017-11-05T02:08:24.605Z</time>
</trkpt>
<trkpt lat="22.5102929" lon="114.2327028">
<ele>112.458</ele>
<time>2017-11-05T02:08:33.427Z</time>
</trkpt>
<trkpt lat="22.5103286" lon="114.2326095">
<ele>115.089</ele>
<time>2017-11-05T02:08:41.159Z</time>
</trkpt>
<trkpt lat="22.5102870" lon="114.2325167">
<ele>116.629</ele>
<time>2017-11-05T02:08:48.241Z</time>
</trkpt>
<trkpt lat="22.5102979" lon="114.2324131">
<ele>116.889</ele>
<time>2017-11-05T02:08:55.252Z</time>
</trkpt>
<trkpt lat="22.5103335" lon="114.2323158">
<ele>116.459</ele>
<time>2017-11-05T02:09:02.954Z</time>
</trkpt>
<trkpt lat="22.5103578" lon="114.2322152">
<ele>115.704</ele>
<time>2017-11-05T02:09:13.130Z</time>
</trkpt>
<trkpt lat="22.5103939" lon="114.2321176">
<ele>114.711</ele>
<time>2017-11-05T02:09:22.560Z</time>
</trkpt>
<trkpt lat="22.5104510" lon="114.2320259">
<ele>113.726</ele>
<time>2017-11-05T02:09:30.403Z</time>
</trkpt>
<trkpt lat="22.5104660" lon="114.2319189">
<ele>112.940</ele>
<time>2017-11-05T02:09:38.008Z</time>
</trkpt>
<trkpt lat="22.5104660" lon="114.2319189">
<ele>112.357</ele>
<time>2017-11-05T02:09:38.008Z</time>
</trkpt>
<trkpt lat="22.5104660" lon="114.2319189">
<ele>112.074</ele>
<time>2017-11-05T02:09:38.085Z</time>
</trkpt>
<trkpt lat="22.5104396" lon="114.2318089">
<ele>112.058</ele>
<time>2017-11-05T02:09:50.743Z</time>
</trkpt>
<trkpt lat="22.5104073" lon="114.2317069">
<ele>111.970</ele>
<time>2017-11-05T02:09:58.604Z</time>
</trkpt>
<trkpt lat="22.5104750" lon="114.2316358">
<ele>111.587</ele>
<time>2017-11-05T02:10:07.421Z</time>
</trkpt>
<trkpt lat="22.5105447" lon="114.2315745">
<ele>111.411</ele>
<time>2017-11-05T02:10:17.348Z</time>
</trkpt>
<trkpt lat="22.5106158" lon="114.2315072">
<ele>112.305</ele>
<time>2017-11-05T02:10:27.889Z</time>
</trkpt>
<trkpt lat="22.5106588" lon="114.2314143">
<ele>114.140</ele>
<time>2017-11-05T02:10:37.650Z</time>
</trkpt>
<trkpt lat="22.5106709" lon="114.2313134">
<ele>116.058</ele>
<time>2017-11-05T02:10:47.770Z</time>
</trkpt>
<trkpt lat="22.5107016" lon="114.2312160">
<ele>117.664</ele>
<time>2017-11-05T02:10:58.006Z</time>
</trkpt>
<trkpt lat="22.5107016" lon="114.2312160">
<ele>118.857</ele>
<time>2017-11-05T02:11:07.006Z</time>
</trkpt>
<trkpt lat="22.5107016" lon="114.2312160">
<ele>119.357</ele>
<time>2017-11-05T02:11:08.590Z</time>
</trkpt>
<trkpt lat="22.5107158" lon="114.2310925">
<ele>118.931</ele>
<time>2017-11-05T02:11:22.006Z</time>
</trkpt>
<trkpt lat="22.5107158" lon="114.2310925">
<ele>118.741</ele>
<time>2017-11-05T02:11:23.006Z</time>
</trkpt>
<trkpt lat="22.5107158" lon="114.2310925">
<ele>118.705</ele>
<time>2017-11-05T02:11:23.106Z</time>
</trkpt>
<trkpt lat="22.5108169" lon="114.2310127">
<ele>118.742</ele>
<time>2017-11-05T02:11:34.005Z</time>
</trkpt>
<trkpt lat="22.5108169" lon="114.2310127">
<ele>118.754</ele>
<time>2017-11-05T02:11:37.005Z</time>
</trkpt>
<trkpt lat="22.5108169" lon="114.2310127">
<ele>118.706</ele>
<time>2017-11-05T02:11:51.112Z</time>
</trkpt>
<trkpt lat="22.5109118" lon="114.2309734">
<ele>118.612</ele>
<time>2017-11-05T02:12:09.725Z</time>
</trkpt>
<trkpt lat="22.5110030" lon="114.2309274">
<ele>119.741</ele>
<time>2017-11-05T02:12:17.673Z</time>
</trkpt>
<trkpt lat="22.5110808" lon="114.2308634">
<ele>122.999</ele>
<time>2017-11-05T02:12:24.229Z</time>
</trkpt>
<trkpt lat="22.5111757" lon="114.2308768">
<ele>126.817</ele>
<time>2017-11-05T02:12:30.632Z</time>
</trkpt>
<trkpt lat="22.5112730" lon="114.2308572">
<ele>129.066</ele>
<time>2017-11-05T02:12:37.231Z</time>
</trkpt>
<trkpt lat="22.5113512" lon="114.2307961">
<ele>129.661</ele>
<time>2017-11-05T02:12:43.361Z</time>
</trkpt>
<trkpt lat="22.5114470" lon="114.2307825">
<ele>129.457</ele>
<time>2017-11-05T02:12:49.191Z</time>
</trkpt>
<trkpt lat="22.5115423" lon="114.2307985">
<ele>129.131</ele>
<time>2017-11-05T02:12:55.010Z</time>
</trkpt>
<trkpt lat="22.5115423" lon="114.2307985">
<ele>128.941</ele>
<time>2017-11-05T02:13:07.010Z</time>
</trkpt>
<trkpt lat="22.5115423" lon="114.2307985">
<ele>128.870</ele>
<time>2017-11-05T02:13:07.110Z</time>
</trkpt>
<trkpt lat="22.5115986" lon="114.2306930">
<ele>128.835</ele>
<time>2017-11-05T02:13:17.865Z</time>
</trkpt>
<trkpt lat="22.5116159" lon="114.2305856">
<ele>128.802</ele>
<time>2017-11-05T02:13:25.009Z</time>
</trkpt>
<trkpt lat="22.5116159" lon="114.2305856">
<ele>128.769</ele>
<time>2017-11-05T02:13:32.009Z</time>
</trkpt>
<trkpt lat="22.5116159" lon="114.2305856">
<ele>128.717</ele>
<time>2017-11-05T02:13:32.109Z</time>
</trkpt>
<trkpt lat="22.5116484" lon="114.2304531">
<ele>128.669</ele>
<time>2017-11-05T02:13:43.009Z</time>
</trkpt>
<trkpt lat="22.5116484" lon="114.2304531">
<ele>128.643</ele>
<time>2017-11-05T02:13:50.008Z</time>
</trkpt>
<trkpt lat="22.5116484" lon="114.2304531">
<ele>128.614</ele>
<time>2017-11-05T02:13:50.108Z</time>
</trkpt>
<trkpt lat="22.5116775" lon="114.2303556">
<ele>128.570</ele>
<time>2017-11-05T02:14:00.466Z</time>
</trkpt>
<trkpt lat="22.5117529" lon="114.2302812">
<ele>128.594</ele>
<time>2017-11-05T02:14:08.008Z</time>
</trkpt>
<trkpt lat="22.5117529" lon="114.2302812">
<ele>128.738</ele>
<time>2017-11-05T02:14:15.008Z</time>
</trkpt>
<trkpt lat="22.5117529" lon="114.2302812">
<ele>128.850</ele>
<time>2017-11-05T02:14:30.008Z</time>
</trkpt>
<trkpt lat="22.5117529" lon="114.2302812">
<ele>128.796</ele>
<time>2017-11-05T02:18:12.451Z</time>
</trkpt>
<trkpt lat="22.5117216" lon="114.2301854">
<ele>128.648</ele>
<time>2017-11-05T02:18:34.237Z</time>
</trkpt>
<trkpt lat="22.5117368" lon="114.2300860">
<ele>128.543</ele>
<time>2017-11-05T02:18:41.398Z</time>
</trkpt>
<trkpt lat="22.5117516" lon="114.2299790">
<ele>128.099</ele>
<time>2017-11-05T02:18:47.935Z</time>
</trkpt>
<trkpt lat="22.5117458" lon="114.2298698">
<ele>127.302</ele>
<time>2017-11-05T02:18:56.915Z</time>
</trkpt>
<trkpt lat="22.5117663" lon="114.2297678">
<ele>126.086</ele>
<time>2017-11-05T02:19:06.522Z</time>
</trkpt>
<trkpt lat="22.5118437" lon="114.2297169">
<ele>124.530</ele>
<time>2017-11-05T02:19:16.689Z</time>
</trkpt>
<trkpt lat="22.5119043" lon="114.2296416">
<ele>123.035</ele>
<time>2017-11-05T02:19:25.599Z</time>
</trkpt>
<trkpt lat="22.5119929" lon="114.2296127">
<ele>122.049</ele>
<time>2017-11-05T02:19:34.109Z</time>
</trkpt>
<trkpt lat="22.5120704" lon="114.2295464">
<ele>121.697</ele>
<time>2017-11-05T02:19:43.270Z</time>
</trkpt>
<trkpt lat="22.5121157" lon="114.2294533">
<ele>121.803</ele>
<time>2017-11-05T02:19:53.370Z</time>
</trkpt>
<trkpt lat="22.5121938" lon="114.2294040">
<ele>122.445</ele>
<time>2017-11-05T02:20:04.563Z</time>
</trkpt>
<trkpt lat="22.5122781" lon="114.2293415">
<ele>123.838</ele>
<time>2017-11-05T02:20:18.073Z</time>
</trkpt>
<trkpt lat="22.5123295" lon="114.2292600">
<ele>125.477</ele>
<time>2017-11-05T02:20:29.928Z</time>
</trkpt>
<trkpt lat="22.5123525" lon="114.2291596">
<ele>126.699</ele>
<time>2017-11-05T02:20:39.005Z</time>
</trkpt>
<trkpt lat="22.5123525" lon="114.2291596">
<ele>127.205</ele>
<time>2017-11-05T02:20:43.005Z</time>
</trkpt>
<trkpt lat="22.5123525" lon="114.2291596">
<ele>127.085</ele>
<time>2017-11-05T02:21:04.338Z</time>
</trkpt>
<trkpt lat="22.5123437" lon="114.2290571">
<ele>126.815</ele>
<time>2017-11-05T02:21:17.137Z</time>
</trkpt>
<trkpt lat="22.5122582" lon="114.2290202">
<ele>126.963</ele>
<time>2017-11-05T02:21:24.004Z</time>
</trkpt>
<trkpt lat="22.5122582" lon="114.2290202">
<ele>127.124</ele>
<time>2017-11-05T02:21:34.004Z</time>
</trkpt>
<trkpt lat="22.5122582" lon="114.2290202">
<ele>127.193</ele>
<time>2017-11-05T02:22:18.003Z</time>
</trkpt>
<trkpt lat="22.5122582" lon="114.2290202">
<ele>127.133</ele>
<time>2017-11-05T02:24:13.000Z</time>
</trkpt>
<trkpt lat="22.5122582" lon="114.2290202">
<ele>127.035</ele>
<time>2017-11-05T02:24:39.999Z</time>
</trkpt>
<trkpt lat="22.5122582" lon="114.2290202">
<ele>126.980</ele>
<time>2017-11-05T02:26:18.265Z</time>
</trkpt>
<trkpt lat="22.5123700" lon="114.2289771">
<ele>126.925</ele>
<time>2017-11-05T02:27:13.002Z</time>
</trkpt>
<trkpt lat="22.5123700" lon="114.2289771">
<ele>126.897</ele>
<time>2017-11-05T02:27:23.001Z</time>
</trkpt>
<trkpt lat="22.5123700" lon="114.2289771">
<ele>126.870</ele>
<time>2017-11-05T02:27:32.437Z</time>
</trkpt>
<trkpt lat="22.5122543" lon="114.2289879">
<ele>126.829</ele>
<time>2017-11-05T02:28:21.075Z</time>
</trkpt>
<trkpt lat="22.5123299" lon="114.2289275">
<ele>127.183</ele>
<time>2017-11-05T02:28:30.169Z</time>
</trkpt>
<trkpt lat="22.5124019" lon="114.2288611">
<ele>128.277</ele>
<time>2017-11-05T02:28:37.846Z</time>
</trkpt>
<trkpt lat="22.5124907" lon="114.2288317">
<ele>129.673</ele>
<time>2017-11-05T02:28:44.999Z</time>
</trkpt>
<trkpt lat="22.5124907" lon="114.2288317">
<ele>130.603</ele>
<time>2017-11-05T02:28:57.999Z</time>
</trkpt>
<trkpt lat="22.5124907" lon="114.2288317">
<ele>130.829</ele>
<time>2017-11-05T02:28:58.099Z</time>
</trkpt>
<trkpt lat="22.5125393" lon="114.2287343">
<ele>130.666</ele>
<time>2017-11-05T02:29:10.745Z</time>
</trkpt>
<trkpt lat="22.5125775" lon="114.2286272">
<ele>130.711</ele>
<time>2017-11-05T02:29:20.276Z</time>
</trkpt>
<trkpt lat="22.5126000" lon="114.2285223">
<ele>131.176</ele>
<time>2017-11-05T02:29:29.633Z</time>
</trkpt>
<trkpt lat="22.5126111" lon="114.2284199">
<ele>131.724</ele>
<time>2017-11-05T02:29:39.173Z</time>
</trkpt>
<trkpt lat="22.5126442" lon="114.2283292">
<ele>132.095</ele>
<time>2017-11-05T02:29:48.642Z</time>
</trkpt>
<trkpt lat="22.5126598" lon="114.2282277">
<ele>132.379</ele>
<time>2017-11-05T02:29:58.998Z</time>
</trkpt>
<trkpt lat="22.5126598" lon="114.2282277">
<ele>132.523</ele>
<time>2017-11-05T02:30:10.997Z</time>
</trkpt>
<trkpt lat="22.5126598" lon="114.2282277">
<ele>132.457</ele>
<time>2017-11-05T02:30:11.097Z</time>
</trkpt>
<trkpt lat="22.5126309" lon="114.2280608">
<ele>132.335</ele>
<time>2017-11-05T02:30:33.997Z</time>
</trkpt>
<trkpt lat="22.5126309" lon="114.2280608">
<ele>132.299</ele>
<time>2017-11-05T02:30:49.996Z</time>
</trkpt>
<trkpt lat="22.5126309" lon="114.2280608">
<ele>132.301</ele>
<time>2017-11-05T02:30:59.715Z</time>
</trkpt>
<trkpt lat="22.5126309" lon="114.2280608">
<ele>132.193</ele>
<time>2017-11-05T02:31:14.996Z</time>
</trkpt>
<trkpt lat="22.5126309" lon="114.2280608">
<ele>132.144</ele>
<time>2017-11-05T02:31:15.096Z</time>
</trkpt>
<trkpt lat="22.5126992" lon="114.2279661">
<ele>132.116</ele>
<time>2017-11-05T02:32:00.821Z</time>
</trkpt>
<trkpt lat="22.5127807" lon="114.2279076">
<ele>134.901</ele>
<time>2017-11-05T02:32:08.296Z</time>
</trkpt>
<trkpt lat="22.5128119" lon="114.2278024">
<ele>142.187</ele>
<time>2017-11-05T02:32:16.069Z</time>
</trkpt>
<trkpt lat="22.5127927" lon="114.2277066">
<ele>149.242</ele>
<time>2017-11-05T02:32:22.994Z</time>
</trkpt>
<trkpt lat="22.5127927" lon="114.2277066">
<ele>151.657</ele>
<time>2017-11-05T02:32:28.994Z</time>
</trkpt>
<trkpt lat="22.5127927" lon="114.2277066">
<ele>150.991</ele>
<time>2017-11-05T02:36:12.548Z</time>
</trkpt>
<trkpt lat="22.5127027" lon="114.2276289">
<ele>149.996</ele>
<time>2017-11-05T02:36:32.406Z</time>
</trkpt>
<trkpt lat="22.5126213" lon="114.2275872">
<ele>149.844</ele>
<time>2017-11-05T02:36:42.589Z</time>
</trkpt>
<trkpt lat="22.5125281" lon="114.2275817">
<ele>149.481</ele>
<time>2017-11-05T02:36:53.297Z</time>
</trkpt>
<trkpt lat="22.5124478" lon="114.2275295">
<ele>147.862</ele>
<time>2017-11-05T02:37:04.388Z</time>
</trkpt>
<trkpt lat="22.5123687" lon="114.2274773">
<ele>146.106</ele>
<time>2017-11-05T02:37:15.064Z</time>
</trkpt>
<trkpt lat="22.5123485" lon="114.2273815">
<ele>145.461</ele>
<time>2017-11-05T02:37:25.432Z</time>
</trkpt>
<trkpt lat="22.5122734" lon="114.2273118">
<ele>145.646</ele>
<time>2017-11-05T02:37:36.294Z</time>
</trkpt>
<trkpt lat="22.5121856" lon="114.2273450">
<ele>146.103</ele>
<time>2017-11-05T02:37:45.999Z</time>
</trkpt>
<trkpt lat="22.5121009" lon="114.2273922">
<ele>146.691</ele>
<time>2017-11-05T02:37:57.122Z</time>
</trkpt>
<trkpt lat="22.5120073" lon="114.2273940">
<ele>147.535</ele>
<time>2017-11-05T02:38:10.030Z</time>
</trkpt>
<trkpt lat="22.5119091" lon="114.2273706">
<ele>148.696</ele>
<time>2017-11-05T02:38:23.642Z</time>
</trkpt>
<trkpt lat="22.5118248" lon="114.2273229">
<ele>150.383</ele>
<time>2017-11-05T02:38:34.575Z</time>
</trkpt>
<trkpt lat="22.5117635" lon="114.2272515">
<ele>152.601</ele>
<time>2017-11-05T02:38:45.649Z</time>
</trkpt>
<trkpt lat="22.5116876" lon="114.2271806">
<ele>154.889</ele>
<time>2017-11-05T02:38:58.860Z</time>
</trkpt>
<trkpt lat="22.5116146" lon="114.2271226">
<ele>157.159</ele>
<time>2017-11-05T02:39:08.700Z</time>
</trkpt>
<trkpt lat="22.5115493" lon="114.2270553">
<ele>159.340</ele>
<time>2017-11-05T02:39:18.019Z</time>
</trkpt>
<trkpt lat="22.5114834" lon="114.2269776">
<ele>160.913</ele>
<time>2017-11-05T02:39:28.565Z</time>
</trkpt>
<trkpt lat="22.5114341" lon="114.2268881">
<ele>161.814</ele>
<time>2017-11-05T02:39:38.837Z</time>
</trkpt>
<trkpt lat="22.5113886" lon="114.2268015">
<ele>162.644</ele>
<time>2017-11-05T02:39:48.707Z</time>
</trkpt>
<trkpt lat="22.5113315" lon="114.2267141">
<ele>163.693</ele>
<time>2017-11-05T02:39:59.752Z</time>
</trkpt>
<trkpt lat="22.5112827" lon="114.2266233">
<ele>164.594</ele>
<time>2017-11-05T02:40:09.503Z</time>
</trkpt>
<trkpt lat="22.5112087" lon="114.2265495">
<ele>164.871</ele>
<time>2017-11-05T02:40:18.989Z</time>
</trkpt>
<trkpt lat="22.5112087" lon="114.2265495">
<ele>164.604</ele>
<time>2017-11-05T02:40:19.989Z</time>
</trkpt>
<trkpt lat="22.5112087" lon="114.2265495">
<ele>164.262</ele>
<time>2017-11-05T02:40:21.035Z</time>
</trkpt>
<trkpt lat="22.5111152" lon="114.2265167">
<ele>164.225</ele>
<time>2017-11-05T02:40:28.989Z</time>
</trkpt>
<trkpt lat="22.5111152" lon="114.2265167">
<ele>164.384</ele>
<time>2017-11-05T02:40:33.988Z</time>
</trkpt>
<trkpt lat="22.5111152" lon="114.2265167">
<ele>164.452</ele>
<time>2017-11-05T02:41:06.988Z</time>
</trkpt>
<trkpt lat="22.5111152" lon="114.2265167">
<ele>164.365</ele>
<time>2017-11-05T02:42:53.992Z</time>
</trkpt>
<trkpt lat="22.5111152" lon="114.2265167">
<ele>164.249</ele>
<time>2017-11-05T02:46:59.052Z</time>
</trkpt>
<trkpt lat="22.5110165" lon="114.2264574">
<ele>164.164</ele>
<time>2017-11-05T02:47:15.858Z</time>
</trkpt>
<trkpt lat="22.5109838" lon="114.2263550">
<ele>165.145</ele>
<time>2017-11-05T02:47:25.441Z</time>
</trkpt>
<trkpt lat="22.5109601" lon="114.2262576">
<ele>167.706</ele>
<time>2017-11-05T02:47:33.153Z</time>
</trkpt>
<trkpt lat="22.5109238" lon="114.2261604">
<ele>170.333</ele>
<time>2017-11-05T02:47:41.145Z</time>
</trkpt>
<trkpt lat="22.5108726" lon="114.2260743">
<ele>171.800</ele>
<time>2017-11-05T02:47:49.957Z</time>
</trkpt>
<trkpt lat="22.5108370" lon="114.2259688">
<ele>172.599</ele>
<time>2017-11-05T02:47:59.984Z</time>
</trkpt>
<trkpt lat="22.5108370" lon="114.2259688">
<ele>173.066</ele>
<time>2017-11-05T02:48:10.984Z</time>
</trkpt>
<trkpt lat="22.5108370" lon="114.2259688">
<ele>173.190</ele>
<time>2017-11-05T02:48:11.084Z</time>
</trkpt>
<trkpt lat="22.5107414" lon="114.2258594">
<ele>173.087</ele>
<time>2017-11-05T02:48:30.090Z</time>
</trkpt>
<trkpt lat="22.5106859" lon="114.2257799">
<ele>173.542</ele>
<time>2017-11-05T02:48:39.565Z</time>
</trkpt>
<trkpt lat="22.5106165" lon="114.2257084">
<ele>175.188</ele>
<time>2017-11-05T02:48:48.796Z</time>
</trkpt>
<trkpt lat="22.5105419" lon="114.2256441">
<ele>177.397</ele>
<time>2017-11-05T02:48:57.309Z</time>
</trkpt>
<trkpt lat="22.5104675" lon="114.2255768">
<ele>179.209</ele>
<time>2017-11-05T02:49:06.233Z</time>
</trkpt>
<trkpt lat="22.5103814" lon="114.2255233">
<ele>180.624</ele>
<time>2017-11-05T02:49:16.639Z</time>
</trkpt>
<trkpt lat="22.5103187" lon="114.2254446">
<ele>181.925</ele>
<time>2017-11-05T02:49:27.845Z</time>
</trkpt>
<trkpt lat="22.5102967" lon="114.2253466">
<ele>183.081</ele>
<time>2017-11-05T02:49:38.461Z</time>
</trkpt>
<trkpt lat="22.5102766" lon="114.2252489">
<ele>184.028</ele>
<time>2017-11-05T02:49:48.814Z</time>
</trkpt>
<trkpt lat="22.5102265" lon="114.2251661">
<ele>185.073</ele>
<time>2017-11-05T02:49:59.629Z</time>
</trkpt>
<trkpt lat="22.5102633" lon="114.2250632">
<ele>186.324</ele>
<time>2017-11-05T02:50:10.927Z</time>
</trkpt>
<trkpt lat="22.5103214" lon="114.2249834">
<ele>187.519</ele>
<time>2017-11-05T02:50:20.394Z</time>
</trkpt>
<trkpt lat="22.5104132" lon="114.2249645">
<ele>188.480</ele>
<time>2017-11-05T02:50:29.994Z</time>
</trkpt>
<trkpt lat="22.5105011" lon="114.2249389">
<ele>189.232</ele>
<time>2017-11-05T02:50:41.386Z</time>
</trkpt>
<trkpt lat="22.5105899" lon="114.2248913">
<ele>189.823</ele>
<time>2017-11-05T02:50:53.986Z</time>
</trkpt>
<trkpt lat="22.5105899" lon="114.2248913">
<ele>190.294</ele>
<time>2017-11-05T02:51:05.986Z</time>
</trkpt>
<trkpt lat="22.5105899" lon="114.2248913">
<ele>190.517</ele>
<time>2017-11-05T02:51:06.086Z</time>
</trkpt>
<trkpt lat="22.5106927" lon="114.2248169">
<ele>190.417</ele>
<time>2017-11-05T02:51:18.429Z</time>
</trkpt>
<trkpt lat="22.5107780" lon="114.2247699">
<ele>190.832</ele>
<time>2017-11-05T02:51:26.190Z</time>
</trkpt>
<trkpt lat="22.5108332" lon="114.2246914">
<ele>192.376</ele>
<time>2017-11-05T02:51:33.993Z</time>
</trkpt>
<trkpt lat="22.5108448" lon="114.2245906">
<ele>194.222</ele>
<time>2017-11-05T02:51:41.985Z</time>
</trkpt>
<trkpt lat="22.5108448" lon="114.2245906">
<ele>195.386</ele>
<time>2017-11-05T02:51:54.985Z</time>
</trkpt>
<trkpt lat="22.5108448" lon="114.2245906">
<ele>195.768</ele>
<time>2017-11-05T02:51:55.085Z</time>
</trkpt>
<trkpt lat="22.5107481" lon="114.2245343">
<ele>195.613</ele>
<time>2017-11-05T02:52:08.760Z</time>
</trkpt>
<trkpt lat="22.5106503" lon="114.2244895">
<ele>195.667</ele>
<time>2017-11-05T02:52:17.910Z</time>
</trkpt>
<trkpt lat="22.5105598" lon="114.2244492">
<ele>196.477</ele>
<time>2017-11-05T02:52:24.880Z</time>
</trkpt>
<trkpt lat="22.5104708" lon="114.2244340">
<ele>197.623</ele>
<time>2017-11-05T02:52:32.747Z</time>
</trkpt>
<trkpt lat="22.5103843" lon="114.2243840">
<ele>198.418</ele>
<time>2017-11-05T02:52:44.102Z</time>
</trkpt>
<trkpt lat="22.5103071" lon="114.2243302">
<ele>198.726</ele>
<time>2017-11-05T02:52:57.984Z</time>
</trkpt>
<trkpt lat="22.5103071" lon="114.2243302">
<ele>198.722</ele>
<time>2017-11-05T02:53:12.983Z</time>
</trkpt>
<trkpt lat="22.5103071" lon="114.2243302">
<ele>198.611</ele>
<time>2017-11-05T02:53:13.083Z</time>
</trkpt>
<trkpt lat="22.5102589" lon="114.2242306">
<ele>198.519</ele>
<time>2017-11-05T02:53:49.983Z</time>
</trkpt>
<trkpt lat="22.5102589" lon="114.2242306">
<ele>198.481</ele>
<time>2017-11-05T02:53:53.982Z</time>
</trkpt>
<trkpt lat="22.5102589" lon="114.2242306">
<ele>198.449</ele>
<time>2017-11-05T02:55:40.122Z</time>
</trkpt>
<trkpt lat="22.5103527" lon="114.2243116">
<ele>198.384</ele>
<time>2017-11-05T02:55:58.872Z</time>
</trkpt>
<trkpt lat="22.5104094" lon="114.2243941">
<ele>200.099</ele>
<time>2017-11-05T02:56:07.781Z</time>
</trkpt>
<trkpt lat="22.5105029" lon="114.2244302">
<ele>204.729</ele>
<time>2017-11-05T02:56:16.519Z</time>
</trkpt>
<trkpt lat="22.5105586" lon="114.2245118">
<ele>209.537</ele>
<time>2017-11-05T02:56:24.115Z</time>
</trkpt>
<trkpt lat="22.5106468" lon="114.2245434">
<ele>211.851</ele>
<time>2017-11-05T02:56:31.242Z</time>
</trkpt>
<trkpt lat="22.5107381" lon="114.2245477">
<ele>212.025</ele>
<time>2017-11-05T02:56:37.985Z</time>
</trkpt>
<trkpt lat="22.5107381" lon="114.2245477">
<ele>211.133</ele>
<time>2017-11-05T02:56:49.985Z</time>
</trkpt>
<trkpt lat="22.5107381" lon="114.2245477">
<ele>210.354</ele>
<time>2017-11-05T02:57:23.984Z</time>
</trkpt>
<trkpt lat="22.5107381" lon="114.2245477">
<ele>210.280</ele>
<time>2017-11-05T02:57:24.084Z</time>
</trkpt>
<trkpt lat="22.5108340" lon="114.2245778">
<ele>210.476</ele>
<time>2017-11-05T02:58:25.983Z</time>
</trkpt>
<trkpt lat="22.5108340" lon="114.2245778">
<ele>210.446</ele>
<time>2017-11-05T02:58:29.983Z</time>
</trkpt>
<trkpt lat="22.5108340" lon="114.2245778">
<ele>210.272</ele>
<time>2017-11-05T02:58:43.983Z</time>
</trkpt>
<trkpt lat="22.5108340" lon="114.2245778">
<ele>210.173</ele>
<time>2017-11-05T03:00:09.981Z</time>
</trkpt>
<trkpt lat="22.5108340" lon="114.2245778">
<ele>210.137</ele>
<time>2017-11-05T03:02:46.641Z</time>
</trkpt>
<trkpt lat="22.5107596" lon="114.2246467">
<ele>209.998</ele>
<time>2017-11-05T03:03:24.130Z</time>
</trkpt>
<trkpt lat="22.5107329" lon="114.2247449">
<ele>208.871</ele>
<time>2017-11-05T03:03:35.931Z</time>
</trkpt>
<trkpt lat="22.5106600" lon="114.2248153">
<ele>205.808</ele>
<time>2017-11-05T03:03:46.899Z</time>
</trkpt>
<trkpt lat="22.5106197" lon="114.2249035">
<ele>202.078</ele>
<time>2017-11-05T03:04:02.982Z</time>
</trkpt>
<trkpt lat="22.5106197" lon="114.2249035">
<ele>199.515</ele>
<time>2017-11-05T03:04:56.981Z</time>
</trkpt>
<trkpt lat="22.5106197" lon="114.2249035">
<ele>198.504</ele>
<time>2017-11-05T03:06:00.275Z</time>
</trkpt>
<trkpt lat="22.5105186" lon="114.2249207">
<ele>198.577</ele>
<time>2017-11-05T03:07:24.977Z</time>
</trkpt>
<trkpt lat="22.5105186" lon="114.2249207">
<ele>198.846</ele>
<time>2017-11-05T03:07:26.977Z</time>
</trkpt>
<trkpt lat="22.5105186" lon="114.2249207">
<ele>198.787</ele>
<time>2017-11-05T03:07:28.433Z</time>
</trkpt>
<trkpt lat="22.5104291" lon="114.2249304">
<ele>198.499</ele>
<time>2017-11-05T03:08:18.844Z</time>
</trkpt>
<trkpt lat="22.5103407" lon="114.2249606">
<ele>198.032</ele>
<time>2017-11-05T03:08:32.766Z</time>
</trkpt>
<trkpt lat="22.5102833" lon="114.2250389">
<ele>196.494</ele>
<time>2017-11-05T03:08:44.712Z</time>
</trkpt>
<trkpt lat="22.5102019" lon="114.2251362">
<ele>194.184</ele>
<time>2017-11-05T03:08:55.907Z</time>
</trkpt>
<trkpt lat="22.5102152" lon="114.2252372">
<ele>191.972</ele>
<time>2017-11-05T03:09:04.531Z</time>
</trkpt>
<trkpt lat="22.5102579" lon="114.2253328">
<ele>190.414</ele>
<time>2017-11-05T03:09:17.432Z</time>
</trkpt>
<trkpt lat="22.5102810" lon="114.2254294">
<ele>189.348</ele>
<time>2017-11-05T03:09:28.646Z</time>
</trkpt>
<trkpt lat="22.5103211" lon="114.2255182">
<ele>188.100</ele>
<time>2017-11-05T03:09:38.974Z</time>
</trkpt>
<trkpt lat="22.5103211" lon="114.2255182">
<ele>186.683</ele>
<time>2017-11-05T03:09:42.974Z</time>
</trkpt>
<trkpt lat="22.5103211" lon="114.2255182">
<ele>185.838</ele>
<time>2017-11-05T03:09:49.640Z</time>
</trkpt>
<trkpt lat="22.5102927" lon="114.2254071">
<ele>186.159</ele>
<time>2017-11-05T03:10:09.841Z</time>
</trkpt>
<trkpt lat="22.5102601" lon="114.2253117">
<ele>186.421</ele>
<time>2017-11-05T03:10:19.593Z</time>
</trkpt>
<trkpt lat="22.5102105" lon="114.2252283">
<ele>186.692</ele>
<time>2017-11-05T03:10:28.979Z</time>
</trkpt>
<trkpt lat="22.5102105" lon="114.2252283">
<ele>187.137</ele>
<time>2017-11-05T03:10:30.979Z</time>
</trkpt>
<trkpt lat="22.5102105" lon="114.2252283">
<ele>187.458</ele>
<time>2017-11-05T03:10:56.322Z</time>
</trkpt>
<trkpt lat="22.5101266" lon="114.2251464">
<ele>187.372</ele>
<time>2017-11-05T03:11:14.978Z</time>
</trkpt>
<trkpt lat="22.5101266" lon="114.2251464">
<ele>187.140</ele>
<time>2017-11-05T03:11:38.978Z</time>
</trkpt>
<trkpt lat="22.5101266" lon="114.2251464">
<ele>187.050</ele>
<time>2017-11-05T03:12:22.977Z</time>
</trkpt>
<trkpt lat="22.5101266" lon="114.2251464">
<ele>187.049</ele>
<time>2017-11-05T03:13:11.976Z</time>
</trkpt>
<trkpt lat="22.5101266" lon="114.2251464">
<ele>187.002</ele>
<time>2017-11-05T03:13:12.076Z</time>
</trkpt>
<trkpt lat="22.5102145" lon="114.2251912">
<ele>186.912</ele>
<time>2017-11-05T03:13:27.975Z</time>
</trkpt>
<trkpt lat="22.5102145" lon="114.2251912">
<ele>186.845</ele>
<time>2017-11-05T03:13:34.975Z</time>
</trkpt>
<trkpt lat="22.5102145" lon="114.2251912">
<ele>186.801</ele>
<time>2017-11-05T03:15:05.973Z</time>
</trkpt>
<trkpt lat="22.5102145" lon="114.2251912">
<ele>186.743</ele>
<time>2017-11-05T03:15:18.973Z</time>
</trkpt>
<trkpt lat="22.5102145" lon="114.2251912">
<ele>186.669</ele>
<time>2017-11-05T03:25:34.626Z</time>
</trkpt>
<trkpt lat="22.5102636" lon="114.2250744">
<ele>186.610</ele>
<time>2017-11-05T03:25:52.603Z</time>
</trkpt>
<trkpt lat="22.5103271" lon="114.2249879">
<ele>187.413</ele>
<time>2017-11-05T03:26:01.034Z</time>
</trkpt>
<trkpt lat="22.5104064" lon="114.2249365">
<ele>189.670</ele>
<time>2017-11-05T03:26:09.138Z</time>
</trkpt>
<trkpt lat="22.5104930" lon="114.2249099">
<ele>192.342</ele>
<time>2017-11-05T03:26:17.880Z</time>
</trkpt>
<trkpt lat="22.5105792" lon="114.2248692">
<ele>194.638</ele>
<time>2017-11-05T03:26:28.970Z</time>
</trkpt>
<trkpt lat="22.5105792" lon="114.2248692">
<ele>196.670</ele>
<time>2017-11-05T03:26:41.970Z</time>
</trkpt>
<trkpt lat="22.5105792" lon="114.2248692">
<ele>197.784</ele>
<time>2017-11-05T03:26:42.070Z</time>
</trkpt>
<trkpt lat="22.5106403" lon="114.2247922">
<ele>197.617</ele>
<time>2017-11-05T03:27:09.030Z</time>
</trkpt>
<trkpt lat="22.5107250" lon="114.2247600">
<ele>197.570</ele>
<time>2017-11-05T03:27:14.205Z</time>
</trkpt>
<trkpt lat="22.5108153" lon="114.2247581">
<ele>198.765</ele>
<time>2017-11-05T03:27:18.969Z</time>
</trkpt>
<trkpt lat="22.5108153" lon="114.2247581">
<ele>200.344</ele>
<time>2017-11-05T03:27:28.969Z</time>
</trkpt>
<trkpt lat="22.5108153" lon="114.2247581">
<ele>201.073</ele>
<time>2017-11-05T03:27:29.069Z</time>
</trkpt>
<trkpt lat="22.5108343" lon="114.2246202">
<ele>200.910</ele>
<time>2017-11-05T03:27:36.969Z</time>
</trkpt>
<trkpt lat="22.5108343" lon="114.2246202">
<ele>200.517</ele>
<time>2017-11-05T03:27:42.968Z</time>
</trkpt>
<trkpt lat="22.5108343" lon="114.2246202">
<ele>200.413</ele>
<time>2017-11-05T03:28:10.968Z</time>
</trkpt>
<trkpt lat="22.5108343" lon="114.2246202">
<ele>200.471</ele>
<time>2017-11-05T03:28:15.183Z</time>
</trkpt>
<trkpt lat="22.5106848" lon="114.2245968">
<ele>200.443</ele>
<time>2017-11-05T03:30:28.993Z</time>
</trkpt>
<trkpt lat="22.5105963" lon="114.2245714">
<ele>201.302</ele>
<time>2017-11-05T03:31:53.475Z</time>
</trkpt>
<trkpt lat="22.5105772" lon="114.2244762">
<ele>203.753</ele>
<time>2017-11-05T03:33:18.138Z</time>
</trkpt>
<trkpt lat="22.5104879" lon="114.2244392">
<ele>206.439</ele>
<time>2017-11-05T03:34:48.304Z</time>
</trkpt>
<trkpt lat="22.5103985" lon="114.2244126">
<ele>207.938</ele>
<time>2017-11-05T03:36:15.591Z</time>
</trkpt>
<trkpt lat="22.5103307" lon="114.2243418">
<ele>208.554</ele>
<time>2017-11-05T03:37:44.318Z</time>
</trkpt>
<trkpt lat="22.5102553" lon="114.2242780">
<ele>209.119</ele>
<time>2017-11-05T03:39:14.483Z</time>
</trkpt>
<trkpt lat="22.5102045" lon="114.2241955">
<ele>210.134</ele>
<time>2017-11-05T03:40:06.964Z</time>
</trkpt>
<trkpt lat="22.5102045" lon="114.2241955">
<ele>211.330</ele>
<time>2017-11-05T03:40:06.964Z</time>
</trkpt>
<trkpt lat="22.5102045" lon="114.2241955">
<ele>211.988</ele>
<time>2017-11-05T03:40:23.665Z</time>
</trkpt>
<trkpt lat="22.5100878" lon="114.2240905">
<ele>211.852</ele>
<time>2017-11-05T03:40:44.717Z</time>
</trkpt>
<trkpt lat="22.5099979" lon="114.2240669">
<ele>211.955</ele>
<time>2017-11-05T03:40:52.680Z</time>
</trkpt>
<trkpt lat="22.5099153" lon="114.2239998">
<ele>213.293</ele>
<time>2017-11-05T03:40:59.109Z</time>
</trkpt>
<trkpt lat="22.5098308" lon="114.2239621">
<ele>215.197</ele>
<time>2017-11-05T03:41:05.366Z</time>
</trkpt>
<trkpt lat="22.5097464" lon="114.2239053">
<ele>216.491</ele>
<time>2017-11-05T03:41:12.703Z</time>
</trkpt>
<trkpt lat="22.5096539" lon="114.2238974">
<ele>217.212</ele>
<time>2017-11-05T03:41:20.625Z</time>
</trkpt>
<trkpt lat="22.5095589" lon="114.2238624">
<ele>217.848</ele>
<time>2017-11-05T03:41:29.000Z</time>
</trkpt>
<trkpt lat="22.5094694" lon="114.2238256">
<ele>218.477</ele>
<time>2017-11-05T03:41:38.066Z</time>
</trkpt>
<trkpt lat="22.5094164" lon="114.2237415">
<ele>219.002</ele>
<time>2017-11-05T03:41:47.962Z</time>
</trkpt>
<trkpt lat="22.5094164" lon="114.2237415">
<ele>219.371</ele>
<time>2017-11-05T03:41:53.962Z</time>
</trkpt>
<trkpt lat="22.5094164" lon="114.2237415">
<ele>219.478</ele>
<time>2017-11-05T03:41:54.412Z</time>
</trkpt>
<trkpt lat="22.5093318" lon="114.2237075">
<ele>219.201</ele>
<time>2017-11-05T03:42:05.961Z</time>
</trkpt>
<trkpt lat="22.5093318" lon="114.2237075">
<ele>219.111</ele>
<time>2017-11-05T03:42:22.961Z</time>
</trkpt>
<trkpt lat="22.5093318" lon="114.2237075">
<ele>219.065</ele>
<time>2017-11-05T03:42:23.061Z</time>
</trkpt>
<trkpt lat="22.5092062" lon="114.2235324">
<ele>219.014</ele>
<time>2017-11-05T03:42:58.300Z</time>
</trkpt>
<trkpt lat="22.5091325" lon="114.2234722">
<ele>219.398</ele>
<time>2017-11-05T03:43:10.897Z</time>
</trkpt>
<trkpt lat="22.5090904" lon="114.2233811">
<ele>220.698</ele>
<time>2017-11-05T03:43:21.223Z</time>
</trkpt>
<trkpt lat="22.5090915" lon="114.2232804">
<ele>222.357</ele>
<time>2017-11-05T03:43:29.826Z</time>
</trkpt>
<trkpt lat="22.5090500" lon="114.2231921">
<ele>223.371</ele>
<time>2017-11-05T03:43:39.574Z</time>
</trkpt>
<trkpt lat="22.5089620" lon="114.2231543">
<ele>223.560</ele>
<time>2017-11-05T03:43:51.098Z</time>
</trkpt>
<trkpt lat="22.5088710" lon="114.2231439">
<ele>223.454</ele>
<time>2017-11-05T03:44:03.134Z</time>
</trkpt>
<trkpt lat="22.5087788" lon="114.2231179">
<ele>223.632</ele>
<time>2017-11-05T03:44:15.796Z</time>
</trkpt>
<trkpt lat="22.5087808" lon="114.2230195">
<ele>224.417</ele>
<time>2017-11-05T03:44:27.885Z</time>
</trkpt>
<trkpt lat="22.5088482" lon="114.2229507">
<ele>225.970</ele>
<time>2017-11-05T03:44:40.727Z</time>
</trkpt>
<trkpt lat="22.5089217" lon="114.2228919">
<ele>227.989</ele>
<time>2017-11-05T03:44:52.957Z</time>
</trkpt>
<trkpt lat="22.5089217" lon="114.2228919">
<ele>229.643</ele>
<time>2017-11-05T03:45:08.957Z</time>
</trkpt>
<trkpt lat="22.5089217" lon="114.2228919">
<ele>230.308</ele>
<time>2017-11-05T03:45:59.545Z</time>
</trkpt>
<trkpt lat="22.5089987" lon="114.2227794">
<ele>230.120</ele>
<time>2017-11-05T03:48:42.069Z</time>
</trkpt>
<trkpt lat="22.5090074" lon="114.2226748">
<ele>230.437</ele>
<time>2017-11-05T03:48:53.473Z</time>
</trkpt>
<trkpt lat="22.5089659" lon="114.2225774">
<ele>232.543</ele>
<time>2017-11-05T03:49:00.790Z</time>
</trkpt>
<trkpt lat="22.5089081" lon="114.2224980">
<ele>235.778</ele>
<time>2017-11-05T03:49:07.000Z</time>
</trkpt>
<trkpt lat="22.5088453" lon="114.2224270">
<ele>238.481</ele>
<time>2017-11-05T03:49:12.958Z</time>
</trkpt>
<trkpt lat="22.5088453" lon="114.2224270">
<ele>239.879</ele>
<time>2017-11-05T03:49:18.958Z</time>
</trkpt>
<trkpt lat="22.5088453" lon="114.2224270">
<ele>240.170</ele>
<time>2017-11-05T03:51:07.268Z</time>
</trkpt>
<trkpt lat="22.5087339" lon="114.2223904">
<ele>239.713</ele>
<time>2017-11-05T03:51:51.477Z</time>
</trkpt>
<trkpt lat="22.5086504" lon="114.2223363">
<ele>239.765</ele>
<time>2017-11-05T03:52:12.861Z</time>
</trkpt>
<trkpt lat="22.5085980" lon="114.2222550">
<ele>240.504</ele>
<time>2017-11-05T03:52:21.953Z</time>
</trkpt>
<trkpt lat="22.5085980" lon="114.2222550">
<ele>241.766</ele>
<time>2017-11-05T03:52:30.953Z</time>
</trkpt>
<trkpt lat="22.5085980" lon="114.2222550">
<ele>242.583</ele>
<time>2017-11-05T03:52:36.424Z</time>
</trkpt>
<trkpt lat="22.5085210" lon="114.2223090">
<ele>242.444</ele>
<time>2017-11-05T03:52:59.917Z</time>
</trkpt>
<trkpt lat="22.5084840" lon="114.2222161">
<ele>241.895</ele>
<time>2017-11-05T03:53:14.586Z</time>
</trkpt>
<trkpt lat="22.5084705" lon="114.2221193">
<ele>241.442</ele>
<time>2017-11-05T03:53:27.494Z</time>
</trkpt>
<trkpt lat="22.5084564" lon="114.2220153">
<ele>241.073</ele>
<time>2017-11-05T03:53:39.615Z</time>
</trkpt>
<trkpt lat="22.5083819" lon="114.2219411">
<ele>240.664</ele>
<time>2017-11-05T03:53:49.428Z</time>
</trkpt>
<trkpt lat="22.5083052" lon="114.2218774">
<ele>240.216</ele>
<time>2017-11-05T03:53:57.489Z</time>
</trkpt>
<trkpt lat="22.5082162" lon="114.2218580">
<ele>239.888</ele>
<time>2017-11-05T03:54:05.479Z</time>
</trkpt>
<trkpt lat="22.5081209" lon="114.2218559">
<ele>239.813</ele>
<time>2017-11-05T03:54:16.218Z</time>
</trkpt>
<trkpt lat="22.5080275" lon="114.2218695">
<ele>239.974</ele>
<time>2017-11-05T03:54:26.957Z</time>
</trkpt>
<trkpt lat="22.5080275" lon="114.2218695">
<ele>240.249</ele>
<time>2017-11-05T03:54:33.957Z</time>
</trkpt>
<trkpt lat="22.5080275" lon="114.2218695">
<ele>240.389</ele>
<time>2017-11-05T03:55:07.460Z</time>
</trkpt>
<trkpt lat="22.5078030" lon="114.2218416">
<ele>240.242</ele>
<time>2017-11-05T03:55:33.460Z</time>
</trkpt>
<trkpt lat="22.5077159" lon="114.2218144">
<ele>239.833</ele>
<time>2017-11-05T03:55:42.044Z</time>
</trkpt>
<trkpt lat="22.5076207" lon="114.2218333">
<ele>239.315</ele>
<time>2017-11-05T03:55:52.955Z</time>
</trkpt>
<trkpt lat="22.5076207" lon="114.2218333">
<ele>238.951</ele>
<time>2017-11-05T03:55:58.955Z</time>
</trkpt>
<trkpt lat="22.5076207" lon="114.2218333">
<ele>238.870</ele>
<time>2017-11-05T03:55:59.055Z</time>
</trkpt>
<trkpt lat="22.5075299" lon="114.2218489">
<ele>238.937</ele>
<time>2017-11-05T03:56:18.019Z</time>
</trkpt>
<trkpt lat="22.5074373" lon="114.2218507">
<ele>239.232</ele>
<time>2017-11-05T03:56:28.514Z</time>
</trkpt>
<trkpt lat="22.5073441" lon="114.2218296">
<ele>240.026</ele>
<time>2017-11-05T03:56:38.563Z</time>
</trkpt>
<trkpt lat="22.5072502" lon="114.2218012">
<ele>241.181</ele>
<time>2017-11-05T03:56:48.912Z</time>
</trkpt>
<trkpt lat="22.5071649" lon="114.2217641">
<ele>242.261</ele>
<time>2017-11-05T03:56:59.610Z</time>
</trkpt>
<trkpt lat="22.5070772" lon="114.2217937">
<ele>243.136</ele>
<time>2017-11-05T03:57:10.569Z</time>
</trkpt>
<trkpt lat="22.5069879" lon="114.2218357">
<ele>243.894</ele>
<time>2017-11-05T03:57:21.778Z</time>
</trkpt>
<trkpt lat="22.5069000" lon="114.2218613">
<ele>244.600</ele>
<time>2017-11-05T03:57:35.622Z</time>
</trkpt>
<trkpt lat="22.5068079" lon="114.2218853">
<ele>245.328</ele>
<time>2017-11-05T03:57:50.788Z</time>
</trkpt>
<trkpt lat="22.5067122" lon="114.2218859">
<ele>246.121</ele>
<time>2017-11-05T03:58:03.507Z</time>
</trkpt>
<trkpt lat="22.5066203" lon="114.2219048">
<ele>246.847</ele>
<time>2017-11-05T03:58:14.169Z</time>
</trkpt>
<trkpt lat="22.5065326" lon="114.2218489">
<ele>247.368</ele>
<time>2017-11-05T03:58:24.639Z</time>
</trkpt>
<trkpt lat="22.5064440" lon="114.2218204">
<ele>247.752</ele>
<time>2017-11-05T03:58:33.427Z</time>
</trkpt>
<trkpt lat="22.5063647" lon="114.2218764">
<ele>248.215</ele>
<time>2017-11-05T03:58:42.694Z</time>
</trkpt>
<trkpt lat="22.5062744" lon="114.2219127">
<ele>248.849</ele>
<time>2017-11-05T03:58:52.368Z</time>
</trkpt>
<trkpt lat="22.5061895" lon="114.2219457">
<ele>249.516</ele>
<time>2017-11-05T03:59:01.402Z</time>
</trkpt>
<trkpt lat="22.5061102" lon="114.2220099">
<ele>250.024</ele>
<time>2017-11-05T03:59:11.712Z</time>
</trkpt>
<trkpt lat="22.5060475" lon="114.2220897">
<ele>250.367</ele>
<time>2017-11-05T03:59:22.108Z</time>
</trkpt>
<trkpt lat="22.5059817" lon="114.2221691">
<ele>250.705</ele>
<time>2017-11-05T03:59:32.038Z</time>
</trkpt>
<trkpt lat="22.5059038" lon="114.2222306">
<ele>251.208</ele>
<time>2017-11-05T03:59:40.942Z</time>
</trkpt>
<trkpt lat="22.5058203" lon="114.2222871">
<ele>251.816</ele>
<time>2017-11-05T03:59:49.529Z</time>
</trkpt>
<trkpt lat="22.5057273" lon="114.2223244">
<ele>252.285</ele>
<time>2017-11-05T03:59:58.234Z</time>
</trkpt>
<trkpt lat="22.5056355" lon="114.2223064">
<ele>252.571</ele>
<time>2017-11-05T04:00:07.060Z</time>
</trkpt>
<trkpt lat="22.5055557" lon="114.2222507">
<ele>252.819</ele>
<time>2017-11-05T04:00:16.372Z</time>
</trkpt>
<trkpt lat="22.5054681" lon="114.2222045">
<ele>253.058</ele>
<time>2017-11-05T04:00:25.591Z</time>
</trkpt>
<trkpt lat="22.5053817" lon="114.2221632">
<ele>253.278</ele>
<time>2017-11-05T04:00:34.738Z</time>
</trkpt>
<trkpt lat="22.5053030" lon="114.2221089">
<ele>253.484</ele>
<time>2017-11-05T04:00:44.527Z</time>
</trkpt>
<trkpt lat="22.5052240" lon="114.2220430">
<ele>253.623</ele>
<time>2017-11-05T04:00:55.509Z</time>
</trkpt>
<trkpt lat="22.5051525" lon="114.2219735">
<ele>253.676</ele>
<time>2017-11-05T04:01:05.060Z</time>
</trkpt>
<trkpt lat="22.5050800" lon="114.2219053">
<ele>253.771</ele>
<time>2017-11-05T04:01:14.044Z</time>
</trkpt>
<trkpt lat="22.5050009" lon="114.2218576">
<ele>254.003</ele>
<time>2017-11-05T04:01:22.777Z</time>
</trkpt>
<trkpt lat="22.5049084" lon="114.2218306">
<ele>254.369</ele>
<time>2017-11-05T04:01:32.416Z</time>
</trkpt>
<trkpt lat="22.5048160" lon="114.2217984">
<ele>254.834</ele>
<time>2017-11-05T04:01:42.193Z</time>
</trkpt>
<trkpt lat="22.5047317" lon="114.2217521">
<ele>255.296</ele>
<time>2017-11-05T04:01:51.438Z</time>
</trkpt>
<trkpt lat="22.5046659" lon="114.2216836">
<ele>255.664</ele>
<time>2017-11-05T04:02:00.200Z</time>
</trkpt>
<trkpt lat="22.5046116" lon="114.2216013">
<ele>255.979</ele>
<time>2017-11-05T04:02:09.101Z</time>
</trkpt>
<trkpt lat="22.5045391" lon="114.2215396">
<ele>256.250</ele>
<time>2017-11-05T04:02:17.745Z</time>
</trkpt>
<trkpt lat="22.5044624" lon="114.2214809">
<ele>256.453</ele>
<time>2017-11-05T04:02:26.419Z</time>
</trkpt>
<trkpt lat="22.5043789" lon="114.2214311">
<ele>256.658</ele>
<time>2017-11-05T04:02:35.801Z</time>
</trkpt>
<trkpt lat="22.5042829" lon="114.2214396">
<ele>257.037</ele>
<time>2017-11-05T04:02:46.516Z</time>
</trkpt>
<trkpt lat="22.5041912" lon="114.2214537">
<ele>257.647</ele>
<time>2017-11-05T04:02:57.549Z</time>
</trkpt>
<trkpt lat="22.5040943" lon="114.2214579">
<ele>258.571</ele>
<time>2017-11-05T04:03:12.075Z</time>
</trkpt>
<trkpt lat="22.5040257" lon="114.2215243">
<ele>260.013</ele>
<time>2017-11-05T04:03:28.290Z</time>
</trkpt>
<trkpt lat="22.5039316" lon="114.2215179">
<ele>261.873</ele>
<time>2017-11-05T04:03:40.944Z</time>
</trkpt>
<trkpt lat="22.5038414" lon="114.2214873">
<ele>263.557</ele>
<time>2017-11-05T04:03:50.810Z</time>
</trkpt>
<trkpt lat="22.5037777" lon="114.2214113">
<ele>264.532</ele>
<time>2017-11-05T04:03:59.932Z</time>
</trkpt>
<trkpt lat="22.5037401" lon="114.2213215">
<ele>264.758</ele>
<time>2017-11-05T04:04:08.549Z</time>
</trkpt>
<trkpt lat="22.5037571" lon="114.2212246">
<ele>264.525</ele>
<time>2017-11-05T04:04:17.476Z</time>
</trkpt>
<trkpt lat="22.5037506" lon="114.2211251">
<ele>263.923</ele>
<time>2017-11-05T04:04:27.609Z</time>
</trkpt>
<trkpt lat="22.5037683" lon="114.2210246">
<ele>262.829</ele>
<time>2017-11-05T04:04:38.949Z</time>
</trkpt>
<trkpt lat="22.5037683" lon="114.2210246">
<ele>261.518</ele>
<time>2017-11-05T04:04:46.949Z</time>
</trkpt>
<trkpt lat="22.5037683" lon="114.2210246">
<ele>260.711</ele>
<time>2017-11-05T04:04:47.049Z</time>
</trkpt>
<trkpt lat="22.5037779" lon="114.2209248">
<ele>260.655</ele>
<time>2017-11-05T04:04:56.949Z</time>
</trkpt>
<trkpt lat="22.5037779" lon="114.2209248">
<ele>260.819</ele>
<time>2017-11-05T04:05:02.949Z</time>
</trkpt>
<trkpt lat="22.5037779" lon="114.2209248">
<ele>260.738</ele>
<time>2017-11-05T04:05:03.049Z</time>
</trkpt>
<trkpt lat="22.5038220" lon="114.2208365">
<ele>260.445</ele>
<time>2017-11-05T04:05:22.948Z</time>
</trkpt>
<trkpt lat="22.5038220" lon="114.2208365">
<ele>260.407</ele>
<time>2017-11-05T04:05:25.948Z</time>
</trkpt>
<trkpt lat="22.5038220" lon="114.2208365">
<ele>260.304</ele>
<time>2017-11-05T04:07:41.951Z</time>
</trkpt>
<trkpt lat="22.5038220" lon="114.2208365">
<ele>260.175</ele>
<time>2017-11-05T04:17:45.777Z</time>
</trkpt>
<trkpt lat="22.5037733" lon="114.2209299">
<ele>260.033</ele>
<time>2017-11-05T04:18:05.406Z</time>
</trkpt>
<trkpt lat="22.5036961" lon="114.2209888">
<ele>259.617</ele>
<time>2017-11-05T04:18:12.296Z</time>
</trkpt>
<trkpt lat="22.5036328" lon="114.2210637">
<ele>258.606</ele>
<time>2017-11-05T04:18:16.995Z</time>
</trkpt>
<trkpt lat="22.5036328" lon="114.2210637">
<ele>257.577</ele>
<time>2017-11-05T04:18:23.994Z</time>
</trkpt>
<trkpt lat="22.5036328" lon="114.2210637">
<ele>257.099</ele>
<time>2017-11-05T04:18:58.543Z</time>
</trkpt>
<trkpt lat="22.5037240" lon="114.2210073">
<ele>257.159</ele>
<time>2017-11-05T04:19:16.771Z</time>
</trkpt>
<trkpt lat="22.5037034" lon="114.2209061">
<ele>257.297</ele>
<time>2017-11-05T04:19:25.226Z</time>
</trkpt>
<trkpt lat="22.5037828" lon="114.2208586">
<ele>257.525</ele>
<time>2017-11-05T04:19:32.993Z</time>
</trkpt>
<trkpt lat="22.5037828" lon="114.2208586">
<ele>257.844</ele>
<time>2017-11-05T04:19:38.993Z</time>
</trkpt>
<trkpt lat="22.5037828" lon="114.2208586">
<ele>258.015</ele>
<time>2017-11-05T04:38:19.331Z</time>
</trkpt>
<trkpt lat="22.5038410" lon="114.2207534">
<ele>257.678</ele>
<time>2017-11-05T04:38:42.070Z</time>
</trkpt>
<trkpt lat="22.5039045" lon="114.2206700">
<ele>258.027</ele>
<time>2017-11-05T04:38:53.420Z</time>
</trkpt>
<trkpt lat="22.5038880" lon="114.2205737">
<ele>259.253</ele>
<time>2017-11-05T04:39:00.265Z</time>
</trkpt>
<trkpt lat="22.5039118" lon="114.2204668">
<ele>260.575</ele>
<time>2017-11-05T04:39:09.894Z</time>
</trkpt>
<trkpt lat="22.5038986" lon="114.2203699">
<ele>261.235</ele>
<time>2017-11-05T04:39:18.984Z</time>
</trkpt>
<trkpt lat="22.5038986" lon="114.2203699">
<ele>261.333</ele>
<time>2017-11-05T04:39:18.984Z</time>
</trkpt>
<trkpt lat="22.5038986" lon="114.2203699">
<ele>261.173</ele>
<time>2017-11-05T04:41:15.667Z</time>
</trkpt>
<trkpt lat="22.5038550" lon="114.2202070">
<ele>261.014</ele>
<time>2017-11-05T04:43:35.859Z</time>
</trkpt>
<trkpt lat="22.5039209" lon="114.2201394">
<ele>261.068</ele>
<time>2017-11-05T04:43:45.120Z</time>
</trkpt>
<trkpt lat="22.5039399" lon="114.2200435">
<ele>261.359</ele>
<time>2017-11-05T04:43:51.823Z</time>
</trkpt>
<trkpt lat="22.5039287" lon="114.2199389">
<ele>261.662</ele>
<time>2017-11-05T04:43:57.264Z</time>
</trkpt>
<trkpt lat="22.5039420" lon="114.2198377">
<ele>261.783</ele>
<time>2017-11-05T04:44:01.711Z</time>
</trkpt>
<trkpt lat="22.5039997" lon="114.2197604">
<ele>261.722</ele>
<time>2017-11-05T04:44:05.984Z</time>
</trkpt>
<trkpt lat="22.5039997" lon="114.2197604">
<ele>261.576</ele>
<time>2017-11-05T04:44:12.983Z</time>
</trkpt>
<trkpt lat="22.5039997" lon="114.2197604">
<ele>261.447</ele>
<time>2017-11-05T04:46:26.313Z</time>
</trkpt>
<trkpt lat="22.5040993" lon="114.2196824">
<ele>261.371</ele>
<time>2017-11-05T04:46:39.980Z</time>
</trkpt>
<trkpt lat="22.5040993" lon="114.2196824">
<ele>261.324</ele>
<time>2017-11-05T04:46:56.980Z</time>
</trkpt>
<trkpt lat="22.5040993" lon="114.2196824">
<ele>261.262</ele>
<time>2017-11-05T04:46:57.080Z</time>
</trkpt>
<trkpt lat="22.5041936" lon="114.2196539">
<ele>261.068</ele>
<time>2017-11-05T04:47:13.579Z</time>
</trkpt>
<trkpt lat="22.5042627" lon="114.2195859">
<ele>260.951</ele>
<time>2017-11-05T04:47:21.415Z</time>
</trkpt>
<trkpt lat="22.5042674" lon="114.2194726">
<ele>260.692</ele>
<time>2017-11-05T04:47:29.253Z</time>
</trkpt>
<trkpt lat="22.5043381" lon="114.2194049">
<ele>260.183</ele>
<time>2017-11-05T04:47:35.474Z</time>
</trkpt>
<trkpt lat="22.5044049" lon="114.2193298">
<ele>259.525</ele>
<time>2017-11-05T04:47:41.021Z</time>
</trkpt>
<trkpt lat="22.5044914" lon="114.2193672">
<ele>258.968</ele>
<time>2017-11-05T04:47:46.645Z</time>
</trkpt>
<trkpt lat="22.5045771" lon="114.2192944">
<ele>258.527</ele>
<time>2017-11-05T04:47:54.446Z</time>
</trkpt>
<trkpt lat="22.5046179" lon="114.2192007">
<ele>257.801</ele>
<time>2017-11-05T04:48:00.978Z</time>
</trkpt>
<trkpt lat="22.5046179" lon="114.2192007">
<ele>256.727</ele>
<time>2017-11-05T04:48:07.978Z</time>
</trkpt>
<trkpt lat="22.5046179" lon="114.2192007">
<ele>255.948</ele>
<time>2017-11-05T04:48:11.388Z</time>
</trkpt>
<trkpt lat="22.5047020" lon="114.2191243">
<ele>256.150</ele>
<time>2017-11-05T04:48:28.428Z</time>
</trkpt>
<trkpt lat="22.5047874" lon="114.2190547">
<ele>255.998</ele>
<time>2017-11-05T04:48:35.764Z</time>
</trkpt>
<trkpt lat="22.5048794" lon="114.2190272">
<ele>254.925</ele>
<time>2017-11-05T04:48:41.653Z</time>
</trkpt>
<trkpt lat="22.5049235" lon="114.2189272">
<ele>253.359</ele>
<time>2017-11-05T04:48:47.977Z</time>
</trkpt>
<trkpt lat="22.5049235" lon="114.2189272">
<ele>252.128</ele>
<time>2017-11-05T04:48:55.977Z</time>
</trkpt>
<trkpt lat="22.5049235" lon="114.2189272">
<ele>251.567</ele>
<time>2017-11-05T04:49:15.896Z</time>
</trkpt>
<trkpt lat="22.5050436" lon="114.2188562">
<ele>251.685</ele>
<time>2017-11-05T04:49:37.276Z</time>
</trkpt>
<trkpt lat="22.5051394" lon="114.2188853">
<ele>251.688</ele>
<time>2017-11-05T04:49:45.064Z</time>
</trkpt>
<trkpt lat="22.5052491" lon="114.2188817">
<ele>251.224</ele>
<time>2017-11-05T04:49:52.518Z</time>
</trkpt>
<trkpt lat="22.5053453" lon="114.2188900">
<ele>250.196</ele>
<time>2017-11-05T04:49:59.220Z</time>
</trkpt>
<trkpt lat="22.5054214" lon="114.2188382">
<ele>248.733</ele>
<time>2017-11-05T04:50:06.653Z</time>
</trkpt>
<trkpt lat="22.5055106" lon="114.2188058">
<ele>247.008</ele>
<time>2017-11-05T04:50:14.384Z</time>
</trkpt>
<trkpt lat="22.5055999" lon="114.2187858">
<ele>245.384</ele>
<time>2017-11-05T04:50:20.793Z</time>
</trkpt>
<trkpt lat="22.5056903" lon="114.2187687">
<ele>244.313</ele>
<time>2017-11-05T04:50:27.217Z</time>
</trkpt>
<trkpt lat="22.5057781" lon="114.2187301">
<ele>243.858</ele>
<time>2017-11-05T04:50:34.683Z</time>
</trkpt>
<trkpt lat="22.5058379" lon="114.2186557">
<ele>243.542</ele>
<time>2017-11-05T04:50:42.296Z</time>
</trkpt>
<trkpt lat="22.5059289" lon="114.2186230">
<ele>242.873</ele>
<time>2017-11-05T04:50:50.780Z</time>
</trkpt>
<trkpt lat="22.5060059" lon="114.2185673">
<ele>241.771</ele>
<time>2017-11-05T04:50:59.568Z</time>
</trkpt>
<trkpt lat="22.5060842" lon="114.2185187">
<ele>240.423</ele>
<time>2017-11-05T04:51:09.597Z</time>
</trkpt>
<trkpt lat="22.5061692" lon="114.2184678">
<ele>238.925</ele>
<time>2017-11-05T04:51:19.836Z</time>
</trkpt>
<trkpt lat="22.5062183" lon="114.2183777">
<ele>237.278</ele>
<time>2017-11-05T04:51:28.103Z</time>
</trkpt>
<trkpt lat="22.5062864" lon="114.2183141">
<ele>235.648</ele>
<time>2017-11-05T04:51:35.245Z</time>
</trkpt>
<trkpt lat="22.5063665" lon="114.2182657">
<ele>234.243</ele>
<time>2017-11-05T04:51:43.256Z</time>
</trkpt>
<trkpt lat="22.5064114" lon="114.2181767">
<ele>233.101</ele>
<time>2017-11-05T04:51:51.979Z</time>
</trkpt>
<trkpt lat="22.5064114" lon="114.2181767">
<ele>232.328</ele>
<time>2017-11-05T04:52:08.979Z</time>
</trkpt>
<trkpt lat="22.5064114" lon="114.2181767">
<ele>232.004</ele>
<time>2017-11-05T04:52:09.079Z</time>
</trkpt>
<trkpt lat="22.5065179" lon="114.2180844">
<ele>231.956</ele>
<time>2017-11-05T04:52:23.339Z</time>
</trkpt>
<trkpt lat="22.5065239" lon="114.2179728">
<ele>231.413</ele>
<time>2017-11-05T04:52:30.978Z</time>
</trkpt>
<trkpt lat="22.5065239" lon="114.2179728">
<ele>229.936</ele>
<time>2017-11-05T04:52:34.978Z</time>
</trkpt>
<trkpt lat="22.5065239" lon="114.2179728">
<ele>228.649</ele>
<time>2017-11-05T04:52:35.078Z</time>
</trkpt>
<trkpt lat="22.5065963" lon="114.2178926">
<ele>228.573</ele>
<time>2017-11-05T04:52:40.978Z</time>
</trkpt>
<trkpt lat="22.5065963" lon="114.2178926">
<ele>228.948</ele>
<time>2017-11-05T04:52:41.978Z</time>
</trkpt>
<trkpt lat="22.5065963" lon="114.2178926">
<ele>228.903</ele>
<time>2017-11-05T04:52:51.301Z</time>
</trkpt>
<trkpt lat="22.5066841" lon="114.2178349">
<ele>228.574</ele>
<time>2017-11-05T04:53:15.613Z</time>
</trkpt>
<trkpt lat="22.5067636" lon="114.2177754">
<ele>227.821</ele>
<time>2017-11-05T04:53:27.350Z</time>
</trkpt>
<trkpt lat="22.5068042" lon="114.2176846">
<ele>226.272</ele>
<time>2017-11-05T04:53:37.845Z</time>
</trkpt>
<trkpt lat="22.5068988" lon="114.2176641">
<ele>224.571</ele>
<time>2017-11-05T04:53:48.576Z</time>
</trkpt>
<trkpt lat="22.5069484" lon="114.2175823">
<ele>223.522</ele>
<time>2017-11-05T04:53:56.948Z</time>
</trkpt>
<trkpt lat="22.5069763" lon="114.2174893">
<ele>223.056</ele>
<time>2017-11-05T04:54:04.693Z</time>
</trkpt>
<trkpt lat="22.5070354" lon="114.2174095">
<ele>222.817</ele>
<time>2017-11-05T04:54:13.312Z</time>
</trkpt>
<trkpt lat="22.5071110" lon="114.2173477">
<ele>222.477</ele>
<time>2017-11-05T04:54:22.364Z</time>
</trkpt>
<trkpt lat="22.5071852" lon="114.2172863">
<ele>221.818</ele>
<time>2017-11-05T04:54:32.021Z</time>
</trkpt>
<trkpt lat="22.5072096" lon="114.2171821">
<ele>220.937</ele>
<time>2017-11-05T04:54:42.305Z</time>
</trkpt>
<trkpt lat="22.5072897" lon="114.2171126">
<ele>220.108</ele>
<time>2017-11-05T04:54:50.344Z</time>
</trkpt>
<trkpt lat="22.5073792" lon="114.2170807">
<ele>219.480</ele>
<time>2017-11-05T04:54:58.210Z</time>
</trkpt>
<trkpt lat="22.5074594" lon="114.2170324">
<ele>219.003</ele>
<time>2017-11-05T04:55:07.350Z</time>
</trkpt>
<trkpt lat="22.5075346" lon="114.2169655">
<ele>218.398</ele>
<time>2017-11-05T04:55:18.956Z</time>
</trkpt>
<trkpt lat="22.5075689" lon="114.2168730">
<ele>217.493</ele>
<time>2017-11-05T04:55:30.974Z</time>
</trkpt>
<trkpt lat="22.5075689" lon="114.2168730">
<ele>216.628</ele>
<time>2017-11-05T04:55:46.974Z</time>
</trkpt>
<trkpt lat="22.5075689" lon="114.2168730">
<ele>216.191</ele>
<time>2017-11-05T04:55:47.074Z</time>
</trkpt>
<trkpt lat="22.5075689" lon="114.2168730">
<ele>216.257</ele>
<time>2017-11-05T04:57:45.971Z</time>
</trkpt>
<trkpt lat="22.5075689" lon="114.2168730">
<ele>216.302</ele>
<time>2017-11-05T05:03:58.617Z</time>
</trkpt>
<trkpt lat="22.5074656" lon="114.2170037">
<ele>216.194</ele>
<time>2017-11-05T05:05:33.925Z</time>
</trkpt>
<trkpt lat="22.5078551" lon="114.2167328">
<ele>215.014</ele>
<time>2017-11-05T05:09:48.217Z</time>
</trkpt>
<trkpt lat="22.5079335" lon="114.2166689">
<ele>212.611</ele>
<time>2017-11-05T05:10:42.105Z</time>
</trkpt>
<trkpt lat="22.5080332" lon="114.2166327">
<ele>210.027</ele>
<time>2017-11-05T05:11:39.843Z</time>
</trkpt>
<trkpt lat="22.5081259" lon="114.2165849">
<ele>208.139</ele>
<time>2017-11-05T05:12:36.248Z</time>
</trkpt>
<trkpt lat="22.5082437" lon="114.2165511">
<ele>206.634</ele>
<time>2017-11-05T05:13:43.164Z</time>
</trkpt>
<trkpt lat="22.5083429" lon="114.2165303">
<ele>205.576</ele>
<time>2017-11-05T05:14:36.365Z</time>
</trkpt>
<trkpt lat="22.5084308" lon="114.2165040">
<ele>205.047</ele>
<time>2017-11-05T05:15:22.965Z</time>
</trkpt>
<trkpt lat="22.5084308" lon="114.2165040">
<ele>204.848</ele>
<time>2017-11-05T05:15:32.964Z</time>
</trkpt>
<trkpt lat="22.5084308" lon="114.2165040">
<ele>204.798</ele>
<time>2017-11-05T05:15:33.064Z</time>
</trkpt>
<trkpt lat="22.5086044" lon="114.2164393">
<ele>204.791</ele>
<time>2017-11-05T05:16:21.882Z</time>
</trkpt>
<trkpt lat="22.5086834" lon="114.2163762">
<ele>204.772</ele>
<time>2017-11-05T05:16:32.895Z</time>
</trkpt>
<trkpt lat="22.5087756" lon="114.2163290">
<ele>204.716</ele>
<time>2017-11-05T05:16:43.817Z</time>
</trkpt>
<trkpt lat="22.5088533" lon="114.2162770">
<ele>204.443</ele>
<time>2017-11-05T05:16:53.991Z</time>
</trkpt>
<trkpt lat="22.5089466" lon="114.2162554">
<ele>203.848</ele>
<time>2017-11-05T05:17:04.663Z</time>
</trkpt>
<trkpt lat="22.5090466" lon="114.2162707">
<ele>203.098</ele>
<time>2017-11-05T05:17:16.156Z</time>
</trkpt>
<trkpt lat="22.5091436" lon="114.2162412">
<ele>202.409</ele>
<time>2017-11-05T05:17:27.791Z</time>
</trkpt>
<trkpt lat="22.5092442" lon="114.2162337">
<ele>201.946</ele>
<time>2017-11-05T05:17:37.839Z</time>
</trkpt>
<trkpt lat="22.5093322" lon="114.2162837">
<ele>201.704</ele>
<time>2017-11-05T05:17:47.118Z</time>
</trkpt>
<trkpt lat="22.5093922" lon="114.2162059">
<ele>201.451</ele>
<time>2017-11-05T05:17:57.935Z</time>
</trkpt>
<trkpt lat="22.5094926" lon="114.2161867">
<ele>201.157</ele>
<time>2017-11-05T05:18:09.961Z</time>
</trkpt>
<trkpt lat="22.5094926" lon="114.2161867">
<ele>200.936</ele>
<time>2017-11-05T05:18:14.960Z</time>
</trkpt>
<trkpt lat="22.5094926" lon="114.2161867">
<ele>200.812</ele>
<time>2017-11-05T05:18:15.488Z</time>
</trkpt>
<trkpt lat="22.5096019" lon="114.2160720">
<ele>200.741</ele>
<time>2017-11-05T05:19:58.597Z</time>
</trkpt>
<trkpt lat="22.5099449" lon="114.2157291">
<ele>200.356</ele>
<time>2017-11-05T05:24:52.687Z</time>
</trkpt>
<trkpt lat="22.5099948" lon="114.2156338">
<ele>195.541</ele>
<time>2017-11-05T05:25:56.393Z</time>
</trkpt>
<trkpt lat="22.5100491" lon="114.2155497">
<ele>184.087</ele>
<time>2017-11-05T05:26:56.082Z</time>
</trkpt>
<trkpt lat="22.5101187" lon="114.2154869">
<ele>172.639</ele>
<time>2017-11-05T05:27:55.959Z</time>
</trkpt>
<trkpt lat="22.5101187" lon="114.2154869">
<ele>167.296</ele>
<time>2017-11-05T05:28:04.959Z</time>
</trkpt>
<trkpt lat="22.5101187" lon="114.2154869">
<ele>166.627</ele>
<time>2017-11-05T05:28:22.798Z</time>
</trkpt>
<trkpt lat="22.5101610" lon="114.2153767">
<ele>167.457</ele>
<time>2017-11-05T05:28:33.958Z</time>
</trkpt>
<trkpt lat="22.5101610" lon="114.2153767">
<ele>167.832</ele>
<time>2017-11-05T05:28:35.958Z</time>
</trkpt>
<trkpt lat="22.5101610" lon="114.2153767">
<ele>167.640</ele>
<time>2017-11-05T05:28:53.958Z</time>
</trkpt>
<trkpt lat="22.5101610" lon="114.2153767">
<ele>167.413</ele>
<time>2017-11-05T05:29:02.862Z</time>
</trkpt>
<trkpt lat="22.5102571" lon="114.2153468">
<ele>167.378</ele>
<time>2017-11-05T05:29:20.141Z</time>
</trkpt>
<trkpt lat="22.5103094" lon="114.2152605">
<ele>168.214</ele>
<time>2017-11-05T05:29:29.501Z</time>
</trkpt>
<trkpt lat="22.5103811" lon="114.2151782">
<ele>170.404</ele>
<time>2017-11-05T05:29:39.332Z</time>
</trkpt>
<trkpt lat="22.5104727" lon="114.2151601">
<ele>172.779</ele>
<time>2017-11-05T05:29:48.034Z</time>
</trkpt>
<trkpt lat="22.5105662" lon="114.2151707">
<ele>174.005</ele>
<time>2017-11-05T05:29:57.075Z</time>
</trkpt>
<trkpt lat="22.5106476" lon="114.2151206">
<ele>174.224</ele>
<time>2017-11-05T05:30:05.204Z</time>
</trkpt>
<trkpt lat="22.5107368" lon="114.2150944">
<ele>174.089</ele>
<time>2017-11-05T05:30:11.556Z</time>
</trkpt>
<trkpt lat="22.5108291" lon="114.2150631">
<ele>174.016</ele>
<time>2017-11-05T05:30:17.956Z</time>
</trkpt>
<trkpt lat="22.5108291" lon="114.2150631">
<ele>174.007</ele>
<time>2017-11-05T05:30:26.956Z</time>
</trkpt>
<trkpt lat="22.5108291" lon="114.2150631">
<ele>173.942</ele>
<time>2017-11-05T05:30:27.603Z</time>
</trkpt>
<trkpt lat="22.5109367" lon="114.2150791">
<ele>173.853</ele>
<time>2017-11-05T05:30:40.360Z</time>
</trkpt>
<trkpt lat="22.5110336" lon="114.2150838">
<ele>173.378</ele>
<time>2017-11-05T05:30:47.005Z</time>
</trkpt>
<trkpt lat="22.5111239" lon="114.2150738">
<ele>171.676</ele>
<time>2017-11-05T05:30:52.955Z</time>
</trkpt>
<trkpt lat="22.5111239" lon="114.2150738">
<ele>169.026</ele>
<time>2017-11-05T05:30:56.955Z</time>
</trkpt>
<trkpt lat="22.5111239" lon="114.2150738">
<ele>167.254</ele>
<time>2017-11-05T05:31:01.268Z</time>
</trkpt>
<trkpt lat="22.5112424" lon="114.2150764">
<ele>168.106</ele>
<time>2017-11-05T05:31:15.353Z</time>
</trkpt>
<trkpt lat="22.5113403" lon="114.2150481">
<ele>167.618</ele>
<time>2017-11-05T05:31:20.955Z</time>
</trkpt>
<trkpt lat="22.5113403" lon="114.2150481">
<ele>164.952</ele>
<time>2017-11-05T05:31:29.954Z</time>
</trkpt>
<trkpt lat="22.5113403" lon="114.2150481">
<ele>162.524</ele>
<time>2017-11-05T05:31:30.054Z</time>
</trkpt>
<trkpt lat="22.5114465" lon="114.2150324">
<ele>162.475</ele>
<time>2017-11-05T05:32:23.815Z</time>
</trkpt>
<trkpt lat="22.5113635" lon="114.2150724">
<ele>161.761</ele>
<time>2017-11-05T05:32:47.991Z</time>
</trkpt>
<trkpt lat="22.5113602" lon="114.2149693">
<ele>157.491</ele>
<time>2017-11-05T05:32:57.736Z</time>
</trkpt>
<trkpt lat="22.5113258" lon="114.2148736">
<ele>152.209</ele>
<time>2017-11-05T05:33:06.404Z</time>
</trkpt>
<trkpt lat="22.5112969" lon="114.2147772">
<ele>149.487</ele>
<time>2017-11-05T05:33:15.630Z</time>
</trkpt>
<trkpt lat="22.5112872" lon="114.2146781">
<ele>149.380</ele>
<time>2017-11-05T05:33:25.384Z</time>
</trkpt>
<trkpt lat="22.5113103" lon="114.2145823">
<ele>150.315</ele>
<time>2017-11-05T05:33:33.535Z</time>
</trkpt>
<trkpt lat="22.5113718" lon="114.2145079">
<ele>151.032</ele>
<time>2017-11-05T05:33:40.951Z</time>
</trkpt>
<trkpt lat="22.5113718" lon="114.2145079">
<ele>151.247</ele>
<time>2017-11-05T05:33:45.958Z</time>
</trkpt>
<trkpt lat="22.5113718" lon="114.2145079">
<ele>151.137</ele>
<time>2017-11-05T05:33:51.169Z</time>
</trkpt>
<trkpt lat="22.5113697" lon="114.2143450">
<ele>150.957</ele>
<time>2017-11-05T05:34:10.364Z</time>
</trkpt>
<trkpt lat="22.5113390" lon="114.2142532">
<ele>150.427</ele>
<time>2017-11-05T05:34:17.950Z</time>
</trkpt>
<trkpt lat="22.5113294" lon="114.2141554">
<ele>149.129</ele>
<time>2017-11-05T05:34:25.957Z</time>
</trkpt>
<trkpt lat="22.5113294" lon="114.2141554">
<ele>147.742</ele>
<time>2017-11-05T05:34:31.957Z</time>
</trkpt>
<trkpt lat="22.5113294" lon="114.2141554">
<ele>147.177</ele>
<time>2017-11-05T05:34:55.599Z</time>
</trkpt>
<trkpt lat="22.5113995" lon="114.2140363">
<ele>147.446</ele>
<time>2017-11-05T05:35:16.956Z</time>
</trkpt>
<trkpt lat="22.5113995" lon="114.2140363">
<ele>147.945</ele>
<time>2017-11-05T05:35:20.955Z</time>
</trkpt>
<trkpt lat="22.5113995" lon="114.2140363">
<ele>148.108</ele>
<time>2017-11-05T05:35:37.554Z</time>
</trkpt>
<trkpt lat="22.5114592" lon="114.2139356">
<ele>147.811</ele>
<time>2017-11-05T05:35:54.080Z</time>
</trkpt>
<trkpt lat="22.5115015" lon="114.2138477">
<ele>148.365</ele>
<time>2017-11-05T05:36:01.572Z</time>
</trkpt>
<trkpt lat="22.5115671" lon="114.2137632">
<ele>150.014</ele>
<time>2017-11-05T05:36:09.628Z</time>
</trkpt>
<trkpt lat="22.5116217" lon="114.2136858">
<ele>151.820</ele>
<time>2017-11-05T05:36:17.347Z</time>
</trkpt>
<trkpt lat="22.5116392" lon="114.2135827">
<ele>152.892</ele>
<time>2017-11-05T05:36:27.954Z</time>
</trkpt>
<trkpt lat="22.5116392" lon="114.2135827">
<ele>153.414</ele>
<time>2017-11-05T05:36:30.954Z</time>
</trkpt>
<trkpt lat="22.5116392" lon="114.2135827">
<ele>153.585</ele>
<time>2017-11-05T05:36:31.752Z</time>
</trkpt>
<trkpt lat="22.5116899" lon="114.2134839">
<ele>153.328</ele>
<time>2017-11-05T05:36:47.144Z</time>
</trkpt>
<trkpt lat="22.5117633" lon="114.2134255">
<ele>153.320</ele>
<time>2017-11-05T05:36:54.953Z</time>
</trkpt>
<trkpt lat="22.5117633" lon="114.2134255">
<ele>153.519</ele>
<time>2017-11-05T05:36:55.953Z</time>
</trkpt>
<trkpt lat="22.5117633" lon="114.2134255">
<ele>153.685</ele>
<time>2017-11-05T06:08:59.769Z</time>
</trkpt>
<trkpt lat="22.5117633" lon="114.2134255">
<ele>153.454</ele>
<time>2017-11-05T06:10:42.985Z</time>
</trkpt>
<trkpt lat="22.5117633" lon="114.2134255">
<ele>153.347</ele>
<time>2017-11-05T06:12:01.904Z</time>
</trkpt>
<trkpt lat="22.5116918" lon="114.2136016">
<ele>153.305</ele>
<time>2017-11-05T06:12:32.545Z</time>
</trkpt>
<trkpt lat="22.5116216" lon="114.2136758">
<ele>152.874</ele>
<time>2017-11-05T06:12:44.121Z</time>
</trkpt>
<trkpt lat="22.5115584" lon="114.2137510">
<ele>151.748</ele>
<time>2017-11-05T06:12:53.728Z</time>
</trkpt>
<trkpt lat="22.5114698" lon="114.2137983">
<ele>150.577</ele>
<time>2017-11-05T06:13:04.174Z</time>
</trkpt>
<trkpt lat="22.5113802" lon="114.2138411">
<ele>150.252</ele>
<time>2017-11-05T06:13:16.240Z</time>
</trkpt>
<trkpt lat="22.5113416" lon="114.2137529">
<ele>151.047</ele>
<time>2017-11-05T06:13:27.343Z</time>
</trkpt>
<trkpt lat="22.5113688" lon="114.2136542">
<ele>152.852</ele>
<time>2017-11-05T06:13:39.251Z</time>
</trkpt>
<trkpt lat="22.5114003" lon="114.2135607">
<ele>154.982</ele>
<time>2017-11-05T06:13:52.384Z</time>
</trkpt>
<trkpt lat="22.5113749" lon="114.2134630">
<ele>156.481</ele>
<time>2017-11-05T06:14:08.511Z</time>
</trkpt>
<trkpt lat="22.5113946" lon="114.2133569">
<ele>157.181</ele>
<time>2017-11-05T06:14:24.707Z</time>
</trkpt>
<trkpt lat="22.5114413" lon="114.2132686">
<ele>157.560</ele>
<time>2017-11-05T06:14:32.389Z</time>
</trkpt>
<trkpt lat="22.5114178" lon="114.2131712">
<ele>157.659</ele>
<time>2017-11-05T06:14:41.180Z</time>
</trkpt>
<trkpt lat="22.5114330" lon="114.2130704">
<ele>157.296</ele>
<time>2017-11-05T06:14:50.825Z</time>
</trkpt>
<trkpt lat="22.5114758" lon="114.2129840">
<ele>156.718</ele>
<time>2017-11-05T06:14:59.196Z</time>
</trkpt>
<trkpt lat="22.5114176" lon="114.2130614">
<ele>156.127</ele>
<time>2017-11-05T06:15:08.595Z</time>
</trkpt>
<trkpt lat="22.5113677" lon="114.2131523">
<ele>154.974</ele>
<time>2017-11-05T06:15:19.153Z</time>
</trkpt>
<trkpt lat="22.5113205" lon="114.2132387">
<ele>152.966</ele>
<time>2017-11-05T06:15:32.209Z</time>
</trkpt>
<trkpt lat="22.5112452" lon="114.2133200">
<ele>150.935</ele>
<time>2017-11-05T06:15:46.945Z</time>
</trkpt>
<trkpt lat="22.5111732" lon="114.2133810">
<ele>149.675</ele>
<time>2017-11-05T06:15:56.833Z</time>
</trkpt>
<trkpt lat="22.5111069" lon="114.2134718">
<ele>149.154</ele>
<time>2017-11-05T06:16:05.977Z</time>
</trkpt>
<trkpt lat="22.5111069" lon="114.2134718">
<ele>149.034</ele>
<time>2017-11-05T06:16:10.977Z</time>
</trkpt>
<trkpt lat="22.5111069" lon="114.2134718">
<ele>149.014</ele>
<time>2017-11-05T06:16:39.005Z</time>
</trkpt>
<trkpt lat="22.5109884" lon="114.2134828">
<ele>148.921</ele>
<time>2017-11-05T06:16:54.223Z</time>
</trkpt>
<trkpt lat="22.5109082" lon="114.2134290">
<ele>148.874</ele>
<time>2017-11-05T06:16:59.983Z</time>
</trkpt>
<trkpt lat="22.5109082" lon="114.2134290">
<ele>148.833</ele>
<time>2017-11-05T06:17:10.982Z</time>
</trkpt>
<trkpt lat="22.5109082" lon="114.2134290">
<ele>148.768</ele>
<time>2017-11-05T06:17:11.082Z</time>
</trkpt>
<trkpt lat="22.5108588" lon="114.2132724">
<ele>148.699</ele>
<time>2017-11-05T06:20:12.978Z</time>
</trkpt>
<trkpt lat="22.5108337" lon="114.2131774">
<ele>145.341</ele>
<time>2017-11-05T06:20:30.594Z</time>
</trkpt>
<trkpt lat="22.5108680" lon="114.2130799">
<ele>136.473</ele>
<time>2017-11-05T06:20:40.158Z</time>
</trkpt>
<trkpt lat="22.5109257" lon="114.2129961">
<ele>122.228</ele>
<time>2017-11-05T06:20:47.926Z</time>
</trkpt>
<trkpt lat="22.5109777" lon="114.2129080">
<ele>121.125</ele>
<time>2017-11-05T06:20:55.103Z</time>
</trkpt>
<trkpt lat="22.5110181" lon="114.2128187">
<ele>121.590</ele>
<time>2017-11-05T06:21:01.621Z</time>
</trkpt>
<trkpt lat="22.5110114" lon="114.2127090">
<ele>121.685</ele>
<time>2017-11-05T06:21:08.941Z</time>
</trkpt>
<trkpt lat="22.5110153" lon="114.2126016">
<ele>121.893</ele>
<time>2017-11-05T06:21:16.373Z</time>
</trkpt>
<trkpt lat="22.5110216" lon="114.2124968">
<ele>122.204</ele>
<time>2017-11-05T06:21:24.546Z</time>
</trkpt>
<trkpt lat="22.5109397" lon="114.2124566">
<ele>122.425</ele>
<time>2017-11-05T06:21:33.478Z</time>
</trkpt>
<trkpt lat="22.5108701" lon="114.2123946">
<ele>122.467</ele>
<time>2017-11-05T06:21:42.863Z</time>
</trkpt>
<trkpt lat="22.5108052" lon="114.2123260">
<ele>122.412</ele>
<time>2017-11-05T06:21:52.396Z</time>
</trkpt>
<trkpt lat="22.5107539" lon="114.2122271">
<ele>122.517</ele>
<time>2017-11-05T06:22:03.142Z</time>
</trkpt>
<trkpt lat="22.5107009" lon="114.2121477">
<ele>122.996</ele>
<time>2017-11-05T06:22:13.056Z</time>
</trkpt>
<trkpt lat="22.5107619" lon="114.2120661">
<ele>123.958</ele>
<time>2017-11-05T06:22:26.902Z</time>
</trkpt>
<trkpt lat="22.5108167" lon="114.2119785">
<ele>125.521</ele>
<time>2017-11-05T06:22:38.586Z</time>
</trkpt>
<trkpt lat="22.5108658" lon="114.2118927">
<ele>127.349</ele>
<time>2017-11-05T06:22:49.770Z</time>
</trkpt>
<trkpt lat="22.5109043" lon="114.2117992">
<ele>128.629</ele>
<time>2017-11-05T06:23:01.403Z</time>
</trkpt>
<trkpt lat="22.5108843" lon="114.2117001">
<ele>128.901</ele>
<time>2017-11-05T06:23:12.522Z</time>
</trkpt>
<trkpt lat="22.5109368" lon="114.2116201">
<ele>128.449</ele>
<time>2017-11-05T06:23:23.852Z</time>
</trkpt>
<trkpt lat="22.5110265" lon="114.2115816">
<ele>128.140</ele>
<time>2017-11-05T06:23:35.534Z</time>
</trkpt>
<trkpt lat="22.5111187" lon="114.2115800">
<ele>128.620</ele>
<time>2017-11-05T06:23:45.542Z</time>
</trkpt>
<trkpt lat="22.5111996" lon="114.2115322">
<ele>129.842</ele>
<time>2017-11-05T06:23:55.039Z</time>
</trkpt>
<trkpt lat="22.5112989" lon="114.2115065">
<ele>131.297</ele>
<time>2017-11-05T06:24:04.600Z</time>
</trkpt>
<trkpt lat="22.5113454" lon="114.2114167">
<ele>132.357</ele>
<time>2017-11-05T06:24:13.075Z</time>
</trkpt>
<trkpt lat="22.5113816" lon="114.2113178">
<ele>132.755</ele>
<time>2017-11-05T06:24:19.358Z</time>
</trkpt>
<trkpt lat="22.5114674" lon="114.2112425">
<ele>132.710</ele>
<time>2017-11-05T06:24:25.041Z</time>
</trkpt>
<trkpt lat="22.5115676" lon="114.2112280">
<ele>132.491</ele>
<time>2017-11-05T06:24:30.785Z</time>
</trkpt>
<trkpt lat="22.5116520" lon="114.2112732">
<ele>132.344</ele>
<time>2017-11-05T06:24:36.814Z</time>
</trkpt>
<trkpt lat="22.5117485" lon="114.2112977">
<ele>132.362</ele>
<time>2017-11-05T06:24:43.538Z</time>
</trkpt>
<trkpt lat="22.5118414" lon="114.2113517">
<ele>132.297</ele>
<time>2017-11-05T06:24:49.919Z</time>
</trkpt>
<trkpt lat="22.5119366" lon="114.2113742">
<ele>131.850</ele>
<time>2017-11-05T06:24:55.970Z</time>
</trkpt>
<trkpt lat="22.5120339" lon="114.2114017">
<ele>131.144</ele>
<time>2017-11-05T06:25:02.846Z</time>
</trkpt>
<trkpt lat="22.5121112" lon="114.2113462">
<ele>130.248</ele>
<time>2017-11-05T06:25:10.527Z</time>
</trkpt>
<trkpt lat="22.5120843" lon="114.2112498">
<ele>129.025</ele>
<time>2017-11-05T06:25:17.428Z</time>
</trkpt>
<trkpt lat="22.5120380" lon="114.2111472">
<ele>127.816</ele>
<time>2017-11-05T06:25:24.364Z</time>
</trkpt>
<trkpt lat="22.5119730" lon="114.2110717">
<ele>127.134</ele>
<time>2017-11-05T06:25:30.810Z</time>
</trkpt>
<trkpt lat="22.5120029" lon="114.2109616">
<ele>126.945</ele>
<time>2017-11-05T06:25:39.456Z</time>
</trkpt>
<trkpt lat="22.5120744" lon="114.2108805">
<ele>126.519</ele>
<time>2017-11-05T06:25:48.368Z</time>
</trkpt>
<trkpt lat="22.5121590" lon="114.2108448">
<ele>125.030</ele>
<time>2017-11-05T06:25:55.167Z</time>
</trkpt>
<trkpt lat="22.5122533" lon="114.2108288">
<ele>122.834</ele>
<time>2017-11-05T06:26:01.782Z</time>
</trkpt>
<trkpt lat="22.5123441" lon="114.2107816">
<ele>121.057</ele>
<time>2017-11-05T06:26:08.942Z</time>
</trkpt>
<trkpt lat="22.5124250" lon="114.2107234">
<ele>120.077</ele>
<time>2017-11-05T06:26:16.330Z</time>
</trkpt>
<trkpt lat="22.5124296" lon="114.2106254">
<ele>119.344</ele>
<time>2017-11-05T06:26:23.153Z</time>
</trkpt>
<trkpt lat="22.5123859" lon="114.2105270">
<ele>118.266</ele>
<time>2017-11-05T06:26:30.257Z</time>
</trkpt>
<trkpt lat="22.5122968" lon="114.2104830">
<ele>117.004</ele>
<time>2017-11-05T06:26:37.033Z</time>
</trkpt>
<trkpt lat="22.5122209" lon="114.2104252">
<ele>115.943</ele>
<time>2017-11-05T06:26:43.679Z</time>
</trkpt>
<trkpt lat="22.5122215" lon="114.2103242">
<ele>115.028</ele>
<time>2017-11-05T06:26:50.981Z</time>
</trkpt>
<trkpt lat="22.5122601" lon="114.2102313">
<ele>114.296</ele>
<time>2017-11-05T06:26:58.496Z</time>
</trkpt>
<trkpt lat="22.5123031" lon="114.2101404">
<ele>114.074</ele>
<time>2017-11-05T06:27:05.354Z</time>
</trkpt>
<trkpt lat="22.5122713" lon="114.2100344">
<ele>114.451</ele>
<time>2017-11-05T06:27:12.670Z</time>
</trkpt>
<trkpt lat="22.5122230" lon="114.2099497">
<ele>115.104</ele>
<time>2017-11-05T06:27:19.181Z</time>
</trkpt>
<trkpt lat="22.5122107" lon="114.2098523">
<ele>115.623</ele>
<time>2017-11-05T06:27:25.495Z</time>
</trkpt>
<trkpt lat="22.5122293" lon="114.2097446">
<ele>115.886</ele>
<time>2017-11-05T06:27:32.532Z</time>
</trkpt>
<trkpt lat="22.5123210" lon="114.2097424">
<ele>115.719</ele>
<time>2017-11-05T06:27:39.248Z</time>
</trkpt>
<trkpt lat="22.5123995" lon="114.2097927">
<ele>114.762</ele>
<time>2017-11-05T06:27:45.756Z</time>
</trkpt>
<trkpt lat="22.5124637" lon="114.2098740">
<ele>113.247</ele>
<time>2017-11-05T06:27:52.561Z</time>
</trkpt>
<trkpt lat="22.5125016" lon="114.2099656">
<ele>111.887</ele>
<time>2017-11-05T06:27:58.837Z</time>
</trkpt>
<trkpt lat="22.5125396" lon="114.2100663">
<ele>110.869</ele>
<time>2017-11-05T06:28:05.444Z</time>
</trkpt>
<trkpt lat="22.5125816" lon="114.2101653">
<ele>110.009</ele>
<time>2017-11-05T06:28:12.093Z</time>
</trkpt>
<trkpt lat="22.5126670" lon="114.2102105">
<ele>109.100</ele>
<time>2017-11-05T06:28:18.434Z</time>
</trkpt>
<trkpt lat="22.5127661" lon="114.2101801">
<ele>107.979</ele>
<time>2017-11-05T06:28:25.130Z</time>
</trkpt>
<trkpt lat="22.5128360" lon="114.2101134">
<ele>106.530</ele>
<time>2017-11-05T06:28:31.171Z</time>
</trkpt>
<trkpt lat="22.5129277" lon="114.2101330">
<ele>104.809</ele>
<time>2017-11-05T06:28:37.574Z</time>
</trkpt>
<trkpt lat="22.5130222" lon="114.2101626">
<ele>103.229</ele>
<time>2017-11-05T06:28:44.471Z</time>
</trkpt>
<trkpt lat="22.5130756" lon="114.2102408">
<ele>102.218</ele>
<time>2017-11-05T06:28:50.663Z</time>
</trkpt>
<trkpt lat="22.5131175" lon="114.2103402">
<ele>101.474</ele>
<time>2017-11-05T06:28:57.408Z</time>
</trkpt>
<trkpt lat="22.5131340" lon="114.2104398">
<ele>100.495</ele>
<time>2017-11-05T06:29:03.553Z</time>
</trkpt>
<trkpt lat="22.5131778" lon="114.2105269">
<ele>99.370</ele>
<time>2017-11-05T06:29:09.912Z</time>
</trkpt>
<trkpt lat="22.5132567" lon="114.2105864">
<ele>98.480</ele>
<time>2017-11-05T06:29:16.490Z</time>
</trkpt>
<trkpt lat="22.5132862" lon="114.2106920">
<ele>97.535</ele>
<time>2017-11-05T06:29:23.275Z</time>
</trkpt>
<trkpt lat="22.5132670" lon="114.2107942">
<ele>96.141</ele>
<time>2017-11-05T06:29:30.109Z</time>
</trkpt>
<trkpt lat="22.5132973" lon="114.2108946">
<ele>94.689</ele>
<time>2017-11-05T06:29:38.811Z</time>
</trkpt>
<trkpt lat="22.5133485" lon="114.2109795">
<ele>93.715</ele>
<time>2017-11-05T06:29:47.711Z</time>
</trkpt>
<trkpt lat="22.5134212" lon="114.2110400">
<ele>93.173</ele>
<time>2017-11-05T06:29:54.744Z</time>
</trkpt>
<trkpt lat="22.5135121" lon="114.2110170">
<ele>92.462</ele>
<time>2017-11-05T06:30:00.736Z</time>
</trkpt>
<trkpt lat="22.5135320" lon="114.2109046">
<ele>90.763</ele>
<time>2017-11-05T06:30:07.751Z</time>
</trkpt>
<trkpt lat="22.5135099" lon="114.2108061">
<ele>88.160</ele>
<time>2017-11-05T06:30:14.287Z</time>
</trkpt>
<trkpt lat="22.5134980" lon="114.2107048">
<ele>85.304</ele>
<time>2017-11-05T06:30:20.698Z</time>
</trkpt>
<trkpt lat="22.5135281" lon="114.2106080">
<ele>82.537</ele>
<time>2017-11-05T06:30:26.970Z</time>
</trkpt>
<trkpt lat="22.5135281" lon="114.2106080">
<ele>80.420</ele>
<time>2017-11-05T06:30:30.969Z</time>
</trkpt>
<trkpt lat="22.5135281" lon="114.2106080">
<ele>79.531</ele>
<time>2017-11-05T06:30:31.069Z</time>
</trkpt>
<trkpt lat="22.5136211" lon="114.2105800">
<ele>79.620</ele>
<time>2017-11-05T06:30:43.645Z</time>
</trkpt>
<trkpt lat="22.5136898" lon="114.2105065">
<ele>79.482</ele>
<time>2017-11-05T06:30:51.680Z</time>
</trkpt>
<trkpt lat="22.5137818" lon="114.2104616">
<ele>78.250</ele>
<time>2017-11-05T06:30:59.987Z</time>
</trkpt>
<trkpt lat="22.5138650" lon="114.2104117">
<ele>76.206</ele>
<time>2017-11-05T06:31:08.605Z</time>
</trkpt>
<trkpt lat="22.5138799" lon="114.2103124">
<ele>73.958</ele>
<time>2017-11-05T06:31:18.077Z</time>
</trkpt>
<trkpt lat="22.5138861" lon="114.2102152">
<ele>71.820</ele>
<time>2017-11-05T06:31:27.148Z</time>
</trkpt>
<trkpt lat="22.5138985" lon="114.2101158">
<ele>70.096</ele>
<time>2017-11-05T06:31:34.798Z</time>
</trkpt>
<trkpt lat="22.5139230" lon="114.2100218">
<ele>68.895</ele>
<time>2017-11-05T06:31:41.095Z</time>
</trkpt>
<trkpt lat="22.5139741" lon="114.2099230">
<ele>67.922</ele>
<time>2017-11-05T06:31:47.770Z</time>
</trkpt>
<trkpt lat="22.5139539" lon="114.2097674">
<ele>66.622</ele>
<time>2017-11-05T06:31:57.017Z</time>
</trkpt>
<trkpt lat="22.5139238" lon="114.2096632">
<ele>64.830</ele>
<time>2017-11-05T06:32:03.997Z</time>
</trkpt>
<trkpt lat="22.5138496" lon="114.2095932">
<ele>62.814</ele>
<time>2017-11-05T06:32:11.636Z</time>
</trkpt>
<trkpt lat="22.5137822" lon="114.2095267">
<ele>60.702</ele>
<time>2017-11-05T06:32:19.750Z</time>
</trkpt>
<trkpt lat="22.5137819" lon="114.2094150">
<ele>58.398</ele>
<time>2017-11-05T06:32:28.665Z</time>
</trkpt>
<trkpt lat="22.5137869" lon="114.2093146">
<ele>56.218</ele>
<time>2017-11-05T06:32:35.346Z</time>
</trkpt>
<trkpt lat="22.5138219" lon="114.2092197">
<ele>54.466</ele>
<time>2017-11-05T06:32:41.955Z</time>
</trkpt>
<trkpt lat="22.5139064" lon="114.2091710">
<ele>53.028</ele>
<time>2017-11-05T06:32:49.031Z</time>
</trkpt>
<trkpt lat="22.5139785" lon="114.2090965">
<ele>52.025</ele>
<time>2017-11-05T06:32:56.694Z</time>
</trkpt>
<trkpt lat="22.5140752" lon="114.2090654">
<ele>51.576</ele>
<time>2017-11-05T06:33:05.095Z</time>
</trkpt>
<trkpt lat="22.5140899" lon="114.2089684">
<ele>51.351</ele>
<time>2017-11-05T06:33:13.473Z</time>
</trkpt>
<trkpt lat="22.5140377" lon="114.2088750">
<ele>50.803</ele>
<time>2017-11-05T06:33:21.391Z</time>
</trkpt>
<trkpt lat="22.5139628" lon="114.2088165">
<ele>49.711</ele>
<time>2017-11-05T06:33:28.021Z</time>
</trkpt>
<trkpt lat="22.5138920" lon="114.2087365">
<ele>48.569</ele>
<time>2017-11-05T06:33:35.660Z</time>
</trkpt>
<trkpt lat="22.5138175" lon="114.2086647">
<ele>47.690</ele>
<time>2017-11-05T06:33:43.572Z</time>
</trkpt>
<trkpt lat="22.5137339" lon="114.2086178">
<ele>46.612</ele>
<time>2017-11-05T06:33:50.971Z</time>
</trkpt>
<trkpt lat="22.5137339" lon="114.2086178">
<ele>45.268</ele>
<time>2017-11-05T06:33:53.971Z</time>
</trkpt>
<trkpt lat="22.5137339" lon="114.2086178">
<ele>44.422</ele>
<time>2017-11-05T06:36:20.690Z</time>
</trkpt>
<trkpt lat="22.5137532" lon="114.2085226">
<ele>44.867</ele>
<time>2017-11-05T06:37:23.912Z</time>
</trkpt>
<trkpt lat="22.5138032" lon="114.2084401">
<ele>44.185</ele>
<time>2017-11-05T06:38:27.890Z</time>
</trkpt>
<trkpt lat="22.5139063" lon="114.2084057">
<ele>41.549</ele>
<time>2017-11-05T06:39:43.668Z</time>
</trkpt>
<trkpt lat="22.5139931" lon="114.2083683">
<ele>38.411</ele>
<time>2017-11-05T06:40:03.307Z</time>
</trkpt>
<trkpt lat="22.5140182" lon="114.2082665">
<ele>36.568</ele>
<time>2017-11-05T06:40:09.851Z</time>
</trkpt>
<trkpt lat="22.5141013" lon="114.2082044">
<ele>36.043</ele>
<time>2017-11-05T06:40:17.198Z</time>
</trkpt>
<trkpt lat="22.5141948" lon="114.2081771">
<ele>36.171</ele>
<time>2017-11-05T06:40:25.656Z</time>
</trkpt>
<trkpt lat="22.5142893" lon="114.2081612">
<ele>36.386</ele>
<time>2017-11-05T06:40:33.378Z</time>
</trkpt>
<trkpt lat="22.5143694" lon="114.2082227">
<ele>36.443</ele>
<time>2017-11-05T06:40:41.767Z</time>
</trkpt>
<trkpt lat="22.5144800" lon="114.2082154">
<ele>36.054</ele>
<time>2017-11-05T06:40:52.620Z</time>
</trkpt>
<trkpt lat="22.5145760" lon="114.2082052">
<ele>34.994</ele>
<time>2017-11-05T06:40:59.287Z</time>
</trkpt>
<trkpt lat="22.5146447" lon="114.2081294">
<ele>33.606</ele>
<time>2017-11-05T06:41:04.968Z</time>
</trkpt>
<trkpt lat="22.5146447" lon="114.2081294">
<ele>32.505</ele>
<time>2017-11-05T06:41:16.968Z</time>
</trkpt>
<trkpt lat="22.5146447" lon="114.2081294">
<ele>32.008</ele>
<time>2017-11-05T06:41:17.068Z</time>
</trkpt>
<trkpt lat="22.5146267" lon="114.2080194">
<ele>32.055</ele>
<time>2017-11-05T06:41:25.968Z</time>
</trkpt>
<trkpt lat="22.5146267" lon="114.2080194">
<ele>32.225</ele>
<time>2017-11-05T06:41:27.968Z</time>
</trkpt>
<trkpt lat="22.5146267" lon="114.2080194">
<ele>32.226</ele>
<time>2017-11-05T06:41:38.972Z</time>
</trkpt>
<trkpt lat="22.5145950" lon="114.2079171">
<ele>32.117</ele>
<time>2017-11-05T06:41:58.769Z</time>
</trkpt>
<trkpt lat="22.5145680" lon="114.2078159">
<ele>31.301</ele>
<time>2017-11-05T06:42:05.528Z</time>
</trkpt>
<trkpt lat="22.5145278" lon="114.2077157">
<ele>29.125</ele>
<time>2017-11-05T06:42:11.507Z</time>
</trkpt>
<trkpt lat="22.5144990" lon="114.2076184">
<ele>26.934</ele>
<time>2017-11-05T06:42:17.046Z</time>
</trkpt>
<trkpt lat="22.5144596" lon="114.2075274">
<ele>26.112</ele>
<time>2017-11-05T06:42:22.585Z</time>
</trkpt>
<trkpt lat="22.5143564" lon="114.2074902">
<ele>26.350</ele>
<time>2017-11-05T06:42:28.290Z</time>
</trkpt>
<trkpt lat="22.5142521" lon="114.2074618">
<ele>26.765</ele>
<time>2017-11-05T06:42:32.967Z</time>
</trkpt>
<trkpt lat="22.5142521" lon="114.2074618">
<ele>26.841</ele>
<time>2017-11-05T06:42:34.967Z</time>
</trkpt>
<trkpt lat="22.5142521" lon="114.2074618">
<ele>26.720</ele>
<time>2017-11-05T06:50:27.665Z</time>
</trkpt>
<trkpt lat="22.5142257" lon="114.2073519">
<ele>26.663</ele>
<time>2017-11-05T06:50:39.963Z</time>
</trkpt>
<trkpt lat="22.5142257" lon="114.2073519">
<ele>26.670</ele>
<time>2017-11-05T06:50:49.963Z</time>
</trkpt>
<trkpt lat="22.5142257" lon="114.2073519">
<ele>26.666</ele>
<time>2017-11-05T06:53:40.966Z</time>
</trkpt>
<trkpt lat="22.5142257" lon="114.2073519">
<ele>26.647</ele>
<time>2017-11-05T06:53:53.966Z</time>
</trkpt>
<trkpt lat="22.5142257" lon="114.2073519">
<ele>26.635</ele>
<time>2017-11-05T06:53:54.066Z</time>
</trkpt>
<trkpt lat="22.5142257" lon="114.2073519">
<ele>26.623</ele>
<time>2017-11-05T06:54:40.965Z</time>
</trkpt>
<trkpt lat="22.5142257" lon="114.2073519">
<ele>26.616</ele>
<time>2017-11-05T06:55:56.082Z</time>
</trkpt>
<trkpt lat="22.5141518" lon="114.2074161">
<ele>26.597</ele>
<time>2017-11-05T06:56:15.963Z</time>
</trkpt>
<trkpt lat="22.5141518" lon="114.2074161">
<ele>26.589</ele>
<time>2017-11-05T06:56:20.963Z</time>
</trkpt>
<trkpt lat="22.5141518" lon="114.2074161">
<ele>26.577</ele>
<time>2017-11-05T07:11:10.598Z</time>
</trkpt>
<trkpt lat="22.5142081" lon="114.2073374">
<ele>26.565</ele>
<time>2017-11-05T07:11:22.590Z</time>
</trkpt>
<trkpt lat="22.5142137" lon="114.2072267">
<ele>24.934</ele>
<time>2017-11-05T07:11:30.670Z</time>
</trkpt>
<trkpt lat="22.5142371" lon="114.2071200">
<ele>20.675</ele>
<time>2017-11-05T07:11:37.983Z</time>
</trkpt>
<trkpt lat="22.5143305" lon="114.2071347">
<ele>16.259</ele>
<time>2017-11-05T07:11:43.352Z</time>
</trkpt>
<trkpt lat="22.5144350" lon="114.2071296">
<ele>14.152</ele>
<time>2017-11-05T07:11:48.583Z</time>
</trkpt>
<trkpt lat="22.5145180" lon="114.2070912">
<ele>13.966</ele>
<time>2017-11-05T07:11:53.311Z</time>
</trkpt>
<trkpt lat="22.5146055" lon="114.2070433">
<ele>14.688</ele>
<time>2017-11-05T07:11:59.699Z</time>
</trkpt>
<trkpt lat="22.5146857" lon="114.2069922">
<ele>15.506</ele>
<time>2017-11-05T07:12:06.155Z</time>
</trkpt>
<trkpt lat="22.5147817" lon="114.2069447">
<ele>15.602</ele>
<time>2017-11-05T07:12:12.790Z</time>
</trkpt>
<trkpt lat="22.5148609" lon="114.2068885">
<ele>14.596</ele>
<time>2017-11-05T07:12:17.923Z</time>
</trkpt>
<trkpt lat="22.5149451" lon="114.2068245">
<ele>13.189</ele>
<time>2017-11-05T07:12:23.514Z</time>
</trkpt>
<trkpt lat="22.5150300" lon="114.2067758">
<ele>12.327</ele>
<time>2017-11-05T07:12:28.921Z</time>
</trkpt>
<trkpt lat="22.5151298" lon="114.2067436">
<ele>12.149</ele>
<time>2017-11-05T07:12:34.994Z</time>
</trkpt>
<trkpt lat="22.5152131" lon="114.2066810">
<ele>12.300</ele>
<time>2017-11-05T07:12:41.360Z</time>
</trkpt>
<trkpt lat="22.5153033" lon="114.2066707">
<ele>12.406</ele>
<time>2017-11-05T07:12:47.679Z</time>
</trkpt>
<trkpt lat="22.5153971" lon="114.2067023">
<ele>12.012</ele>
<time>2017-11-05T07:12:54.636Z</time>
</trkpt>
<trkpt lat="22.5154959" lon="114.2067407">
<ele>11.033</ele>
<time>2017-11-05T07:13:01.031Z</time>
</trkpt>
<trkpt lat="22.5155779" lon="114.2067836">
<ele>10.082</ele>
<time>2017-11-05T07:13:06.000Z</time>
</trkpt>
<trkpt lat="22.5156387" lon="114.2068577">
<ele>9.568</ele>
<time>2017-11-05T07:13:10.890Z</time>
</trkpt>
<trkpt lat="22.5157227" lon="114.2069157">
<ele>9.105</ele>
<time>2017-11-05T07:13:16.307Z</time>
</trkpt>
<trkpt lat="22.5158351" lon="114.2069194">
<ele>8.413</ele>
<time>2017-11-05T07:13:22.430Z</time>
</trkpt>
<trkpt lat="22.5159237" lon="114.2069382">
<ele>7.525</ele>
<time>2017-11-05T07:13:27.021Z</time>
</trkpt>
<trkpt lat="22.5160125" lon="114.2069830">
<ele>6.403</ele>
<time>2017-11-05T07:13:32.252Z</time>
</trkpt>
<trkpt lat="22.5161130" lon="114.2069982">
<ele>5.179</ele>
<time>2017-11-05T07:13:38.262Z</time>
</trkpt>
<trkpt lat="22.5161865" lon="114.2070674">
<ele>4.211</ele>
<time>2017-11-05T07:13:45.214Z</time>
</trkpt>
<trkpt lat="22.5162776" lon="114.2070761">
<ele>3.284</ele>
<time>2017-11-05T07:13:51.955Z</time>
</trkpt>
<trkpt lat="22.5162776" lon="114.2070761">
<ele>2.147</ele>
<time>2017-11-05T07:14:06.954Z</time>
</trkpt>
<trkpt lat="22.5162776" lon="114.2070761">
<ele>1.368</ele>
<time>2017-11-05T07:14:08.589Z</time>
</trkpt>
<trkpt lat="22.5163828" lon="114.2069814">
<ele>1.401</ele>
<time>2017-11-05T07:14:21.917Z</time>
</trkpt>
<trkpt lat="22.5163057" lon="114.2069305">
<ele>1.798</ele>
<time>2017-11-05T07:14:28.960Z</time>
</trkpt>
<trkpt lat="22.5163057" lon="114.2069305">
<ele>2.032</ele>
<time>2017-11-05T07:14:58.959Z</time>
</trkpt>
<trkpt lat="22.5163057" lon="114.2069305">
<ele>2.013</ele>
<time>2017-11-05T07:14:59.059Z</time>
</trkpt>
<trkpt lat="22.5164161" lon="114.2068732">
<ele>1.924</ele>
<time>2017-11-05T07:15:18.216Z</time>
</trkpt>
<trkpt lat="22.5164902" lon="114.2068178">
<ele>3.437</ele>
<time>2017-11-05T07:15:28.959Z</time>
</trkpt>
<trkpt lat="22.5164902" lon="114.2068178">
<ele>7.437</ele>
<time>2017-11-05T07:15:28.959Z</time>
</trkpt>
<trkpt lat="22.5164902" lon="114.2068178">
<ele>10.761</ele>
<time>2017-11-05T07:15:30.318Z</time>
</trkpt>
<trkpt lat="22.5165852" lon="114.2067957">
<ele>8.939</ele>
<time>2017-11-05T07:15:53.152Z</time>
</trkpt>
<trkpt lat="22.5166738" lon="114.2068224">
<ele>9.031</ele>
<time>2017-11-05T07:16:06.615Z</time>
</trkpt>
<trkpt lat="22.5167192" lon="114.2067373">
<ele>12.390</ele>
<time>2017-11-05T07:16:18.975Z</time>
</trkpt>
<trkpt lat="22.5167594" lon="114.2066454">
<ele>17.212</ele>
<time>2017-11-05T07:16:30.025Z</time>
</trkpt>
<trkpt lat="22.5168151" lon="114.2065657">
<ele>21.315</ele>
<time>2017-11-05T07:16:40.782Z</time>
</trkpt>
<trkpt lat="22.5168602" lon="114.2064709">
<ele>24.050</ele>
<time>2017-11-05T07:16:52.850Z</time>
</trkpt>
<trkpt lat="22.5167672" lon="114.2064678">
<ele>25.595</ele>
<time>2017-11-05T07:17:04.150Z</time>
</trkpt>
<trkpt lat="22.5166991" lon="114.2065398">
<ele>27.068</ele>
<time>2017-11-05T07:17:14.939Z</time>
</trkpt>
<trkpt lat="22.5166079" lon="114.2065141">
<ele>29.060</ele>
<time>2017-11-05T07:17:26.305Z</time>
</trkpt>
<trkpt lat="22.5165445" lon="114.2064319">
<ele>31.254</ele>
<time>2017-11-05T07:17:38.549Z</time>
</trkpt>
<trkpt lat="22.5164755" lon="114.2063592">
<ele>33.632</ele>
<time>2017-11-05T07:17:49.209Z</time>
</trkpt>
<trkpt lat="22.5164029" lon="114.2062907">
<ele>36.284</ele>
<time>2017-11-05T07:17:59.319Z</time>
</trkpt>
<trkpt lat="22.5163236" lon="114.2062387">
<ele>38.571</ele>
<time>2017-11-05T07:18:09.097Z</time>
</trkpt>
<trkpt lat="22.5162508" lon="114.2061762">
<ele>39.985</ele>
<time>2017-11-05T07:18:19.718Z</time>
</trkpt>
<trkpt lat="22.5161767" lon="114.2061081">
<ele>40.992</ele>
<time>2017-11-05T07:18:31.556Z</time>
</trkpt>
<trkpt lat="22.5160782" lon="114.2061181">
<ele>42.170</ele>
<time>2017-11-05T07:18:42.516Z</time>
</trkpt>
<trkpt lat="22.5159969" lon="114.2061630">
<ele>43.387</ele>
<time>2017-11-05T07:18:51.715Z</time>
</trkpt>
<trkpt lat="22.5159042" lon="114.2061184">
<ele>44.289</ele>
<time>2017-11-05T07:19:01.650Z</time>
</trkpt>
<trkpt lat="22.5158438" lon="114.2060436">
<ele>45.495</ele>
<time>2017-11-05T07:19:09.357Z</time>
</trkpt>
<trkpt lat="22.5158074" lon="114.2059434">
<ele>47.597</ele>
<time>2017-11-05T07:19:17.619Z</time>
</trkpt>
<trkpt lat="22.5157413" lon="114.2058775">
<ele>49.840</ele>
<time>2017-11-05T07:19:26.343Z</time>
</trkpt>
<trkpt lat="22.5156630" lon="114.2058097">
<ele>51.320</ele>
<time>2017-11-05T07:19:38.238Z</time>
</trkpt>
<trkpt lat="22.5155934" lon="114.2057380">
<ele>52.046</ele>
<time>2017-11-05T07:19:48.977Z</time>
</trkpt>
<trkpt lat="22.5155140" lon="114.2056853">
<ele>52.305</ele>
<time>2017-11-05T07:19:58.546Z</time>
</trkpt>
<trkpt lat="22.5154158" lon="114.2056614">
<ele>52.398</ele>
<time>2017-11-05T07:20:09.704Z</time>
</trkpt>
<trkpt lat="22.5153290" lon="114.2056101">
<ele>52.718</ele>
<time>2017-11-05T07:20:20.319Z</time>
</trkpt>
<trkpt lat="22.5152723" lon="114.2055322">
<ele>53.560</ele>
<time>2017-11-05T07:20:29.781Z</time>
</trkpt>
<trkpt lat="22.5151805" lon="114.2055290">
<ele>54.634</ele>
<time>2017-11-05T07:20:41.035Z</time>
</trkpt>
<trkpt lat="22.5150840" lon="114.2055285">
<ele>55.551</ele>
<time>2017-11-05T07:20:53.691Z</time>
</trkpt>
<trkpt lat="22.5149904" lon="114.2055152">
<ele>56.453</ele>
<time>2017-11-05T07:21:03.501Z</time>
</trkpt>
<trkpt lat="22.5148944" lon="114.2055281">
<ele>57.863</ele>
<time>2017-11-05T07:21:12.771Z</time>
</trkpt>
<trkpt lat="22.5148007" lon="114.2055137">
<ele>60.066</ele>
<time>2017-11-05T07:21:22.889Z</time>
</trkpt>
<trkpt lat="22.5147484" lon="114.2054285">
<ele>62.562</ele>
<time>2017-11-05T07:21:35.563Z</time>
</trkpt>
<trkpt lat="22.5146715" lon="114.2053694">
<ele>64.913</ele>
<time>2017-11-05T07:21:51.757Z</time>
</trkpt>
<trkpt lat="22.5145888" lon="114.2054079">
<ele>67.434</ele>
<time>2017-11-05T07:22:05.996Z</time>
</trkpt>
<trkpt lat="22.5144927" lon="114.2054159">
<ele>70.087</ele>
<time>2017-11-05T07:22:18.836Z</time>
</trkpt>
<trkpt lat="22.5144004" lon="114.2054419">
<ele>72.296</ele>
<time>2017-11-05T07:22:31.957Z</time>
</trkpt>
<trkpt lat="22.5144004" lon="114.2054419">
<ele>73.704</ele>
<time>2017-11-05T07:22:38.957Z</time>
</trkpt>
<trkpt lat="22.5144004" lon="114.2054419">
<ele>74.244</ele>
<time>2017-11-05T07:22:51.252Z</time>
</trkpt>
<trkpt lat="22.5143113" lon="114.2054660">
<ele>74.130</ele>
<time>2017-11-05T07:23:09.768Z</time>
</trkpt>
<trkpt lat="22.5142192" lon="114.2054873">
<ele>74.247</ele>
<time>2017-11-05T07:23:21.503Z</time>
</trkpt>
<trkpt lat="22.5141251" lon="114.2055187">
<ele>75.377</ele>
<time>2017-11-05T07:23:32.956Z</time>
</trkpt>
<trkpt lat="22.5141251" lon="114.2055187">
<ele>77.035</ele>
<time>2017-11-05T07:23:42.955Z</time>
</trkpt>
<trkpt lat="22.5141251" lon="114.2055187">
<ele>77.998</ele>
<time>2017-11-05T07:23:43.055Z</time>
</trkpt>
<trkpt lat="22.5139917" lon="114.2055519">
<ele>77.900</ele>
<time>2017-11-05T07:24:02.285Z</time>
</trkpt>
<trkpt lat="22.5139112" lon="114.2056065">
<ele>78.035</ele>
<time>2017-11-05T07:24:12.642Z</time>
</trkpt>
<trkpt lat="22.5138164" lon="114.2056006">
<ele>79.410</ele>
<time>2017-11-05T07:24:23.812Z</time>
</trkpt>
<trkpt lat="22.5137261" lon="114.2055731">
<ele>81.353</ele>
<time>2017-11-05T07:24:35.399Z</time>
</trkpt>
<trkpt lat="22.5136496" lon="114.2056263">
<ele>83.306</ele>
<time>2017-11-05T07:24:45.659Z</time>
</trkpt>
<trkpt lat="22.5135535" lon="114.2056542">
<ele>85.200</ele>
<time>2017-11-05T07:24:54.867Z</time>
</trkpt>
<trkpt lat="22.5134558" lon="114.2056651">
<ele>86.473</ele>
<time>2017-11-05T07:25:03.929Z</time>
</trkpt>
<trkpt lat="22.5133599" lon="114.2056511">
<ele>86.930</ele>
<time>2017-11-05T07:25:13.641Z</time>
</trkpt>
<trkpt lat="22.5132727" lon="114.2056880">
<ele>87.161</ele>
<time>2017-11-05T07:25:23.725Z</time>
</trkpt>
<trkpt lat="22.5131778" lon="114.2056808">
<ele>87.684</ele>
<time>2017-11-05T07:25:33.812Z</time>
</trkpt>
<trkpt lat="22.5130901" lon="114.2057175">
<ele>88.606</ele>
<time>2017-11-05T07:25:42.828Z</time>
</trkpt>
<trkpt lat="22.5129982" lon="114.2057292">
<ele>89.769</ele>
<time>2017-11-05T07:25:51.025Z</time>
</trkpt>
<trkpt lat="22.5129068" lon="114.2057631">
<ele>90.822</ele>
<time>2017-11-05T07:25:59.748Z</time>
</trkpt>
<trkpt lat="22.5128172" lon="114.2057481">
<ele>91.454</ele>
<time>2017-11-05T07:26:07.987Z</time>
</trkpt>
<trkpt lat="22.5127231" lon="114.2057378">
<ele>91.807</ele>
<time>2017-11-05T07:26:16.114Z</time>
</trkpt>
<trkpt lat="22.5126319" lon="114.2057171">
<ele>92.145</ele>
<time>2017-11-05T07:26:24.166Z</time>
</trkpt>
<trkpt lat="22.5125348" lon="114.2056884">
<ele>92.637</ele>
<time>2017-11-05T07:26:33.152Z</time>
</trkpt>
<trkpt lat="22.5124510" lon="114.2056335">
<ele>93.312</ele>
<time>2017-11-05T07:26:42.242Z</time>
</trkpt>
<trkpt lat="22.5123587" lon="114.2056310">
<ele>94.047</ele>
<time>2017-11-05T07:26:51.974Z</time>
</trkpt>
<trkpt lat="22.5122690" lon="114.2056515">
<ele>94.768</ele>
<time>2017-11-05T07:27:01.367Z</time>
</trkpt>
<trkpt lat="22.5121916" lon="114.2055823">
<ele>95.569</ele>
<time>2017-11-05T07:27:10.951Z</time>
</trkpt>
<trkpt lat="22.5121916" lon="114.2055823">
<ele>96.338</ele>
<time>2017-11-05T07:27:15.951Z</time>
</trkpt>
<trkpt lat="22.5121916" lon="114.2055823">
<ele>96.731</ele>
<time>2017-11-05T07:27:17.204Z</time>
</trkpt>
<trkpt lat="22.5121378" lon="114.2054969">
<ele>96.656</ele>
<time>2017-11-05T07:27:29.727Z</time>
</trkpt>
<trkpt lat="22.5120665" lon="114.2054267">
<ele>96.612</ele>
<time>2017-11-05T07:27:36.950Z</time>
</trkpt>
<trkpt lat="22.5120665" lon="114.2054267">
<ele>96.982</ele>
<time>2017-11-05T07:27:47.950Z</time>
</trkpt>
<trkpt lat="22.5120665" lon="114.2054267">
<ele>97.362</ele>
<time>2017-11-05T07:27:58.593Z</time>
</trkpt>
<trkpt lat="22.5120281" lon="114.2053358">
<ele>97.325</ele>
<time>2017-11-05T07:28:11.684Z</time>
</trkpt>
<trkpt lat="22.5119738" lon="114.2052543">
<ele>97.244</ele>
<time>2017-11-05T07:28:21.201Z</time>
</trkpt>
<trkpt lat="22.5118883" lon="114.2052089">
<ele>97.596</ele>
<time>2017-11-05T07:28:32.297Z</time>
</trkpt>
<trkpt lat="22.5118207" lon="114.2051428">
<ele>98.208</ele>
<time>2017-11-05T07:28:43.372Z</time>
</trkpt>
<trkpt lat="22.5117598" lon="114.2050600">
<ele>98.588</ele>
<time>2017-11-05T07:28:51.387Z</time>
</trkpt>
<trkpt lat="22.5117436" lon="114.2049568">
<ele>98.580</ele>
<time>2017-11-05T07:28:58.639Z</time>
</trkpt>
<trkpt lat="22.5116850" lon="114.2048809">
<ele>98.386</ele>
<time>2017-11-05T07:29:05.955Z</time>
</trkpt>
<trkpt lat="22.5116850" lon="114.2048809">
<ele>98.216</ele>
<time>2017-11-05T07:29:09.955Z</time>
</trkpt>
<trkpt lat="22.5116850" lon="114.2048809">
<ele>98.130</ele>
<time>2017-11-05T07:29:10.055Z</time>
</trkpt>
<trkpt lat="22.5115903" lon="114.2048586">
<ele>98.105</ele>
<time>2017-11-05T07:29:56.465Z</time>
</trkpt>
<trkpt lat="22.5114954" lon="114.2048711">
<ele>98.676</ele>
<time>2017-11-05T07:30:06.894Z</time>
</trkpt>
<trkpt lat="22.5114286" lon="114.2049422">
<ele>100.386</ele>
<time>2017-11-05T07:30:14.883Z</time>
</trkpt>
<trkpt lat="22.5113571" lon="114.2050048">
<ele>102.613</ele>
<time>2017-11-05T07:30:21.957Z</time>
</trkpt>
<trkpt lat="22.5112838" lon="114.2050799">
<ele>104.388</ele>
<time>2017-11-05T07:30:30.194Z</time>
</trkpt>
<trkpt lat="22.5111935" lon="114.2050830">
<ele>105.674</ele>
<time>2017-11-05T07:30:38.281Z</time>
</trkpt>
<trkpt lat="22.5111618" lon="114.2049853">
<ele>106.886</ele>
<time>2017-11-05T07:30:47.561Z</time>
</trkpt>
<trkpt lat="22.5110900" lon="114.2049106">
<ele>108.677</ele>
<time>2017-11-05T07:30:56.214Z</time>
</trkpt>
<trkpt lat="22.5110149" lon="114.2048500">
<ele>111.249</ele>
<time>2017-11-05T07:31:03.952Z</time>
</trkpt>
<trkpt lat="22.5110149" lon="114.2048500">
<ele>113.661</ele>
<time>2017-11-05T07:31:12.952Z</time>
</trkpt>
<trkpt lat="22.5110149" lon="114.2048500">
<ele>114.774</ele>
<time>2017-11-05T07:31:13.052Z</time>
</trkpt>
<trkpt lat="22.5108865" lon="114.2048563">
<ele>114.602</ele>
<time>2017-11-05T07:32:01.434Z</time>
</trkpt>
<trkpt lat="22.5107966" lon="114.2048948">
<ele>114.361</ele>
<time>2017-11-05T07:32:09.802Z</time>
</trkpt>
<trkpt lat="22.5107004" lon="114.2048974">
<ele>115.256</ele>
<time>2017-11-05T07:32:17.957Z</time>
</trkpt>
<trkpt lat="22.5106150" lon="114.2049440">
<ele>117.380</ele>
<time>2017-11-05T07:32:25.950Z</time>
</trkpt>
<trkpt lat="22.5106150" lon="114.2049440">
<ele>119.789</ele>
<time>2017-11-05T07:32:30.950Z</time>
</trkpt>
<trkpt lat="22.5106150" lon="114.2049440">
<ele>121.137</ele>
<time>2017-11-05T07:32:33.511Z</time>
</trkpt>
<trkpt lat="22.5105397" lon="114.2050172">
<ele>120.232</ele>
<time>2017-11-05T07:32:43.950Z</time>
</trkpt>
<trkpt lat="22.5105397" lon="114.2050172">
<ele>119.769</ele>
<time>2017-11-05T07:33:00.949Z</time>
</trkpt>
<trkpt lat="22.5105397" lon="114.2050172">
<ele>119.749</ele>
<time>2017-11-05T07:33:01.049Z</time>
</trkpt>
<trkpt lat="22.5104330" lon="114.2049554">
<ele>119.927</ele>
<time>2017-11-05T07:33:23.949Z</time>
</trkpt>
<trkpt lat="22.5104330" lon="114.2049554">
<ele>120.024</ele>
<time>2017-11-05T07:33:29.949Z</time>
</trkpt>
<trkpt lat="22.5104330" lon="114.2049554">
<ele>119.982</ele>
<time>2017-11-05T07:44:05.417Z</time>
</trkpt>
<trkpt lat="22.5103043" lon="114.2047926">
<ele>119.906</ele>
<time>2017-11-05T07:44:40.168Z</time>
</trkpt>
<trkpt lat="22.5102444" lon="114.2047132">
<ele>120.168</ele>
<time>2017-11-05T07:44:51.913Z</time>
</trkpt>
<trkpt lat="22.5102108" lon="114.2046225">
<ele>121.141</ele>
<time>2017-11-05T07:45:03.535Z</time>
</trkpt>
<trkpt lat="22.5101333" lon="114.2045707">
<ele>122.573</ele>
<time>2017-11-05T07:45:15.124Z</time>
</trkpt>
<trkpt lat="22.5100440" lon="114.2045495">
<ele>124.109</ele>
<time>2017-11-05T07:45:26.022Z</time>
</trkpt>
<trkpt lat="22.5100125" lon="114.2044543">
<ele>125.866</ele>
<time>2017-11-05T07:45:35.766Z</time>
</trkpt>
<trkpt lat="22.5099579" lon="114.2043710">
<ele>127.719</ele>
<time>2017-11-05T07:45:44.260Z</time>
</trkpt>
<trkpt lat="22.5099015" lon="114.2042915">
<ele>129.197</ele>
<time>2017-11-05T07:45:52.502Z</time>
</trkpt>
<trkpt lat="22.5098107" lon="114.2042448">
<ele>130.115</ele>
<time>2017-11-05T07:46:02.911Z</time>
</trkpt>
<trkpt lat="22.5097369" lon="114.2041785">
<ele>130.596</ele>
<time>2017-11-05T07:46:13.661Z</time>
</trkpt>
<trkpt lat="22.5096590" lon="114.2041269">
<ele>130.897</ele>
<time>2017-11-05T07:46:23.101Z</time>
</trkpt>
<trkpt lat="22.5095721" lon="114.2040751">
<ele>131.375</ele>
<time>2017-11-05T07:46:33.044Z</time>
</trkpt>
<trkpt lat="22.5094783" lon="114.2040395">
<ele>132.274</ele>
<time>2017-11-05T07:46:43.661Z</time>
</trkpt>
<trkpt lat="22.5094099" lon="114.2039670">
<ele>133.607</ele>
<time>2017-11-05T07:46:54.564Z</time>
</trkpt>
<trkpt lat="22.5093643" lon="114.2038811">
<ele>135.318</ele>
<time>2017-11-05T07:47:05.544Z</time>
</trkpt>
<trkpt lat="22.5092985" lon="114.2038044">
<ele>137.254</ele>
<time>2017-11-05T07:47:18.243Z</time>
</trkpt>
<trkpt lat="22.5092144" lon="114.2037600">
<ele>139.099</ele>
<time>2017-11-05T07:47:31.321Z</time>
</trkpt>
<trkpt lat="22.5091165" lon="114.2037518">
<ele>140.713</ele>
<time>2017-11-05T07:47:42.456Z</time>
</trkpt>
<trkpt lat="22.5090238" lon="114.2037084">
<ele>142.053</ele>
<time>2017-11-05T07:47:53.116Z</time>
</trkpt>
<trkpt lat="22.5089318" lon="114.2037186">
<ele>143.139</ele>
<time>2017-11-05T07:48:03.064Z</time>
</trkpt>
<trkpt lat="22.5088440" lon="114.2037424">
<ele>144.300</ele>
<time>2017-11-05T07:48:12.817Z</time>
</trkpt>
<trkpt lat="22.5087540" lon="114.2037744">
<ele>145.749</ele>
<time>2017-11-05T07:48:24.171Z</time>
</trkpt>
<trkpt lat="22.5086669" lon="114.2038088">
<ele>147.385</ele>
<time>2017-11-05T07:48:35.991Z</time>
</trkpt>
<trkpt lat="22.5086669" lon="114.2038088">
<ele>148.930</ele>
<time>2017-11-05T07:48:48.991Z</time>
</trkpt>
<trkpt lat="22.5086669" lon="114.2038088">
<ele>149.760</ele>
<time>2017-11-05T07:48:49.091Z</time>
</trkpt>
<trkpt lat="22.5085525" lon="114.2039413">
<ele>149.632</ele>
<time>2017-11-05T07:49:16.340Z</time>
</trkpt>
<trkpt lat="22.5084695" lon="114.2039872">
<ele>150.334</ele>
<time>2017-11-05T07:49:27.804Z</time>
</trkpt>
<trkpt lat="22.5084068" lon="114.2040656">
<ele>153.439</ele>
<time>2017-11-05T07:49:40.453Z</time>
</trkpt>
<trkpt lat="22.5083334" lon="114.2041230">
<ele>157.669</ele>
<time>2017-11-05T07:49:53.466Z</time>
</trkpt>
<trkpt lat="22.5082625" lon="114.2041890">
<ele>160.861</ele>
<time>2017-11-05T07:50:08.989Z</time>
</trkpt>
<trkpt lat="22.5082625" lon="114.2041890">
<ele>162.192</ele>
<time>2017-11-05T07:50:08.989Z</time>
</trkpt>
<trkpt lat="22.5082625" lon="114.2041890">
<ele>161.945</ele>
<time>2017-11-05T07:50:18.567Z</time>
</trkpt>
<trkpt lat="22.5081773" lon="114.2042252">
<ele>161.370</ele>
<time>2017-11-05T07:50:46.768Z</time>
</trkpt>
<trkpt lat="22.5080870" lon="114.2042146">
<ele>160.684</ele>
<time>2017-11-05T07:50:58.796Z</time>
</trkpt>
<trkpt lat="22.5080117" lon="114.2042747">
<ele>158.278</ele>
<time>2017-11-05T07:51:09.994Z</time>
</trkpt>
<trkpt lat="22.5080117" lon="114.2042747">
<ele>156.125</ele>
<time>2017-11-05T07:51:28.994Z</time>
</trkpt>
<trkpt lat="22.5080117" lon="114.2042747">
<ele>156.081</ele>
<time>2017-11-05T07:51:29.094Z</time>
</trkpt>
<trkpt lat="22.5079332" lon="114.2043567">
<ele>157.143</ele>
<time>2017-11-05T07:51:41.993Z</time>
</trkpt>
<trkpt lat="22.5079332" lon="114.2043567">
<ele>157.797</ele>
<time>2017-11-05T07:51:48.993Z</time>
</trkpt>
<trkpt lat="22.5079332" lon="114.2043567">
<ele>157.785</ele>
<time>2017-11-05T07:52:05.802Z</time>
</trkpt>
<trkpt lat="22.5078235" lon="114.2044227">
<ele>157.556</ele>
<time>2017-11-05T07:52:35.338Z</time>
</trkpt>
<trkpt lat="22.5077290" lon="114.2044232">
<ele>158.481</ele>
<time>2017-11-05T07:52:52.770Z</time>
</trkpt>
<trkpt lat="22.5076389" lon="114.2044519">
<ele>161.262</ele>
<time>2017-11-05T07:53:09.527Z</time>
</trkpt>
<trkpt lat="22.5075643" lon="114.2045125">
<ele>165.158</ele>
<time>2017-11-05T07:53:25.467Z</time>
</trkpt>
<trkpt lat="22.5074873" lon="114.2045665">
<ele>168.847</ele>
<time>2017-11-05T07:53:41.334Z</time>
</trkpt>
<trkpt lat="22.5074030" lon="114.2046012">
<ele>172.063</ele>
<time>2017-11-05T07:53:55.796Z</time>
</trkpt>
<trkpt lat="22.5073504" lon="114.2045178">
<ele>175.019</ele>
<time>2017-11-05T07:54:08.331Z</time>
</trkpt>
<trkpt lat="22.5072672" lon="114.2044808">
<ele>177.495</ele>
<time>2017-11-05T07:54:20.730Z</time>
</trkpt>
<trkpt lat="22.5071980" lon="114.2044158">
<ele>179.284</ele>
<time>2017-11-05T07:54:33.310Z</time>
</trkpt>
<trkpt lat="22.5071114" lon="114.2043868">
<ele>180.887</ele>
<time>2017-11-05T07:54:43.499Z</time>
</trkpt>
<trkpt lat="22.5070307" lon="114.2043240">
<ele>182.492</ele>
<time>2017-11-05T07:54:53.262Z</time>
</trkpt>
<trkpt lat="22.5069406" lon="114.2043212">
<ele>183.616</ele>
<time>2017-11-05T07:55:02.288Z</time>
</trkpt>
<trkpt lat="22.5068517" lon="114.2043012">
<ele>184.218</ele>
<time>2017-11-05T07:55:11.864Z</time>
</trkpt>
<trkpt lat="22.5067910" lon="114.2042157">
<ele>184.859</ele>
<time>2017-11-05T07:55:21.993Z</time>
</trkpt>
<trkpt lat="22.5067319" lon="114.2041366">
<ele>185.856</ele>
<time>2017-11-05T07:55:30.407Z</time>
</trkpt>
<trkpt lat="22.5066630" lon="114.2040641">
<ele>186.887</ele>
<time>2017-11-05T07:55:39.210Z</time>
</trkpt>
<trkpt lat="22.5065746" lon="114.2040189">
<ele>187.620</ele>
<time>2017-11-05T07:55:49.095Z</time>
</trkpt>
<trkpt lat="22.5065424" lon="114.2039222">
<ele>188.318</ele>
<time>2017-11-05T07:55:59.075Z</time>
</trkpt>
<trkpt lat="22.5064857" lon="114.2038429">
<ele>189.406</ele>
<time>2017-11-05T07:56:07.898Z</time>
</trkpt>
<trkpt lat="22.5064171" lon="114.2037669">
<ele>190.765</ele>
<time>2017-11-05T07:56:17.887Z</time>
</trkpt>
<trkpt lat="22.5063283" lon="114.2037368">
<ele>192.085</ele>
<time>2017-11-05T07:56:29.040Z</time>
</trkpt>
<trkpt lat="22.5062583" lon="114.2036694">
<ele>193.526</ele>
<time>2017-11-05T07:56:40.791Z</time>
</trkpt>
<trkpt lat="22.5061946" lon="114.2036004">
<ele>195.080</ele>
<time>2017-11-05T07:56:49.505Z</time>
</trkpt>
<trkpt lat="22.5061403" lon="114.2035223">
<ele>196.219</ele>
<time>2017-11-05T07:56:57.557Z</time>
</trkpt>
<trkpt lat="22.5061157" lon="114.2034193">
<ele>196.673</ele>
<time>2017-11-05T07:57:06.752Z</time>
</trkpt>
<trkpt lat="22.5060374" lon="114.2033562">
<ele>196.714</ele>
<time>2017-11-05T07:57:17.028Z</time>
</trkpt>
<trkpt lat="22.5059587" lon="114.2032984">
<ele>196.673</ele>
<time>2017-11-05T07:57:27.732Z</time>
</trkpt>
<trkpt lat="22.5059008" lon="114.2032198">
<ele>196.687</ele>
<time>2017-11-05T07:57:37.499Z</time>
</trkpt>
<trkpt lat="22.5058830" lon="114.2031187">
<ele>196.710</ele>
<time>2017-11-05T07:57:46.542Z</time>
</trkpt>
<trkpt lat="22.5058792" lon="114.2030114">
<ele>196.403</ele>
<time>2017-11-05T07:57:55.688Z</time>
</trkpt>
<trkpt lat="22.5059045" lon="114.2029175">
<ele>195.529</ele>
<time>2017-11-05T07:58:04.991Z</time>
</trkpt>
<trkpt lat="22.5059045" lon="114.2029175">
<ele>194.516</ele>
<time>2017-11-05T07:58:17.990Z</time>
</trkpt>
<trkpt lat="22.5059045" lon="114.2029175">
<ele>193.968</ele>
<time>2017-11-05T08:06:52.157Z</time>
</trkpt>
<trkpt lat="22.5059045" lon="114.2029175">
<ele>194.116</ele>
<time>2017-11-05T08:07:16.984Z</time>
</trkpt>
<trkpt lat="22.5059045" lon="114.2029175">
<ele>194.207</ele>
<time>2017-11-05T08:07:17.084Z</time>
</trkpt>
<trkpt lat="22.5059045" lon="114.2029175">
<ele>193.975</ele>
<time>2017-11-05T08:07:19.984Z</time>
</trkpt>
<trkpt lat="22.5059045" lon="114.2029175">
<ele>193.890</ele>
<time>2017-11-05T08:07:34.984Z</time>
</trkpt>
<trkpt lat="22.5059045" lon="114.2029175">
<ele>193.848</ele>
<time>2017-11-05T08:07:50.983Z</time>
</trkpt>
<trkpt lat="22.5059045" lon="114.2029175">
<ele>193.792</ele>
<time>2017-11-05T08:10:19.719Z</time>
</trkpt>
<trkpt lat="22.5058979" lon="114.2028089">
<ele>193.715</ele>
<time>2017-11-05T08:10:33.979Z</time>
</trkpt>
<trkpt lat="22.5058979" lon="114.2028089">
<ele>193.633</ele>
<time>2017-11-05T08:10:34.979Z</time>
</trkpt>
<trkpt lat="22.5058979" lon="114.2028089">
<ele>193.541</ele>
<time>2017-11-05T08:10:35.079Z</time>
</trkpt>
<trkpt lat="22.5058979" lon="114.2028089">
<ele>193.408</ele>
<time>2017-11-05T08:10:52.979Z</time>
</trkpt>
<trkpt lat="22.5058979" lon="114.2028089">
<ele>193.371</ele>
<time>2017-11-05T08:11:12.181Z</time>
</trkpt>
<trkpt lat="22.5060384" lon="114.2027238">
<ele>193.312</ele>
<time>2017-11-05T08:11:37.759Z</time>
</trkpt>
<trkpt lat="22.5061125" lon="114.2026502">
<ele>193.454</ele>
<time>2017-11-05T08:11:46.060Z</time>
</trkpt>
<trkpt lat="22.5061849" lon="114.2025925">
<ele>194.125</ele>
<time>2017-11-05T08:11:52.984Z</time>
</trkpt>
<trkpt lat="22.5061849" lon="114.2025925">
<ele>195.113</ele>
<time>2017-11-05T08:11:58.984Z</time>
</trkpt>
<trkpt lat="22.5061849" lon="114.2025925">
<ele>195.694</ele>
<time>2017-11-05T08:11:59.084Z</time>
</trkpt>
<trkpt lat="22.5063053" lon="114.2025012">
<ele>195.577</ele>
<time>2017-11-05T08:13:02.805Z</time>
</trkpt>
<trkpt lat="22.5063927" lon="114.2024738">
<ele>195.432</ele>
<time>2017-11-05T08:13:11.868Z</time>
</trkpt>
<trkpt lat="22.5064579" lon="114.2023904">
<ele>195.830</ele>
<time>2017-11-05T08:13:21.474Z</time>
</trkpt>
<trkpt lat="22.5064995" lon="114.2022962">
<ele>196.482</ele>
<time>2017-11-05T08:13:30.905Z</time>
</trkpt>
<trkpt lat="22.5065734" lon="114.2022321">
<ele>197.017</ele>
<time>2017-11-05T08:13:41.104Z</time>
</trkpt>
<trkpt lat="22.5066645" lon="114.2022282">
<ele>197.554</ele>
<time>2017-11-05T08:13:51.769Z</time>
</trkpt>
<trkpt lat="22.5067550" lon="114.2021967">
<ele>198.370</ele>
<time>2017-11-05T08:14:03.477Z</time>
</trkpt>
<trkpt lat="22.5068031" lon="114.2021125">
<ele>199.745</ele>
<time>2017-11-05T08:14:14.980Z</time>
</trkpt>
<trkpt lat="22.5068031" lon="114.2021125">
<ele>201.431</ele>
<time>2017-11-05T08:14:29.980Z</time>
</trkpt>
<trkpt lat="22.5068031" lon="114.2021125">
<ele>202.442</ele>
<time>2017-11-05T08:14:30.080Z</time>
</trkpt>
<trkpt lat="22.5069294" lon="114.2020139">
<ele>202.297</ele>
<time>2017-11-05T08:14:56.078Z</time>
</trkpt>
<trkpt lat="22.5069702" lon="114.2019222">
<ele>203.118</ele>
<time>2017-11-05T08:15:05.889Z</time>
</trkpt>
<trkpt lat="22.5069827" lon="114.2018212">
<ele>206.794</ele>
<time>2017-11-05T08:15:14.979Z</time>
</trkpt>
<trkpt lat="22.5069827" lon="114.2018212">
<ele>211.397</ele>
<time>2017-11-05T08:15:17.979Z</time>
</trkpt>
<trkpt lat="22.5069827" lon="114.2018212">
<ele>213.741</ele>
<time>2017-11-05T08:15:18.079Z</time>
</trkpt>
<trkpt lat="22.5070240" lon="114.2017335">
<ele>213.437</ele>
<time>2017-11-05T08:15:34.611Z</time>
</trkpt>
<trkpt lat="22.5070435" lon="114.2016371">
<ele>213.252</ele>
<time>2017-11-05T08:15:50.150Z</time>
</trkpt>
<trkpt lat="22.5070981" lon="114.2015518">
<ele>215.636</ele>
<time>2017-11-05T08:16:10.179Z</time>
</trkpt>
<trkpt lat="22.5071774" lon="114.2015031">
<ele>219.753</ele>
<time>2017-11-05T08:16:29.055Z</time>
</trkpt>
<trkpt lat="22.5072333" lon="114.2014233">
<ele>223.811</ele>
<time>2017-11-05T08:16:45.595Z</time>
</trkpt>
<trkpt lat="22.5072964" lon="114.2013495">
<ele>227.277</ele>
<time>2017-11-05T08:17:02.383Z</time>
</trkpt>
<trkpt lat="22.5073749" lon="114.2012994">
<ele>230.282</ele>
<time>2017-11-05T08:17:17.820Z</time>
</trkpt>
<trkpt lat="22.5074027" lon="114.2012051">
<ele>233.080</ele>
<time>2017-11-05T08:17:31.976Z</time>
</trkpt>
<trkpt lat="22.5074027" lon="114.2012051">
<ele>235.351</ele>
<time>2017-11-05T08:17:38.975Z</time>
</trkpt>
<trkpt lat="22.5074027" lon="114.2012051">
<ele>236.386</ele>
<time>2017-11-05T08:17:39.075Z</time>
</trkpt>
<trkpt lat="22.5075666" lon="114.2010644">
<ele>236.171</ele>
<time>2017-11-05T08:18:23.974Z</time>
</trkpt>
<trkpt lat="22.5075666" lon="114.2010644">
<ele>235.642</ele>
<time>2017-11-05T08:18:27.974Z</time>
</trkpt>
<trkpt lat="22.5075666" lon="114.2010644">
<ele>235.515</ele>
<time>2017-11-05T08:18:28.074Z</time>
</trkpt>
<trkpt lat="22.5076971" lon="114.2008984">
<ele>235.684</ele>
<time>2017-11-05T08:20:03.979Z</time>
</trkpt>
<trkpt lat="22.5076971" lon="114.2008984">
<ele>235.779</ele>
<time>2017-11-05T08:20:07.978Z</time>
</trkpt>
<trkpt lat="22.5076971" lon="114.2008984">
<ele>235.692</ele>
<time>2017-11-05T08:20:19.822Z</time>
</trkpt>
<trkpt lat="22.5078414" lon="114.2007736">
<ele>235.556</ele>
<time>2017-11-05T08:21:02.977Z</time>
</trkpt>
<trkpt lat="22.5078414" lon="114.2007736">
<ele>235.492</ele>
<time>2017-11-05T08:21:06.977Z</time>
</trkpt>
<trkpt lat="22.5078414" lon="114.2007736">
<ele>235.451</ele>
<time>2017-11-05T08:21:14.879Z</time>
</trkpt>
<trkpt lat="22.5080231" lon="114.2008684">
<ele>235.382</ele>
<time>2017-11-05T08:21:48.976Z</time>
</trkpt>
<trkpt lat="22.5080231" lon="114.2008684">
<ele>235.301</ele>
<time>2017-11-05T08:21:52.976Z</time>
</trkpt>
<trkpt lat="22.5080231" lon="114.2008684">
<ele>235.229</ele>
<time>2017-11-05T08:21:53.076Z</time>
</trkpt>
<trkpt lat="22.5081503" lon="114.2007122">
<ele>235.161</ele>
<time>2017-11-05T08:22:39.975Z</time>
</trkpt>
<trkpt lat="22.5081503" lon="114.2007122">
<ele>235.104</ele>
<time>2017-11-05T08:22:43.975Z</time>
</trkpt>
<trkpt lat="22.5081503" lon="114.2007122">
<ele>235.040</ele>
<time>2017-11-05T08:22:44.075Z</time>
</trkpt>
<trkpt lat="22.5081875" lon="114.2005667">
<ele>234.962</ele>
<time>2017-11-05T08:23:32.974Z</time>
</trkpt>
<trkpt lat="22.5081875" lon="114.2005667">
<ele>234.893</ele>
<time>2017-11-05T08:23:52.973Z</time>
</trkpt>
<trkpt lat="22.5081875" lon="114.2005667">
<ele>234.830</ele>
<time>2017-11-05T08:24:17.972Z</time>
</trkpt>
<trkpt lat="22.5081875" lon="114.2005667">
<ele>234.748</ele>
<time>2017-11-05T08:25:11.545Z</time>
</trkpt>
<trkpt lat="22.5082644" lon="114.2004061">
<ele>234.668</ele>
<time>2017-11-05T08:25:38.730Z</time>
</trkpt>
<trkpt lat="22.5083328" lon="114.2003351">
<ele>246.716</ele>
<time>2017-11-05T08:25:48.376Z</time>
</trkpt>
<trkpt lat="22.5083363" lon="114.2002358">
<ele>278.233</ele>
<time>2017-11-05T08:25:57.921Z</time>
</trkpt>
<trkpt lat="22.5083871" lon="114.2001437">
<ele>310.940</ele>
<time>2017-11-05T08:26:08.169Z</time>
</trkpt>
<trkpt lat="22.5083960" lon="114.2000433">
<ele>327.419</ele>
<time>2017-11-05T08:26:17.692Z</time>
</trkpt>
<trkpt lat="22.5083804" lon="114.1999417">
<ele>331.565</ele>
<time>2017-11-05T08:26:27.976Z</time>
</trkpt>
<trkpt lat="22.5083804" lon="114.1999417">
<ele>331.028</ele>
<time>2017-11-05T08:26:35.976Z</time>
</trkpt>
<trkpt lat="22.5083804" lon="114.1999417">
<ele>330.281</ele>
<time>2017-11-05T08:26:36.076Z</time>
</trkpt>
<trkpt lat="22.5083796" lon="114.1998249">
<ele>330.308</ele>
<time>2017-11-05T08:27:08.301Z</time>
</trkpt>
<trkpt lat="22.5083776" lon="114.1997264">
<ele>331.011</ele>
<time>2017-11-05T08:27:25.937Z</time>
</trkpt>
<trkpt lat="22.5083770" lon="114.1996268">
<ele>332.599</ele>
<time>2017-11-05T08:27:44.977Z</time>
</trkpt>
<trkpt lat="22.5083404" lon="114.1995351">
<ele>335.358</ele>
<time>2017-11-05T08:28:03.566Z</time>
</trkpt>
<trkpt lat="22.5083415" lon="114.1994359">
<ele>339.135</ele>
<time>2017-11-05T08:28:16.358Z</time>
</trkpt>
<trkpt lat="22.5083759" lon="114.1993431">
<ele>342.995</ele>
<time>2017-11-05T08:28:26.662Z</time>
</trkpt>
<trkpt lat="22.5083791" lon="114.1992434">
<ele>345.857</ele>
<time>2017-11-05T08:28:36.973Z</time>
</trkpt>
<trkpt lat="22.5083791" lon="114.1992434">
<ele>347.376</ele>
<time>2017-11-05T08:28:42.973Z</time>
</trkpt>
<trkpt lat="22.5083791" lon="114.1992434">
<ele>347.774</ele>
<time>2017-11-05T08:28:43.073Z</time>
</trkpt>
<trkpt lat="22.5083710" lon="114.1991332">
<ele>347.161</ele>
<time>2017-11-05T08:29:02.972Z</time>
</trkpt>
<trkpt lat="22.5083710" lon="114.1991332">
<ele>346.959</ele>
<time>2017-11-05T08:29:12.972Z</time>
</trkpt>
<trkpt lat="22.5083710" lon="114.1991332">
<ele>346.881</ele>
<time>2017-11-05T08:29:13.072Z</time>
</trkpt>
<trkpt lat="22.5083349" lon="114.1990373">
<ele>346.825</ele>
<time>2017-11-05T08:29:49.890Z</time>
</trkpt>
<trkpt lat="22.5083094" lon="114.1989364">
<ele>347.267</ele>
<time>2017-11-05T08:29:58.243Z</time>
</trkpt>
<trkpt lat="22.5082677" lon="114.1988404">
<ele>348.569</ele>
<time>2017-11-05T08:30:05.866Z</time>
</trkpt>
<trkpt lat="22.5082885" lon="114.1987374">
<ele>349.991</ele>
<time>2017-11-05T08:30:15.392Z</time>
</trkpt>
<trkpt lat="22.5082817" lon="114.1986313">
<ele>350.900</ele>
<time>2017-11-05T08:30:26.481Z</time>
</trkpt>
<trkpt lat="22.5082701" lon="114.1985312">
<ele>351.900</ele>
<time>2017-11-05T08:30:38.544Z</time>
</trkpt>
<trkpt lat="22.5082370" lon="114.1984357">
<ele>353.629</ele>
<time>2017-11-05T08:30:51.604Z</time>
</trkpt>
<trkpt lat="22.5082449" lon="114.1983360">
<ele>355.939</ele>
<time>2017-11-05T08:31:05.969Z</time>
</trkpt>
<trkpt lat="22.5082449" lon="114.1983360">
<ele>358.075</ele>
<time>2017-11-05T08:31:14.969Z</time>
</trkpt>
<trkpt lat="22.5082449" lon="114.1983360">
<ele>359.110</ele>
<time>2017-11-05T08:31:15.069Z</time>
</trkpt>
<trkpt lat="22.5081530" lon="114.1981311">
<ele>358.860</ele>
<time>2017-11-05T08:31:48.968Z</time>
</trkpt>
<trkpt lat="22.5081530" lon="114.1981311">
<ele>358.260</ele>
<time>2017-11-05T08:31:50.968Z</time>
</trkpt>
<trkpt lat="22.5081530" lon="114.1981311">
<ele>358.080</ele>
<time>2017-11-05T08:31:51.068Z</time>
</trkpt>
<trkpt lat="22.5081371" lon="114.1978983">
<ele>358.225</ele>
<time>2017-11-05T08:35:12.970Z</time>
</trkpt>
<trkpt lat="22.5081371" lon="114.1978983">
<ele>358.302</ele>
<time>2017-11-05T08:35:16.970Z</time>
</trkpt>
<trkpt lat="22.5081371" lon="114.1978983">
<ele>358.170</ele>
<time>2017-11-05T08:35:17.070Z</time>
</trkpt>
<trkpt lat="22.5081371" lon="114.1978983">
<ele>357.875</ele>
<time>2017-11-05T08:35:37.969Z</time>
</trkpt>
<trkpt lat="22.5081371" lon="114.1978983">
<ele>357.809</ele>
<time>2017-11-05T08:35:38.069Z</time>
</trkpt>
<trkpt lat="22.5080728" lon="114.1977386">
<ele>357.705</ele>
<time>2017-11-05T08:36:13.758Z</time>
</trkpt>
<trkpt lat="22.5079776" lon="114.1976956">
<ele>362.192</ele>
<time>2017-11-05T08:36:26.968Z</time>
</trkpt>
<trkpt lat="22.5079776" lon="114.1976956">
<ele>374.102</ele>
<time>2017-11-05T08:36:32.968Z</time>
</trkpt>
<trkpt lat="22.5079776" lon="114.1976956">
<ele>384.008</ele>
<time>2017-11-05T08:37:36.445Z</time>
</trkpt>
<trkpt lat="22.5079161" lon="114.1976096">
<ele>383.685</ele>
<time>2017-11-05T08:37:51.134Z</time>
</trkpt>
<trkpt lat="22.5078867" lon="114.1975154">
<ele>381.238</ele>
<time>2017-11-05T08:38:00.583Z</time>
</trkpt>
<trkpt lat="22.5078509" lon="114.1974232">
<ele>385.187</ele>
<time>2017-11-05T08:38:11.281Z</time>
</trkpt>
<trkpt lat="22.5078335" lon="114.1973242">
<ele>392.504</ele>
<time>2017-11-05T08:38:24.143Z</time>
</trkpt>
<trkpt lat="22.5078911" lon="114.1972468">
<ele>398.026</ele>
<time>2017-11-05T08:38:36.965Z</time>
</trkpt>
<trkpt lat="22.5078911" lon="114.1972468">
<ele>401.046</ele>
<time>2017-11-05T08:38:41.965Z</time>
</trkpt>
<trkpt lat="22.5078911" lon="114.1972468">
<ele>401.963</ele>
<time>2017-11-05T08:41:01.977Z</time>
</trkpt>
<trkpt lat="22.5079173" lon="114.1971269">
<ele>400.952</ele>
<time>2017-11-05T08:41:22.967Z</time>
</trkpt>
<trkpt lat="22.5079173" lon="114.1971269">
<ele>400.573</ele>
<time>2017-11-05T08:41:25.967Z</time>
</trkpt>
<trkpt lat="22.5079173" lon="114.1971269">
<ele>400.458</ele>
<time>2017-11-05T08:41:26.067Z</time>
</trkpt>
<trkpt lat="22.5079399" lon="114.1970274">
<ele>400.285</ele>
<time>2017-11-05T08:41:41.434Z</time>
</trkpt>
<trkpt lat="22.5079532" lon="114.1969259">
<ele>399.921</ele>
<time>2017-11-05T08:41:50.492Z</time>
</trkpt>
<trkpt lat="22.5079859" lon="114.1968241">
<ele>398.894</ele>
<time>2017-11-05T08:41:58.895Z</time>
</trkpt>
<trkpt lat="22.5079501" lon="114.1967225">
<ele>396.971</ele>
<time>2017-11-05T08:42:06.018Z</time>
</trkpt>
<trkpt lat="22.5079005" lon="114.1966317">
<ele>394.545</ele>
<time>2017-11-05T08:42:12.382Z</time>
</trkpt>
<trkpt lat="22.5078439" lon="114.1965477">
<ele>392.229</ele>
<time>2017-11-05T08:42:18.835Z</time>
</trkpt>
<trkpt lat="22.5077800" lon="114.1964660">
<ele>390.336</ele>
<time>2017-11-05T08:42:25.966Z</time>
</trkpt>
<trkpt lat="22.5077800" lon="114.1964660">
<ele>389.011</ele>
<time>2017-11-05T08:42:28.966Z</time>
</trkpt>
<trkpt lat="22.5077800" lon="114.1964660">
<ele>388.381</ele>
<time>2017-11-05T08:42:35.729Z</time>
</trkpt>
<trkpt lat="22.5078476" lon="114.1963979">
<ele>388.412</ele>
<time>2017-11-05T08:42:51.075Z</time>
</trkpt>
<trkpt lat="22.5079191" lon="114.1963317">
<ele>388.546</ele>
<time>2017-11-05T08:42:56.965Z</time>
</trkpt>
<trkpt lat="22.5079191" lon="114.1963317">
<ele>388.650</ele>
<time>2017-11-05T08:43:08.965Z</time>
</trkpt>
<trkpt lat="22.5079191" lon="114.1963317">
<ele>388.640</ele>
<time>2017-11-05T08:43:24.775Z</time>
</trkpt>
<trkpt lat="22.5078378" lon="114.1963821">
<ele>388.282</ele>
<time>2017-11-05T08:43:40.086Z</time>
</trkpt>
<trkpt lat="22.5077681" lon="114.1964441">
<ele>388.180</ele>
<time>2017-11-05T08:43:50.234Z</time>
</trkpt>
<trkpt lat="22.5076778" lon="114.1963937">
<ele>388.046</ele>
<time>2017-11-05T08:44:01.432Z</time>
</trkpt>
<trkpt lat="22.5076046" lon="114.1963369">
<ele>387.681</ele>
<time>2017-11-05T08:44:08.963Z</time>
</trkpt>
<trkpt lat="22.5076046" lon="114.1963369">
<ele>387.153</ele>
<time>2017-11-05T08:44:14.963Z</time>
</trkpt>
<trkpt lat="22.5076046" lon="114.1963369">
<ele>386.760</ele>
<time>2017-11-05T08:44:25.587Z</time>
</trkpt>
<trkpt lat="22.5076711" lon="114.1964088">
<ele>386.625</ele>
<time>2017-11-05T08:44:40.225Z</time>
</trkpt>
<trkpt lat="22.5077085" lon="114.1965021">
<ele>386.674</ele>
<time>2017-11-05T08:44:49.022Z</time>
</trkpt>
<trkpt lat="22.5077706" lon="114.1964310">
<ele>386.831</ele>
<time>2017-11-05T08:44:59.150Z</time>
</trkpt>
<trkpt lat="22.5078663" lon="114.1963975">
<ele>387.158</ele>
<time>2017-11-05T08:45:09.194Z</time>
</trkpt>
<trkpt lat="22.5079327" lon="114.1963157">
<ele>387.623</ele>
<time>2017-11-05T08:45:19.909Z</time>
</trkpt>
<trkpt lat="22.5079981" lon="114.1962482">
<ele>388.283</ele>
<time>2017-11-05T08:45:29.961Z</time>
</trkpt>
<trkpt lat="22.5079981" lon="114.1962482">
<ele>389.052</ele>
<time>2017-11-05T08:45:34.961Z</time>
</trkpt>
<trkpt lat="22.5079981" lon="114.1962482">
<ele>389.444</ele>
<time>2017-11-05T08:45:35.061Z</time>
</trkpt>
<trkpt lat="22.5080571" lon="114.1961738">
<ele>389.252</ele>
<time>2017-11-05T08:45:48.247Z</time>
</trkpt>
<trkpt lat="22.5081177" lon="114.1960948">
<ele>389.127</ele>
<time>2017-11-05T08:45:58.426Z</time>
</trkpt>
<trkpt lat="22.5082086" lon="114.1960674">
<ele>389.598</ele>
<time>2017-11-05T08:46:08.742Z</time>
</trkpt>
<trkpt lat="22.5082692" lon="114.1959807">
<ele>390.193</ele>
<time>2017-11-05T08:46:19.632Z</time>
</trkpt>
<trkpt lat="22.5082613" lon="114.1958795">
<ele>390.380</ele>
<time>2017-11-05T08:46:28.179Z</time>
</trkpt>
<trkpt lat="22.5082186" lon="114.1957868">
<ele>390.306</ele>
<time>2017-11-05T08:46:35.960Z</time>
</trkpt>
<trkpt lat="22.5082186" lon="114.1957868">
<ele>390.239</ele>
<time>2017-11-05T08:46:42.960Z</time>
</trkpt>
<trkpt lat="22.5082186" lon="114.1957868">
<ele>390.177</ele>
<time>2017-11-05T08:46:43.060Z</time>
</trkpt>
<trkpt lat="22.5081694" lon="114.1956818">
<ele>390.045</ele>
<time>2017-11-05T08:46:58.256Z</time>
</trkpt>
<trkpt lat="22.5081200" lon="114.1955941">
<ele>390.367</ele>
<time>2017-11-05T08:47:07.959Z</time>
</trkpt>
<trkpt lat="22.5081200" lon="114.1955941">
<ele>391.501</ele>
<time>2017-11-05T08:47:13.959Z</time>
</trkpt>
<trkpt lat="22.5081200" lon="114.1955941">
<ele>392.426</ele>
<time>2017-11-05T08:47:14.361Z</time>
</trkpt>
<trkpt lat="22.5079370" lon="114.1956557">
<ele>392.252</ele>
<time>2017-11-05T08:48:25.964Z</time>
</trkpt>
<trkpt lat="22.5079370" lon="114.1956557">
<ele>391.666</ele>
<time>2017-11-05T08:48:29.964Z</time>
</trkpt>
<trkpt lat="22.5079370" lon="114.1956557">
<ele>391.467</ele>
<time>2017-11-05T08:48:30.064Z</time>
</trkpt>
<trkpt lat="22.5078911" lon="114.1957392">
<ele>391.444</ele>
<time>2017-11-05T08:48:57.963Z</time>
</trkpt>
<trkpt lat="22.5078911" lon="114.1957392">
<ele>391.304</ele>
<time>2017-11-05T08:49:01.963Z</time>
</trkpt>
<trkpt lat="22.5078911" lon="114.1957392">
<ele>391.186</ele>
<time>2017-11-05T08:49:16.756Z</time>
</trkpt>
<trkpt lat="22.5077914" lon="114.1957199">
<ele>391.081</ele>
<time>2017-11-05T08:50:17.961Z</time>
</trkpt>
<trkpt lat="22.5077914" lon="114.1957199">
<ele>390.985</ele>
<time>2017-11-05T08:50:20.961Z</time>
</trkpt>
<trkpt lat="22.5077914" lon="114.1957199">
<ele>390.876</ele>
<time>2017-11-05T08:50:21.061Z</time>
</trkpt>
<trkpt lat="22.5078807" lon="114.1957428">
<ele>390.599</ele>
<time>2017-11-05T08:50:55.808Z</time>
</trkpt>
<trkpt lat="22.5079449" lon="114.1956734">
<ele>392.752</ele>
<time>2017-11-05T08:51:14.441Z</time>
</trkpt>
<trkpt lat="22.5080338" lon="114.1956300">
<ele>403.467</ele>
<time>2017-11-05T08:51:31.959Z</time>
</trkpt>
<trkpt lat="22.5080338" lon="114.1956300">
<ele>401.866</ele>
<time>2017-11-05T08:51:48.959Z</time>
</trkpt>
<trkpt lat="22.5080338" lon="114.1956300">
<ele>401.446</ele>
<time>2017-11-05T08:51:49.059Z</time>
</trkpt>
<trkpt lat="22.5080980" lon="114.1955466">
<ele>401.934</ele>
<time>2017-11-05T08:52:07.756Z</time>
</trkpt>
<trkpt lat="22.5080175" lon="114.1955008">
<ele>401.970</ele>
<time>2017-11-05T08:52:18.651Z</time>
</trkpt>
<trkpt lat="22.5079974" lon="114.1954002">
<ele>401.557</ele>
<time>2017-11-05T08:52:30.044Z</time>
</trkpt>
<trkpt lat="22.5079569" lon="114.1953112">
<ele>401.386</ele>
<time>2017-11-05T08:52:41.957Z</time>
</trkpt>
<trkpt lat="22.5079569" lon="114.1953112">
<ele>401.732</ele>
<time>2017-11-05T08:52:57.957Z</time>
</trkpt>
<trkpt lat="22.5079569" lon="114.1953112">
<ele>402.064</ele>
<time>2017-11-05T08:52:58.057Z</time>
</trkpt>
<trkpt lat="22.5079305" lon="114.1951939">
<ele>401.904</ele>
<time>2017-11-05T08:53:18.956Z</time>
</trkpt>
<trkpt lat="22.5079305" lon="114.1951939">
<ele>401.544</ele>
<time>2017-11-05T08:53:29.956Z</time>
</trkpt>
<trkpt lat="22.5079305" lon="114.1951939">
<ele>401.363</ele>
<time>2017-11-05T08:53:36.994Z</time>
</trkpt>
<trkpt lat="22.5078755" lon="114.1950806">
<ele>401.353</ele>
<time>2017-11-05T08:54:10.031Z</time>
</trkpt>
<trkpt lat="22.5078438" lon="114.1949864">
<ele>403.748</ele>
<time>2017-11-05T08:54:46.363Z</time>
</trkpt>
<trkpt lat="22.5078203" lon="114.1948896">
<ele>410.418</ele>
<time>2017-11-05T08:55:23.352Z</time>
</trkpt>
<trkpt lat="22.5077524" lon="114.1948239">
<ele>419.186</ele>
<time>2017-11-05T08:56:17.926Z</time>
</trkpt>
<trkpt lat="22.5077277" lon="114.1947241">
<ele>427.581</ele>
<time>2017-11-05T08:57:15.098Z</time>
</trkpt>
<trkpt lat="22.5076319" lon="114.1947493">
<ele>435.677</ele>
<time>2017-11-05T08:57:59.264Z</time>
</trkpt>
<trkpt lat="22.5075385" lon="114.1947765">
<ele>442.927</ele>
<time>2017-11-05T08:58:26.870Z</time>
</trkpt>
<trkpt lat="22.5074471" lon="114.1947854">
<ele>448.017</ele>
<time>2017-11-05T08:58:43.985Z</time>
</trkpt>
<trkpt lat="22.5073565" lon="114.1947925">
<ele>450.618</ele>
<time>2017-11-05T08:59:05.955Z</time>
</trkpt>
<trkpt lat="22.5073565" lon="114.1947925">
<ele>451.691</ele>
<time>2017-11-05T08:59:07.954Z</time>
</trkpt>
<trkpt lat="22.5073565" lon="114.1947925">
<ele>451.926</ele>
<time>2017-11-05T08:59:08.054Z</time>
</trkpt>
<trkpt lat="22.5072655" lon="114.1947913">
<ele>451.326</ele>
<time>2017-11-05T08:59:28.317Z</time>
</trkpt>
<trkpt lat="22.5071731" lon="114.1947916">
<ele>451.666</ele>
<time>2017-11-05T08:59:38.954Z</time>
</trkpt>
<trkpt lat="22.5071731" lon="114.1947916">
<ele>452.978</ele>
<time>2017-11-05T08:59:44.954Z</time>
</trkpt>
<trkpt lat="22.5071731" lon="114.1947916">
<ele>454.046</ele>
<time>2017-11-05T09:00:02.545Z</time>
</trkpt>
<trkpt lat="22.5070735" lon="114.1947643">
<ele>453.047</ele>
<time>2017-11-05T09:00:15.953Z</time>
</trkpt>
<trkpt lat="22.5070735" lon="114.1947643">
<ele>452.515</ele>
<time>2017-11-05T09:00:26.953Z</time>
</trkpt>
<trkpt lat="22.5070735" lon="114.1947643">
<ele>452.360</ele>
<time>2017-11-05T09:00:27.053Z</time>
</trkpt>
<trkpt lat="22.5069396" lon="114.1947212">
<ele>452.404</ele>
<time>2017-11-05T09:00:42.752Z</time>
</trkpt>
<trkpt lat="22.5068556" lon="114.1946756">
<ele>452.551</ele>
<time>2017-11-05T09:00:50.007Z</time>
</trkpt>
<trkpt lat="22.5067704" lon="114.1946318">
<ele>452.776</ele>
<time>2017-11-05T09:00:56.952Z</time>
</trkpt>
<trkpt lat="22.5067704" lon="114.1946318">
<ele>452.866</ele>
<time>2017-11-05T09:01:03.952Z</time>
</trkpt>
<trkpt lat="22.5067704" lon="114.1946318">
<ele>452.672</ele>
<time>2017-11-05T09:01:04.052Z</time>
</trkpt>
<trkpt lat="22.5066864" lon="114.1945699">
<ele>452.394</ele>
<time>2017-11-05T09:01:11.951Z</time>
</trkpt>
<trkpt lat="22.5066864" lon="114.1945699">
<ele>452.188</ele>
<time>2017-11-05T09:01:17.951Z</time>
</trkpt>
<trkpt lat="22.5066864" lon="114.1945699">
<ele>451.986</ele>
<time>2017-11-05T09:01:42.951Z</time>
</trkpt>
<trkpt lat="22.5066864" lon="114.1945699">
<ele>451.787</ele>
<time>2017-11-05T09:01:52.950Z</time>
</trkpt>
<trkpt lat="22.5066864" lon="114.1945699">
<ele>451.639</ele>
<time>2017-11-05T09:01:53.050Z</time>
</trkpt>
<trkpt lat="22.5066324" lon="114.1944852">
<ele>451.368</ele>
<time>2017-11-05T09:02:11.095Z</time>
</trkpt>
<trkpt lat="22.5066052" lon="114.1943876">
<ele>451.451</ele>
<time>2017-11-05T09:02:21.956Z</time>
</trkpt>
<trkpt lat="22.5066052" lon="114.1943876">
<ele>451.877</ele>
<time>2017-11-05T09:02:33.956Z</time>
</trkpt>
<trkpt lat="22.5066052" lon="114.1943876">
<ele>452.187</ele>
<time>2017-11-05T09:02:34.056Z</time>
</trkpt>
<trkpt lat="22.5065347" lon="114.1942830">
<ele>451.996</ele>
<time>2017-11-05T09:03:33.586Z</time>
</trkpt>
<trkpt lat="22.5064622" lon="114.1942206">
<ele>453.049</ele>
<time>2017-11-05T09:03:53.923Z</time>
</trkpt>
<trkpt lat="22.5063924" lon="114.1941492">
<ele>457.177</ele>
<time>2017-11-05T09:04:14.985Z</time>
</trkpt>
<trkpt lat="22.5063303" lon="114.1940785">
<ele>463.005</ele>
<time>2017-11-05T09:04:33.953Z</time>
</trkpt>
<trkpt lat="22.5063303" lon="114.1940785">
<ele>467.676</ele>
<time>2017-11-05T09:04:43.953Z</time>
</trkpt>
<trkpt lat="22.5063303" lon="114.1940785">
<ele>469.663</ele>
<time>2017-11-05T09:13:33.945Z</time>
</trkpt>
<trkpt lat="22.5063303" lon="114.1940785">
<ele>467.980</ele>
<time>2017-11-05T09:13:50.946Z</time>
</trkpt>
<trkpt lat="22.5063303" lon="114.1940785">
<ele>467.221</ele>
<time>2017-11-05T09:13:55.129Z</time>
</trkpt>
<trkpt lat="22.5062474" lon="114.1940394">
<ele>467.233</ele>
<time>2017-11-05T09:14:09.945Z</time>
</trkpt>
<trkpt lat="22.5062474" lon="114.1940394">
<ele>467.387</ele>
<time>2017-11-05T09:14:12.945Z</time>
</trkpt>
<trkpt lat="22.5062474" lon="114.1940394">
<ele>467.378</ele>
<time>2017-11-05T09:15:29.873Z</time>
</trkpt>
<trkpt lat="22.5061474" lon="114.1940182">
<ele>466.944</ele>
<time>2017-11-05T09:15:41.943Z</time>
</trkpt>
<trkpt lat="22.5061474" lon="114.1940182">
<ele>466.828</ele>
<time>2017-11-05T09:15:47.943Z</time>
</trkpt>
<trkpt lat="22.5061474" lon="114.1940182">
<ele>466.745</ele>
<time>2017-11-05T09:15:55.833Z</time>
</trkpt>
<trkpt lat="22.5060392" lon="114.1940585">
<ele>466.400</ele>
<time>2017-11-05T09:16:15.008Z</time>
</trkpt>
<trkpt lat="22.5059460" lon="114.1940745">
<ele>467.127</ele>
<time>2017-11-05T09:16:24.887Z</time>
</trkpt>
<trkpt lat="22.5058555" lon="114.1940744">
<ele>469.281</ele>
<time>2017-11-05T09:16:32.416Z</time>
</trkpt>
<trkpt lat="22.5057642" lon="114.1940837">
<ele>471.169</ele>
<time>2017-11-05T09:16:39.406Z</time>
</trkpt>
<trkpt lat="22.5056657" lon="114.1940964">
<ele>471.189</ele>
<time>2017-11-05T09:16:47.382Z</time>
</trkpt>
<trkpt lat="22.5055764" lon="114.1941286">
<ele>469.751</ele>
<time>2017-11-05T09:16:55.650Z</time>
</trkpt>
<trkpt lat="22.5054912" lon="114.1941675">
<ele>467.674</ele>
<time>2017-11-05T09:17:04.727Z</time>
</trkpt>
<trkpt lat="22.5054002" lon="114.1941698">
<ele>465.351</ele>
<time>2017-11-05T09:17:14.878Z</time>
</trkpt>
<trkpt lat="22.5053218" lon="114.1942271">
<ele>462.697</ele>
<time>2017-11-05T09:17:26.821Z</time>
</trkpt>
<trkpt lat="22.5052275" lon="114.1942234">
<ele>459.349</ele>
<time>2017-11-05T09:17:38.998Z</time>
</trkpt>
<trkpt lat="22.5052275" lon="114.1942234">
<ele>455.910</ele>
<time>2017-11-05T09:17:48.997Z</time>
</trkpt>
<trkpt lat="22.5052275" lon="114.1942234">
<ele>453.927</ele>
<time>2017-11-05T09:17:49.097Z</time>
</trkpt>
<trkpt lat="22.5051375" lon="114.1942692">
<ele>454.673</ele>
<time>2017-11-05T09:18:33.626Z</time>
</trkpt>
<trkpt lat="22.5050560" lon="114.1943105">
<ele>454.011</ele>
<time>2017-11-05T09:18:50.022Z</time>
</trkpt>
<trkpt lat="22.5050028" lon="114.1943951">
<ele>450.330</ele>
<time>2017-11-05T09:19:02.870Z</time>
</trkpt>
<trkpt lat="22.5049469" lon="114.1944796">
<ele>444.569</ele>
<time>2017-11-05T09:19:14.334Z</time>
</trkpt>
<trkpt lat="22.5049176" lon="114.1945777">
<ele>438.508</ele>
<time>2017-11-05T09:19:28.741Z</time>
</trkpt>
<trkpt lat="22.5048662" lon="114.1946599">
<ele>432.775</ele>
<time>2017-11-05T09:19:43.384Z</time>
</trkpt>
<trkpt lat="22.5048220" lon="114.1947454">
<ele>427.436</ele>
<time>2017-11-05T09:19:56.796Z</time>
</trkpt>
<trkpt lat="22.5047491" lon="114.1948099">
<ele>419.869</ele>
<time>2017-11-05T09:20:10.490Z</time>
</trkpt>
<trkpt lat="22.5046990" lon="114.1948981">
<ele>416.805</ele>
<time>2017-11-05T09:20:25.205Z</time>
</trkpt>
<trkpt lat="22.5046301" lon="114.1949658">
<ele>413.808</ele>
<time>2017-11-05T09:20:40.118Z</time>
</trkpt>
<trkpt lat="22.5045574" lon="114.1950248">
<ele>408.355</ele>
<time>2017-11-05T09:20:53.993Z</time>
</trkpt>
<trkpt lat="22.5045574" lon="114.1950248">
<ele>402.848</ele>
<time>2017-11-05T09:21:10.992Z</time>
</trkpt>
<trkpt lat="22.5045574" lon="114.1950248">
<ele>399.950</ele>
<time>2017-11-05T09:21:11.092Z</time>
</trkpt>
<trkpt lat="22.5044434" lon="114.1950886">
<ele>400.043</ele>
<time>2017-11-05T09:21:28.929Z</time>
</trkpt>
<trkpt lat="22.5043556" lon="114.1951208">
<ele>399.128</ele>
<time>2017-11-05T09:21:39.991Z</time>
</trkpt>
<trkpt lat="22.5043556" lon="114.1951208">
<ele>394.357</ele>
<time>2017-11-05T09:21:41.991Z</time>
</trkpt>
<trkpt lat="22.5043556" lon="114.1951208">
<ele>389.857</ele>
<time>2017-11-05T09:21:47.925Z</time>
</trkpt>
<trkpt lat="22.5042690" lon="114.1951639">
<ele>391.907</ele>
<time>2017-11-05T09:22:10.034Z</time>
</trkpt>
<trkpt lat="22.5041811" lon="114.1951406">
<ele>390.901</ele>
<time>2017-11-05T09:22:26.164Z</time>
</trkpt>
<trkpt lat="22.5041014" lon="114.1950853">
<ele>383.753</ele>
<time>2017-11-05T09:22:38.990Z</time>
</trkpt>
<trkpt lat="22.5041014" lon="114.1950853">
<ele>374.535</ele>
<time>2017-11-05T09:22:53.989Z</time>
</trkpt>
<trkpt lat="22.5041014" lon="114.1950853">
<ele>369.595</ele>
<time>2017-11-05T09:22:57.017Z</time>
</trkpt>
<trkpt lat="22.5039699" lon="114.1950562">
<ele>369.861</ele>
<time>2017-11-05T09:23:12.841Z</time>
</trkpt>
<trkpt lat="22.5038971" lon="114.1951159">
<ele>370.229</ele>
<time>2017-11-05T09:23:21.081Z</time>
</trkpt>
<trkpt lat="22.5038488" lon="114.1951992">
<ele>361.459</ele>
<time>2017-11-05T09:23:30.989Z</time>
</trkpt>
<trkpt lat="22.5038488" lon="114.1951992">
<ele>358.031</ele>
<time>2017-11-05T09:23:33.988Z</time>
</trkpt>
<trkpt lat="22.5038488" lon="114.1951992">
<ele>357.361</ele>
<time>2017-11-05T09:23:34.978Z</time>
</trkpt>
<trkpt lat="22.5037296" lon="114.1951879">
<ele>357.814</ele>
<time>2017-11-05T09:23:47.132Z</time>
</trkpt>
<trkpt lat="22.5036370" lon="114.1952207">
<ele>356.390</ele>
<time>2017-11-05T09:23:54.108Z</time>
</trkpt>
<trkpt lat="22.5036053" lon="114.1951185">
<ele>348.901</ele>
<time>2017-11-05T09:24:01.624Z</time>
</trkpt>
<trkpt lat="22.5035730" lon="114.1950257">
<ele>345.685</ele>
<time>2017-11-05T09:24:08.068Z</time>
</trkpt>
<trkpt lat="22.5035126" lon="114.1949440">
<ele>343.603</ele>
<time>2017-11-05T09:24:14.305Z</time>
</trkpt>
<trkpt lat="22.5034608" lon="114.1948643">
<ele>340.067</ele>
<time>2017-11-05T09:24:20.075Z</time>
</trkpt>
<trkpt lat="22.5034419" lon="114.1947576">
<ele>336.840</ele>
<time>2017-11-05T09:24:26.616Z</time>
</trkpt>
<trkpt lat="22.5033758" lon="114.1946812">
<ele>334.757</ele>
<time>2017-11-05T09:24:33.292Z</time>
</trkpt>
<trkpt lat="22.5033274" lon="114.1945886">
<ele>333.475</ele>
<time>2017-11-05T09:24:40.721Z</time>
</trkpt>
<trkpt lat="22.5032716" lon="114.1945101">
<ele>332.066</ele>
<time>2017-11-05T09:24:48.241Z</time>
</trkpt>
<trkpt lat="22.5031735" lon="114.1945112">
<ele>330.027</ele>
<time>2017-11-05T09:24:56.072Z</time>
</trkpt>
<trkpt lat="22.5030856" lon="114.1944738">
<ele>327.614</ele>
<time>2017-11-05T09:25:03.095Z</time>
</trkpt>
<trkpt lat="22.5030298" lon="114.1943973">
<ele>325.052</ele>
<time>2017-11-05T09:25:08.993Z</time>
</trkpt>
<trkpt lat="22.5030298" lon="114.1943973">
<ele>322.761</ele>
<time>2017-11-05T09:25:19.993Z</time>
</trkpt>
<trkpt lat="22.5030298" lon="114.1943973">
<ele>321.551</ele>
<time>2017-11-05T09:25:20.093Z</time>
</trkpt>
<trkpt lat="22.5028846" lon="114.1943545">
<ele>321.527</ele>
<time>2017-11-05T09:25:36.903Z</time>
</trkpt>
<trkpt lat="22.5027815" lon="114.1943431">
<ele>321.807</ele>
<time>2017-11-05T09:25:47.896Z</time>
</trkpt>
<trkpt lat="22.5026971" lon="114.1942978">
<ele>321.688</ele>
<time>2017-11-05T09:25:59.544Z</time>
</trkpt>
<trkpt lat="22.5026000" lon="114.1942901">
<ele>321.303</ele>
<time>2017-11-05T09:26:10.884Z</time>
</trkpt>
<trkpt lat="22.5025101" lon="114.1942621">
<ele>320.825</ele>
<time>2017-11-05T09:26:18.147Z</time>
</trkpt>
<trkpt lat="22.5024233" lon="114.1942247">
<ele>320.210</ele>
<time>2017-11-05T09:26:24.414Z</time>
</trkpt>
<trkpt lat="22.5023305" lon="114.1942758">
<ele>319.676</ele>
<time>2017-11-05T09:26:31.709Z</time>
</trkpt>
<trkpt lat="22.5022417" lon="114.1942270">
<ele>319.566</ele>
<time>2017-11-05T09:26:38.689Z</time>
</trkpt>
<trkpt lat="22.5022074" lon="114.1941284">
<ele>319.879</ele>
<time>2017-11-05T09:26:45.443Z</time>
</trkpt>
<trkpt lat="22.5021694" lon="114.1940392">
<ele>320.365</ele>
<time>2017-11-05T09:26:52.468Z</time>
</trkpt>
<trkpt lat="22.5020792" lon="114.1940102">
<ele>320.862</ele>
<time>2017-11-05T09:27:00.542Z</time>
</trkpt>
<trkpt lat="22.5020035" lon="114.1939457">
<ele>321.358</ele>
<time>2017-11-05T09:27:07.471Z</time>
</trkpt>
<trkpt lat="22.5019379" lon="114.1938604">
<ele>321.787</ele>
<time>2017-11-05T09:27:13.920Z</time>
</trkpt>
<trkpt lat="22.5018454" lon="114.1938467">
<ele>322.050</ele>
<time>2017-11-05T09:27:19.568Z</time>
</trkpt>
<trkpt lat="22.5017728" lon="114.1937867">
<ele>322.071</ele>
<time>2017-11-05T09:27:24.845Z</time>
</trkpt>
<trkpt lat="22.5016924" lon="114.1937170">
<ele>321.716</ele>
<time>2017-11-05T09:27:30.799Z</time>
</trkpt>
<trkpt lat="22.5015914" lon="114.1936838">
<ele>320.985</ele>
<time>2017-11-05T09:27:37.137Z</time>
</trkpt>
<trkpt lat="22.5015129" lon="114.1936357">
<ele>320.206</ele>
<time>2017-11-05T09:27:42.642Z</time>
</trkpt>
<trkpt lat="22.5014592" lon="114.1935411">
<ele>319.681</ele>
<time>2017-11-05T09:27:48.989Z</time>
</trkpt>
<trkpt lat="22.5014592" lon="114.1935411">
<ele>319.433</ele>
<time>2017-11-05T09:27:56.989Z</time>
</trkpt>
<trkpt lat="22.5014592" lon="114.1935411">
<ele>319.360</ele>
<time>2017-11-05T09:28:05.434Z</time>
</trkpt>
<trkpt lat="22.5013795" lon="114.1934008">
<ele>319.316</ele>
<time>2017-11-05T09:28:38.314Z</time>
</trkpt>
<trkpt lat="22.5013505" lon="114.1933074">
<ele>319.243</ele>
<time>2017-11-05T09:28:46.248Z</time>
</trkpt>
<trkpt lat="22.5014202" lon="114.1932361">
<ele>319.187</ele>
<time>2017-11-05T09:28:53.902Z</time>
</trkpt>
<trkpt lat="22.5014352" lon="114.1931366">
<ele>319.188</ele>
<time>2017-11-05T09:29:00.914Z</time>
</trkpt>
<trkpt lat="22.5014461" lon="114.1930328">
<ele>319.225</ele>
<time>2017-11-05T09:29:07.663Z</time>
</trkpt>
<trkpt lat="22.5014149" lon="114.1929248">
<ele>319.201</ele>
<time>2017-11-05T09:29:14.510Z</time>
</trkpt>
<trkpt lat="22.5014168" lon="114.1928272">
<ele>319.009</ele>
<time>2017-11-05T09:29:20.424Z</time>
</trkpt>
<trkpt lat="22.5014526" lon="114.1927377">
<ele>318.692</ele>
<time>2017-11-05T09:29:26.409Z</time>
</trkpt>
<trkpt lat="22.5015429" lon="114.1926823">
<ele>318.417</ele>
<time>2017-11-05T09:29:33.314Z</time>
</trkpt>
<trkpt lat="22.5016231" lon="114.1926218">
<ele>318.282</ele>
<time>2017-11-05T09:29:40.251Z</time>
</trkpt>
<trkpt lat="22.5016658" lon="114.1925324">
<ele>318.171</ele>
<time>2017-11-05T09:29:48.218Z</time>
</trkpt>
<trkpt lat="22.5017529" lon="114.1924996">
<ele>317.965</ele>
<time>2017-11-05T09:29:56.837Z</time>
</trkpt>
<trkpt lat="22.5018315" lon="114.1924445">
<ele>317.759</ele>
<time>2017-11-05T09:30:04.181Z</time>
</trkpt>
<trkpt lat="22.5018993" lon="114.1923680">
<ele>317.819</ele>
<time>2017-11-05T09:30:10.963Z</time>
</trkpt>
<trkpt lat="22.5019837" lon="114.1923028">
<ele>318.255</ele>
<time>2017-11-05T09:30:17.797Z</time>
</trkpt>
<trkpt lat="22.5020674" lon="114.1922405">
<ele>318.829</ele>
<time>2017-11-05T09:30:24.428Z</time>
</trkpt>
<trkpt lat="22.5021477" lon="114.1921684">
<ele>319.223</ele>
<time>2017-11-05T09:30:31.258Z</time>
</trkpt>
<trkpt lat="22.5022168" lon="114.1920885">
<ele>319.400</ele>
<time>2017-11-05T09:30:38.026Z</time>
</trkpt>
<trkpt lat="22.5022943" lon="114.1920252">
<ele>319.488</ele>
<time>2017-11-05T09:30:44.648Z</time>
</trkpt>
<trkpt lat="22.5023881" lon="114.1919858">
<ele>319.576</ele>
<time>2017-11-05T09:30:52.465Z</time>
</trkpt>
<trkpt lat="22.5024797" lon="114.1919842">
<ele>319.642</ele>
<time>2017-11-05T09:30:59.959Z</time>
</trkpt>
<trkpt lat="22.5025600" lon="114.1919377">
<ele>319.640</ele>
<time>2017-11-05T09:31:06.723Z</time>
</trkpt>
<trkpt lat="22.5026215" lon="114.1918546">
<ele>319.556</ele>
<time>2017-11-05T09:31:13.367Z</time>
</trkpt>
<trkpt lat="22.5027075" lon="114.1918053">
<ele>319.409</ele>
<time>2017-11-05T09:31:19.463Z</time>
</trkpt>
<trkpt lat="22.5027916" lon="114.1917524">
<ele>319.159</ele>
<time>2017-11-05T09:31:25.303Z</time>
</trkpt>
<trkpt lat="22.5028592" lon="114.1916743">
<ele>318.684</ele>
<time>2017-11-05T09:31:30.926Z</time>
</trkpt>
<trkpt lat="22.5029498" lon="114.1916240">
<ele>317.400</ele>
<time>2017-11-05T09:31:36.529Z</time>
</trkpt>
<trkpt lat="22.5030244" lon="114.1915689">
<ele>316.553</ele>
<time>2017-11-05T09:31:41.844Z</time>
</trkpt>
<trkpt lat="22.5030871" lon="114.1914843">
<ele>315.201</ele>
<time>2017-11-05T09:31:48.156Z</time>
</trkpt>
<trkpt lat="22.5031353" lon="114.1914001">
<ele>315.128</ele>
<time>2017-11-05T09:31:54.095Z</time>
</trkpt>
<trkpt lat="22.5032025" lon="114.1913269">
<ele>315.162</ele>
<time>2017-11-05T09:32:00.154Z</time>
</trkpt>
<trkpt lat="22.5032868" lon="114.1912879">
<ele>315.026</ele>
<time>2017-11-05T09:32:05.939Z</time>
</trkpt>
<trkpt lat="22.5033858" lon="114.1912497">
<ele>314.727</ele>
<time>2017-11-05T09:32:12.510Z</time>
</trkpt>
<trkpt lat="22.5034786" lon="114.1912065">
<ele>314.275</ele>
<time>2017-11-05T09:32:18.667Z</time>
</trkpt>
<trkpt lat="22.5035730" lon="114.1911571">
<ele>313.549</ele>
<time>2017-11-05T09:32:25.126Z</time>
</trkpt>
<trkpt lat="22.5036678" lon="114.1911211">
<ele>312.695</ele>
<time>2017-11-05T09:32:31.626Z</time>
</trkpt>
<trkpt lat="22.5037567" lon="114.1910890">
<ele>312.057</ele>
<time>2017-11-05T09:32:38.055Z</time>
</trkpt>
<trkpt lat="22.5038165" lon="114.1910133">
<ele>311.737</ele>
<time>2017-11-05T09:32:44.803Z</time>
</trkpt>
<trkpt lat="22.5039048" lon="114.1909517">
<ele>311.525</ele>
<time>2017-11-05T09:32:52.654Z</time>
</trkpt>
<trkpt lat="22.5039965" lon="114.1909374">
<ele>311.150</ele>
<time>2017-11-05T09:32:59.204Z</time>
</trkpt>
<trkpt lat="22.5040937" lon="114.1909370">
<ele>310.509</ele>
<time>2017-11-05T09:33:05.787Z</time>
</trkpt>
<trkpt lat="22.5041661" lon="114.1908689">
<ele>309.621</ele>
<time>2017-11-05T09:33:12.457Z</time>
</trkpt>
<trkpt lat="22.5042598" lon="114.1908201">
<ele>308.678</ele>
<time>2017-11-05T09:33:20.079Z</time>
</trkpt>
<trkpt lat="22.5043558" lon="114.1907818">
<ele>308.164</ele>
<time>2017-11-05T09:33:27.337Z</time>
</trkpt>
<trkpt lat="22.5044354" lon="114.1907197">
<ele>308.406</ele>
<time>2017-11-05T09:33:33.987Z</time>
</trkpt>
<trkpt lat="22.5044354" lon="114.1907197">
<ele>309.095</ele>
<time>2017-11-05T09:33:40.986Z</time>
</trkpt>
<trkpt lat="22.5044354" lon="114.1907197">
<ele>309.525</ele>
<time>2017-11-05T09:33:51.424Z</time>
</trkpt>
<trkpt lat="22.5045607" lon="114.1906787">
<ele>309.377</ele>
<time>2017-11-05T09:34:10.138Z</time>
</trkpt>
<trkpt lat="22.5046436" lon="114.1906396">
<ele>309.178</ele>
<time>2017-11-05T09:34:18.829Z</time>
</trkpt>
<trkpt lat="22.5046833" lon="114.1905494">
<ele>309.408</ele>
<time>2017-11-05T09:34:26.479Z</time>
</trkpt>
<trkpt lat="22.5047165" lon="114.1904422">
<ele>309.451</ele>
<time>2017-11-05T09:34:33.139Z</time>
</trkpt>
<trkpt lat="22.5047411" lon="114.1903454">
<ele>308.556</ele>
<time>2017-11-05T09:34:38.781Z</time>
</trkpt>
<trkpt lat="22.5047547" lon="114.1902415">
<ele>306.203</ele>
<time>2017-11-05T09:34:45.103Z</time>
</trkpt>
<trkpt lat="22.5048060" lon="114.1901585">
<ele>305.824</ele>
<time>2017-11-05T09:34:51.230Z</time>
</trkpt>
<trkpt lat="22.5048762" lon="114.1900802">
<ele>305.875</ele>
<time>2017-11-05T09:34:57.992Z</time>
</trkpt>
<trkpt lat="22.5049309" lon="114.1899861">
<ele>305.864</ele>
<time>2017-11-05T09:35:04.841Z</time>
</trkpt>
<trkpt lat="22.5050000" lon="114.1899185">
<ele>305.670</ele>
<time>2017-11-05T09:35:11.046Z</time>
</trkpt>
<trkpt lat="22.5050923" lon="114.1899204">
<ele>305.109</ele>
<time>2017-11-05T09:35:17.765Z</time>
</trkpt>
<trkpt lat="22.5051743" lon="114.1898757">
<ele>304.284</ele>
<time>2017-11-05T09:35:24.720Z</time>
</trkpt>
<trkpt lat="22.5052107" lon="114.1897824">
<ele>303.562</ele>
<time>2017-11-05T09:35:31.271Z</time>
</trkpt>
<trkpt lat="22.5052542" lon="114.1896885">
<ele>302.939</ele>
<time>2017-11-05T09:35:37.820Z</time>
</trkpt>
<trkpt lat="22.5053105" lon="114.1895986">
<ele>302.186</ele>
<time>2017-11-05T09:35:44.932Z</time>
</trkpt>
<trkpt lat="22.5054039" lon="114.1895727">
<ele>301.384</ele>
<time>2017-11-05T09:35:51.774Z</time>
</trkpt>
<trkpt lat="22.5055002" lon="114.1895899">
<ele>300.598</ele>
<time>2017-11-05T09:35:58.101Z</time>
</trkpt>
<trkpt lat="22.5055851" lon="114.1895555">
<ele>299.606</ele>
<time>2017-11-05T09:36:05.124Z</time>
</trkpt>
<trkpt lat="22.5056740" lon="114.1895887">
<ele>298.190</ele>
<time>2017-11-05T09:36:13.838Z</time>
</trkpt>
<trkpt lat="22.5057594" lon="114.1896369">
<ele>295.145</ele>
<time>2017-11-05T09:36:25.560Z</time>
</trkpt>
<trkpt lat="22.5058450" lon="114.1896670">
<ele>292.956</ele>
<time>2017-11-05T09:36:37.006Z</time>
</trkpt>
<trkpt lat="22.5059433" lon="114.1896426">
<ele>290.852</ele>
<time>2017-11-05T09:36:44.849Z</time>
</trkpt>
<trkpt lat="22.5060184" lon="114.1895611">
<ele>287.954</ele>
<time>2017-11-05T09:36:50.542Z</time>
</trkpt>
<trkpt lat="22.5060672" lon="114.1894734">
<ele>285.124</ele>
<time>2017-11-05T09:36:55.418Z</time>
</trkpt>
<trkpt lat="22.5061190" lon="114.1893790">
<ele>284.782</ele>
<time>2017-11-05T09:37:00.931Z</time>
</trkpt>
<trkpt lat="22.5061669" lon="114.1892817">
<ele>284.054</ele>
<time>2017-11-05T09:37:06.964Z</time>
</trkpt>
<trkpt lat="22.5062348" lon="114.1891920">
<ele>281.875</ele>
<time>2017-11-05T09:37:14.017Z</time>
</trkpt>
<trkpt lat="22.5063191" lon="114.1891549">
<ele>280.925</ele>
<time>2017-11-05T09:37:20.592Z</time>
</trkpt>
<trkpt lat="22.5064240" lon="114.1891520">
<ele>280.164</ele>
<time>2017-11-05T09:37:28.722Z</time>
</trkpt>
<trkpt lat="22.5065208" lon="114.1891738">
<ele>279.756</ele>
<time>2017-11-05T09:37:37.678Z</time>
</trkpt>
<trkpt lat="22.5066057" lon="114.1891294">
<ele>279.503</ele>
<time>2017-11-05T09:37:46.900Z</time>
</trkpt>
<trkpt lat="22.5066693" lon="114.1890516">
<ele>278.846</ele>
<time>2017-11-05T09:37:54.853Z</time>
</trkpt>
<trkpt lat="22.5067526" lon="114.1889884">
<ele>277.675</ele>
<time>2017-11-05T09:38:02.089Z</time>
</trkpt>
<trkpt lat="22.5068275" lon="114.1889280">
<ele>276.473</ele>
<time>2017-11-05T09:38:08.265Z</time>
</trkpt>
<trkpt lat="22.5069148" lon="114.1888764">
<ele>275.465</ele>
<time>2017-11-05T09:38:13.999Z</time>
</trkpt>
<trkpt lat="22.5070033" lon="114.1888354">
<ele>274.631</ele>
<time>2017-11-05T09:38:19.487Z</time>
</trkpt>
<trkpt lat="22.5070975" lon="114.1888458">
<ele>273.967</ele>
<time>2017-11-05T09:38:25.802Z</time>
</trkpt>
<trkpt lat="22.5071892" lon="114.1888444">
<ele>273.355</ele>
<time>2017-11-05T09:38:32.905Z</time>
</trkpt>
<trkpt lat="22.5072848" lon="114.1888246">
<ele>272.586</ele>
<time>2017-11-05T09:38:40.567Z</time>
</trkpt>
<trkpt lat="22.5073627" lon="114.1887700">
<ele>271.345</ele>
<time>2017-11-05T09:38:45.846Z</time>
</trkpt>
<trkpt lat="22.5074619" lon="114.1887449">
<ele>269.589</ele>
<time>2017-11-05T09:38:50.887Z</time>
</trkpt>
<trkpt lat="22.5075544" lon="114.1887184">
<ele>266.606</ele>
<time>2017-11-05T09:38:55.768Z</time>
</trkpt>
<trkpt lat="22.5076523" lon="114.1887124">
<ele>265.339</ele>
<time>2017-11-05T09:39:01.389Z</time>
</trkpt>
<trkpt lat="22.5077468" lon="114.1886838">
<ele>265.099</ele>
<time>2017-11-05T09:39:07.874Z</time>
</trkpt>
<trkpt lat="22.5078189" lon="114.1886127">
<ele>264.523</ele>
<time>2017-11-05T09:39:15.354Z</time>
</trkpt>
<trkpt lat="22.5078960" lon="114.1885624">
<ele>263.085</ele>
<time>2017-11-05T09:39:23.011Z</time>
</trkpt>
<trkpt lat="22.5079666" lon="114.1884884">
<ele>260.430</ele>
<time>2017-11-05T09:39:31.301Z</time>
</trkpt>
<trkpt lat="22.5080438" lon="114.1884269">
<ele>257.095</ele>
<time>2017-11-05T09:39:39.244Z</time>
</trkpt>
<trkpt lat="22.5081316" lon="114.1883972">
<ele>253.839</ele>
<time>2017-11-05T09:39:47.096Z</time>
</trkpt>
<trkpt lat="22.5081935" lon="114.1883241">
<ele>249.527</ele>
<time>2017-11-05T09:39:54.353Z</time>
</trkpt>
<trkpt lat="22.5082496" lon="114.1882450">
<ele>247.588</ele>
<time>2017-11-05T09:40:00.428Z</time>
</trkpt>
<trkpt lat="22.5083097" lon="114.1881683">
<ele>243.267</ele>
<time>2017-11-05T09:40:05.650Z</time>
</trkpt>
<trkpt lat="22.5083766" lon="114.1880889">
<ele>241.358</ele>
<time>2017-11-05T09:40:11.007Z</time>
</trkpt>
<trkpt lat="22.5084597" lon="114.1880455">
<ele>238.049</ele>
<time>2017-11-05T09:40:16.182Z</time>
</trkpt>
<trkpt lat="22.5085335" lon="114.1879897">
<ele>236.514</ele>
<time>2017-11-05T09:40:21.361Z</time>
</trkpt>
<trkpt lat="22.5086221" lon="114.1879192">
<ele>233.551</ele>
<time>2017-11-05T09:40:27.623Z</time>
</trkpt>
<trkpt lat="22.5086860" lon="114.1878370">
<ele>231.944</ele>
<time>2017-11-05T09:40:33.149Z</time>
</trkpt>
<trkpt lat="22.5087521" lon="114.1877633">
<ele>229.712</ele>
<time>2017-11-05T09:40:38.209Z</time>
</trkpt>
<trkpt lat="22.5088268" lon="114.1876893">
<ele>225.971</ele>
<time>2017-11-05T09:40:43.383Z</time>
</trkpt>
<trkpt lat="22.5089032" lon="114.1876266">
<ele>224.399</ele>
<time>2017-11-05T09:40:48.239Z</time>
</trkpt>
<trkpt lat="22.5089979" lon="114.1875898">
<ele>220.567</ele>
<time>2017-11-05T09:40:53.331Z</time>
</trkpt>
<trkpt lat="22.5090684" lon="114.1875166">
<ele>218.837</ele>
<time>2017-11-05T09:40:58.381Z</time>
</trkpt>
<trkpt lat="22.5091357" lon="114.1874402">
<ele>215.305</ele>
<time>2017-11-05T09:41:03.893Z</time>
</trkpt>
<trkpt lat="22.5091788" lon="114.1873546">
<ele>212.914</ele>
<time>2017-11-05T09:41:09.812Z</time>
</trkpt>
<trkpt lat="22.5092588" lon="114.1873069">
<ele>208.309</ele>
<time>2017-11-05T09:41:17.093Z</time>
</trkpt>
<trkpt lat="22.5093346" lon="114.1872422">
<ele>206.779</ele>
<time>2017-11-05T09:41:26.710Z</time>
</trkpt>
<trkpt lat="22.5093829" lon="114.1871592">
<ele>205.176</ele>
<time>2017-11-05T09:41:35.008Z</time>
</trkpt>
<trkpt lat="22.5094327" lon="114.1870720">
<ele>201.751</ele>
<time>2017-11-05T09:41:42.666Z</time>
</trkpt>
<trkpt lat="22.5095130" lon="114.1870277">
<ele>199.698</ele>
<time>2017-11-05T09:41:49.574Z</time>
</trkpt>
<trkpt lat="22.5096017" lon="114.1870105">
<ele>196.023</ele>
<time>2017-11-05T09:41:56.411Z</time>
</trkpt>
<trkpt lat="22.5096477" lon="114.1869241">
<ele>196.074</ele>
<time>2017-11-05T09:42:04.175Z</time>
</trkpt>
<trkpt lat="22.5096443" lon="114.1868236">
<ele>196.438</ele>
<time>2017-11-05T09:42:13.624Z</time>
</trkpt>
<trkpt lat="22.5096366" lon="114.1867248">
<ele>194.904</ele>
<time>2017-11-05T09:42:22.060Z</time>
</trkpt>
<trkpt lat="22.5095987" lon="114.1866307">
<ele>191.937</ele>
<time>2017-11-05T09:42:30.088Z</time>
</trkpt>
<trkpt lat="22.5095694" lon="114.1865296">
<ele>189.190</ele>
<time>2017-11-05T09:42:38.526Z</time>
</trkpt>
<trkpt lat="22.5096215" lon="114.1864339">
<ele>182.355</ele>
<time>2017-11-05T09:42:47.028Z</time>
</trkpt>
<trkpt lat="22.5096736" lon="114.1863358">
<ele>179.658</ele>
<time>2017-11-05T09:42:54.092Z</time>
</trkpt>
<trkpt lat="22.5097500" lon="114.1862538">
<ele>176.927</ele>
<time>2017-11-05T09:43:00.237Z</time>
</trkpt>
<trkpt lat="22.5098365" lon="114.1861928">
<ele>174.140</ele>
<time>2017-11-05T09:43:05.581Z</time>
</trkpt>
<trkpt lat="22.5099278" lon="114.1861566">
<ele>169.962</ele>
<time>2017-11-05T09:43:10.642Z</time>
</trkpt>
<trkpt lat="22.5100133" lon="114.1860931">
<ele>168.853</ele>
<time>2017-11-05T09:43:16.506Z</time>
</trkpt>
<trkpt lat="22.5100912" lon="114.1860275">
<ele>167.756</ele>
<time>2017-11-05T09:43:22.978Z</time>
</trkpt>
<trkpt lat="22.5100912" lon="114.1860275">
<ele>166.512</ele>
<time>2017-11-05T09:43:24.978Z</time>
</trkpt>
<trkpt lat="22.5100912" lon="114.1860275">
<ele>165.674</ele>
<time>2017-11-05T09:43:25.078Z</time>
</trkpt>
<trkpt lat="22.5101930" lon="114.1859723">
<ele>165.997</ele>
<time>2017-11-05T09:44:10.935Z</time>
</trkpt>
<trkpt lat="22.5102620" lon="114.1859089">
<ele>165.358</ele>
<time>2017-11-05T09:44:21.977Z</time>
</trkpt>
<trkpt lat="22.5102620" lon="114.1859089">
<ele>163.089</ele>
<time>2017-11-05T09:44:21.977Z</time>
</trkpt>
<trkpt lat="22.5102620" lon="114.1859089">
<ele>161.091</ele>
<time>2017-11-05T09:44:29.392Z</time>
</trkpt>
<trkpt lat="22.5103157" lon="114.1858241">
<ele>162.023</ele>
<time>2017-11-05T09:44:49.662Z</time>
</trkpt>
<trkpt lat="22.5103813" lon="114.1857534">
<ele>161.825</ele>
<time>2017-11-05T09:44:59.726Z</time>
</trkpt>
<trkpt lat="22.5104511" lon="114.1856813">
<ele>159.338</ele>
<time>2017-11-05T09:45:09.726Z</time>
</trkpt>
<trkpt lat="22.5105088" lon="114.1856027">
<ele>153.525</ele>
<time>2017-11-05T09:45:19.982Z</time>
</trkpt>
<trkpt lat="22.5105088" lon="114.1856027">
<ele>151.968</ele>
<time>2017-11-05T09:45:29.982Z</time>
</trkpt>
<trkpt lat="22.5105088" lon="114.1856027">
<ele>152.118</ele>
<time>2017-11-05T09:45:30.082Z</time>
</trkpt>
<trkpt lat="22.5105591" lon="114.1854872">
<ele>152.089</ele>
<time>2017-11-05T09:46:01.588Z</time>
</trkpt>
<trkpt lat="22.5105941" lon="114.1853919">
<ele>150.846</ele>
<time>2017-11-05T09:46:11.368Z</time>
</trkpt>
<trkpt lat="22.5105623" lon="114.1852938">
<ele>147.690</ele>
<time>2017-11-05T09:46:20.339Z</time>
</trkpt>
<trkpt lat="22.5105943" lon="114.1851938">
<ele>144.131</ele>
<time>2017-11-05T09:46:29.346Z</time>
</trkpt>
<trkpt lat="22.5106098" lon="114.1850924">
<ele>141.688</ele>
<time>2017-11-05T09:46:38.520Z</time>
</trkpt>
<trkpt lat="22.5106107" lon="114.1849875">
<ele>140.063</ele>
<time>2017-11-05T09:46:48.210Z</time>
</trkpt>
<trkpt lat="22.5106062" lon="114.1848847">
<ele>138.628</ele>
<time>2017-11-05T09:46:58.099Z</time>
</trkpt>
<trkpt lat="22.5105644" lon="114.1847913">
<ele>137.185</ele>
<time>2017-11-05T09:47:09.576Z</time>
</trkpt>
<trkpt lat="22.5105071" lon="114.1847039">
<ele>135.724</ele>
<time>2017-11-05T09:47:20.145Z</time>
</trkpt>
<trkpt lat="22.5104563" lon="114.1846221">
<ele>133.959</ele>
<time>2017-11-05T09:47:30.092Z</time>
</trkpt>
<trkpt lat="22.5104305" lon="114.1845195">
<ele>131.723</ele>
<time>2017-11-05T09:47:41.604Z</time>
</trkpt>
<trkpt lat="22.5104260" lon="114.1844109">
<ele>129.173</ele>
<time>2017-11-05T09:47:52.499Z</time>
</trkpt>
<trkpt lat="22.5103931" lon="114.1843193">
<ele>126.272</ele>
<time>2017-11-05T09:48:03.922Z</time>
</trkpt>
<trkpt lat="22.5103667" lon="114.1842227">
<ele>122.902</ele>
<time>2017-11-05T09:48:16.680Z</time>
</trkpt>
<trkpt lat="22.5103767" lon="114.1841183">
<ele>119.153</ele>
<time>2017-11-05T09:48:30.516Z</time>
</trkpt>
<trkpt lat="22.5103772" lon="114.1840166">
<ele>115.215</ele>
<time>2017-11-05T09:48:41.313Z</time>
</trkpt>
<trkpt lat="22.5103694" lon="114.1839072">
<ele>111.173</ele>
<time>2017-11-05T09:48:49.345Z</time>
</trkpt>
<trkpt lat="22.5103454" lon="114.1837952">
<ele>107.212</ele>
<time>2017-11-05T09:48:55.805Z</time>
</trkpt>
<trkpt lat="22.5103145" lon="114.1836946">
<ele>103.730</ele>
<time>2017-11-05T09:49:01.638Z</time>
</trkpt>
<trkpt lat="22.5103128" lon="114.1835936">
<ele>100.953</ele>
<time>2017-11-05T09:49:07.678Z</time>
</trkpt>
<trkpt lat="22.5102875" lon="114.1834911">
<ele>98.720</ele>
<time>2017-11-05T09:49:14.268Z</time>
</trkpt>
<trkpt lat="22.5102573" lon="114.1833873">
<ele>96.694</ele>
<time>2017-11-05T09:49:20.675Z</time>
</trkpt>
<trkpt lat="22.5101984" lon="114.1832956">
<ele>94.566</ele>
<time>2017-11-05T09:49:27.471Z</time>
</trkpt>
<trkpt lat="22.5101938" lon="114.1831929">
<ele>92.319</ele>
<time>2017-11-05T09:49:34.372Z</time>
</trkpt>
<trkpt lat="22.5101778" lon="114.1830885">
<ele>90.172</ele>
<time>2017-11-05T09:49:41.951Z</time>
</trkpt>
<trkpt lat="22.5101695" lon="114.1829905">
<ele>88.189</ele>
<time>2017-11-05T09:49:48.463Z</time>
</trkpt>
<trkpt lat="22.5101420" lon="114.1828893">
<ele>86.418</ele>
<time>2017-11-05T09:49:54.711Z</time>
</trkpt>
<trkpt lat="22.5101090" lon="114.1827863">
<ele>85.038</ele>
<time>2017-11-05T09:50:01.105Z</time>
</trkpt>
<trkpt lat="22.5100598" lon="114.1826897">
<ele>84.134</ele>
<time>2017-11-05T09:50:08.057Z</time>
</trkpt>
<trkpt lat="22.5099757" lon="114.1826340">
<ele>83.620</ele>
<time>2017-11-05T09:50:15.096Z</time>
</trkpt>
<trkpt lat="22.5098847" lon="114.1826041">
<ele>83.376</ele>
<time>2017-11-05T09:50:21.620Z</time>
</trkpt>
<trkpt lat="22.5098169" lon="114.1825260">
<ele>83.151</ele>
<time>2017-11-05T09:50:28.509Z</time>
</trkpt>
<trkpt lat="22.5097542" lon="114.1824537">
<ele>82.760</ele>
<time>2017-11-05T09:50:34.779Z</time>
</trkpt>
<trkpt lat="22.5097153" lon="114.1823625">
<ele>82.236</ele>
<time>2017-11-05T09:50:40.974Z</time>
</trkpt>
<trkpt lat="22.5097153" lon="114.1823625">
<ele>81.765</ele>
<time>2017-11-05T09:50:42.974Z</time>
</trkpt>
<trkpt lat="22.5097153" lon="114.1823625">
<ele>81.518</ele>
<time>2017-11-05T09:50:56.632Z</time>
</trkpt>
<trkpt lat="22.5097027" lon="114.1822640">
<ele>81.591</ele>
<time>2017-11-05T09:51:13.548Z</time>
</trkpt>
<trkpt lat="22.5097567" lon="114.1821816">
<ele>81.483</ele>
<time>2017-11-05T09:51:22.688Z</time>
</trkpt>
<trkpt lat="22.5098271" lon="114.1821058">
<ele>81.014</ele>
<time>2017-11-05T09:51:30.882Z</time>
</trkpt>
<trkpt lat="22.5099191" lon="114.1820642">
<ele>80.189</ele>
<time>2017-11-05T09:51:38.350Z</time>
</trkpt>
<trkpt lat="22.5100009" lon="114.1820200">
<ele>79.013</ele>
<time>2017-11-05T09:51:45.492Z</time>
</trkpt>
<trkpt lat="22.5100845" lon="114.1819611">
<ele>77.504</ele>
<time>2017-11-05T09:51:53.814Z</time>
</trkpt>
<trkpt lat="22.5101587" lon="114.1818931">
<ele>75.647</ele>
<time>2017-11-05T09:52:02.211Z</time>
</trkpt>
<trkpt lat="22.5102446" lon="114.1818476">
<ele>73.440</ele>
<time>2017-11-05T09:52:09.976Z</time>
</trkpt>
<trkpt lat="22.5103427" lon="114.1818204">
<ele>71.115</ele>
<time>2017-11-05T09:52:18.351Z</time>
</trkpt>
<trkpt lat="22.5104267" lon="114.1817725">
<ele>68.964</ele>
<time>2017-11-05T09:52:26.978Z</time>
</trkpt>
<trkpt lat="22.5104267" lon="114.1817725">
<ele>67.357</ele>
<time>2017-11-05T09:52:32.978Z</time>
</trkpt>
<trkpt lat="22.5104267" lon="114.1817725">
<ele>66.646</ele>
<time>2017-11-05T09:52:45.836Z</time>
</trkpt>
<trkpt lat="22.5105013" lon="114.1816947">
<ele>66.706</ele>
<time>2017-11-05T09:53:04.679Z</time>
</trkpt>
<trkpt lat="22.5105664" lon="114.1816084">
<ele>65.985</ele>
<time>2017-11-05T09:53:17.104Z</time>
</trkpt>
<trkpt lat="22.5106371" lon="114.1815484">
<ele>62.727</ele>
<time>2017-11-05T09:53:25.723Z</time>
</trkpt>
<trkpt lat="22.5106400" lon="114.1814400">
<ele>57.783</ele>
<time>2017-11-05T09:53:34.366Z</time>
</trkpt>
<trkpt lat="22.5106471" lon="114.1813379">
<ele>53.549</ele>
<time>2017-11-05T09:53:42.699Z</time>
</trkpt>
<trkpt lat="22.5106240" lon="114.1812267">
<ele>50.714</ele>
<time>2017-11-05T09:53:51.976Z</time>
</trkpt>
<trkpt lat="22.5106240" lon="114.1812267">
<ele>48.850</ele>
<time>2017-11-05T09:53:54.976Z</time>
</trkpt>
<trkpt lat="22.5106240" lon="114.1812267">
<ele>47.984</ele>
<time>2017-11-05T09:53:55.076Z</time>
</trkpt>
<trkpt lat="22.5106754" lon="114.1811382">
<ele>48.062</ele>
<time>2017-11-05T09:54:25.356Z</time>
</trkpt>
<trkpt lat="22.5106633" lon="114.1810388">
<ele>47.833</ele>
<time>2017-11-05T09:54:32.975Z</time>
</trkpt>
<trkpt lat="22.5106633" lon="114.1810388">
<ele>46.449</ele>
<time>2017-11-05T09:54:38.974Z</time>
</trkpt>
<trkpt lat="22.5102727" lon="114.1788000">
<ele>32.512</ele>
<time>2017-11-05T10:06:19.028Z</time>
</trkpt>
<trkpt lat="22.5102075" lon="114.1790229">
<ele>32.497</ele>
<time>2017-11-05T10:06:21.998Z</time>
</trkpt>
</trkseg>
</trk>
<extensions>
<fpdata xmlns="http://www.motionx.com/GPX-Extensions/1/1" sfv="10" origin="MotionXGPSFull 24.4 Build 5112 R64">
<bin enc="base64">
RgIAAAACAAAAIVlKyZt/1kEBAAAAvt0RqLh/1kEfhZGtZDzKQDQGAABBxxMAOHaghmYZ
XED2lU+5lj9AQAAAAAARAAAAVlMgRXhwZWQgVHJpcCAyYgAVAAAATm92IDUsIDIwMTcg
IDk6NTMgYW0AAAAAACbeEai4f9ZBLquMrLh/1kFaWwUBorJchakfWEAsAAAAAAAAAD4d
DqXdjlxADhdQaK2DNkA4dqCGZhlcQAAAAAAAABRAAAAAAAAAEEAAAAAAAMB5QAAAAAAA
AAAAAAAAAJDC9Shco3dAoq0M62rpUkABAAAAqTk6CIeIxr8BAAAAAQAAAIK5uAasjtk/
Cw5vm3w01b8BAAAAAQAAAAEAAAA4dqCGZhlcQAAAAAAAAAAAAAAAAAAAAAAAAAAAAAAA
AAAAAAAAAAAAAAAAAAAAAABZWAAAVOF/p7h/1kEAAAAAAAAAAAAAAAAAAAAA/yVEvAIA
AAAAAAAAAAAAAAEAAAAnAAAAMjQuMiBCdWlsZCA1MDYzUjY0LCBNWEFFIDguMSBiLiA2
MjZSNjQAAAAAABtdAAABAAAAAaYAAAAlb/5Zn+L+WQRkWkrJm3/WQWRaSsmbf9ZBAAAA
AABkEz8AAAAAAjpZSsmbf9ZBHjOHNZx/1kEAAAB5Ng97QAAAAAACBg8KZ5x/1kHn/AeQ
nH/WQQAAoPhYp4JAAAAAAAL2z0minH/WQTdQxricf9ZBAADAAOl2hUAAAAAAAq9Dx7qc
f9ZBtU8Gz5x/1kEAAICByv6HQAAAAAACIqrI0Zx/1kHjpwXTnH/WQQAAoDlqJohAAAAA
AAJq4IbVnH/WQbAdhtacf9ZBAABg4lFGiEAAAAAAArU0SNycf9ZBdsUF7Zx/1kEAAID6
A16KQAAAAAAChGFH7px/1kGjPkfznH/WQQAAYJ7//YpAAAAAAALEmsj1nH/WQfTfxfec
f9ZBAABgRKg9i0AAAAAAAkj5Rvmcf9ZBp5IF/px/1kEAAEBwe9WLQAAAAAACROAHPJ1/
1kGgTwVfnX/WQQAA4K2UGpBAAAAAAAKk3gdmnX/WQQ7cxWudf9ZBAACAhHR2kEAAAAAA
AtXph7+df9ZB14UFw51/1kEAAKBETq6QQAAAAAACbywI0J1/1kGN0sTanX/WQQAAgKYY
WpFAAAAAAALFx0bcnX/WQYfEBO2df9ZBAACgcvhlkkAAAAAAAkpcifKdf9ZB1gPF9p1/
1kEAAGDrsqmSQAAAAAACcoYH+51/1kF0ewT9nX/WQQAAgDuCyZJAAAAAAAK+E4gGnn/W
QTCFhQ+ef9ZBAACgUllZk0AAAAAAAokMiUqef9ZBt9NEhZ5/1kEAAIDFFQWXQAAAAAAC
KLZFh55/1kEah8aInn/WQQAAoNQiHZdAAAAAAAI0Dwfrnn/WQWmPBfuef9ZBAADw1wod
mEAAAAAAAnqoh/2ef9ZBrW3FJp9/1kEAACAr57CaQAAAAAACTkJGKJ9/1kEs7wYzn3/W
QQAAAPnxXJtAAAAAAALowcY0n3/WQZIFiEaff9ZBAACgMwZ5nEAAAAAAAgMIo0+ff9ZB
vB/NUJ9/1kEAADCvp4ucQAAAAAACfm6Jbp9/1kHAksR8n3/WQQAAUPNZb51AAAAAAALu
sYuUn3/WQRKHxJWff9ZBAACQReeCnUAAAAAAAsfWh9yff9ZBFlCE9p9/1kEAAIDariKf
QAAAAAACvFxIG6B/1kHzAwQcoH/WQQAA8E1pLp9AAAAAAAJnQ8cloH/WQdXsBD6gf9ZB
AABo8iFZoEAAAAAAAmA6I0Kgf9ZBo8sFSqB/1kEAAIB8NpigQAAAAAACiC/HVKB/1kG6
ZgRboH/WQQAAEDYgyqBAAAAAAALzqgd2oH/WQTJwBHigf9ZBAAAIYAbaoEAAAAAAAqqZ
Cy+hf9ZBQnrDPKF/1kEAAMhkxUehQAAAAAACyH6KQaF/1kFnRYdIoX/WQQAAwJmrf6FA
AAAAAAKqm0VKoX/WQaDCA0yhf9ZBAABw0ZyNoUAAAAAAAuCihVihf9ZBgh8EBqJ/1kEA
AIC2kPmmQAAAAAACt2KGDaJ/1kEqkMMgon/WQQAAGCJ6k6dAAAAAAAJgWsUion/WQehr
BCiif9ZBAABYrnK9p0AAAAAAAs9JxSuif9ZBz4SDUaJ/1kEAAFiGZOuoQAAAAAACRKNw
hKJ/1kFbCAOQon/WQQAAEK/3R6lAAAAAAAIkfUq4on/WQW9nBMCif9ZBAABoAceFqUAA
AAAAAo/GRcWif9ZBNbbE3qJ/1kEAAJh+vlGqQAAAAAACsWrO66J/1kFOJAP0on/WQQAA
gEtkk6pAAAAAAAK4IUT2on/WQS/DA3ijf9ZBAAA4V2GhrkAAAAAAAm9nRHqjf9ZBdxIZ
fKN/1kEAAHivBrCuQAAAAAACQfHDfqN/1kFsP8KBo3/WQQAA0CD5x65AAAAAAALg9Ig8
pH/WQUT3RkSkf9ZBAADwM+kFr0AAAAAAAp29CE+kf9ZBxcgGV6R/1kEAADCN2UWvQAAA
AAAC9urIcaV/1kHQCwZ+pX/WQQAAAJTCp69AAAAAAALwpYe7pX/WQUBLhcelf9ZBAABA
39cDsEAAAAAAAvZABuylf9ZB2EuE8KV/1kEAAMgK0BWwQAAAAAACvyqF8qV/1kHzWUQC
pn/WQQAAmMfMVLBAAAAAAAL/lEQFpn/WQaxWQw6mf9ZBAABMzsd4sEAAAAAAAoLmRBWm
f9ZBJeeEPqZ/1kEAANjQxx2xQAAAAAACYoiEQKZ/1kFmgwNFpn/WQQAA6LzDL7FAAAAA
AAJbtEVGpn/WQUQxxUamf9ZBAACMsMExsUAAAAAAAgwCBk2mf9ZBiq8DdaZ/1kEAAIRm
uNGxQAAAAAAC17/Fj6Z/1kE7/8SSpn/WQQAAFGS13bFAAAAAAAK1b8Xzpn/WQZNThJ2n
f9ZBAACM87CEtEAAAAAAAoTZBKanf9ZBycsNxqd/1kEAAKC81AS1QAAAAAACghqFyad/
1kHc8oJZqH/WQQAACB7MRLdAAAAAAAKyvIRgqH/WQb5QPmGof9ZBAAA4brJHt0AAAAAA
Au86xGmof9ZB8pUDfah/1kEAAETar5S3QAAAAAACvB6Gf6h/1kEAHn2EqH/WQQAAVNeL
qLdAAAAAAAJcVMOHqH/WQWPwvYyof9ZBAABwR3a8t0AAAAAAArGJQ5Sof9ZByLbCrqh/
1kEAAMz7cia4QAAAAAACP1SFs6h/1kGKzkK6qH/WQQAA+ORoQbhAAAAAAAKyg0TFqH/W
QdI3fcaof9ZBAAB4tUtGuEAAAAAAAti2g8yof9ZB+u3816h/1kEAAACSMHS4QAAAAAAC
qKdE2qh/1kFxq0TeqH/WQQAAJKEwhLhAAAAAAAIY7IzXqn/WQZARBNmqf9ZBAAAENw2K
uEAAAAAAAnFyR/Gqf9ZBm+f9Kqt/1kEAAKwL53C5QAAAAAACbjJGNKt/1kEYzPw5q3/W
QQAAVHLBh7lAAAAAAAJO1EZnq3/WQYldBQKsf9ZBAABAl7vyu0AAAAAAArR0hgOsf9ZB
Osu9NKx/1kEAAFjxmLe8QAAAAAAChH+Pi6x/1kEw8XmjrH/WQQAACLhCF71AAAAAAAJ6
4oSlrH/WQfY/P6asf9ZBAAD4LSwavUAAAAAAAuW0xausf9ZBT5EDt6x/1kEAAKCfI0e9
QAAAAAAC0okLMK1/1kHvHwU0rX/WQQAAFPgJV71AAAAAAAIyHgVqrX/WQXy5g2ytf9ZB
AAA8ZQRhvUAAAAAAAgjoxYKtf9ZBRkF8ha1/1kEAADTK3Wu9QAAAAAACirHWZa5/1kGd
2AOQrn/WQQAAgGaSFL5AAAAAAAJIUUOSrn/WQQOx95yuf9ZBAABs5WM/vkAAAAAAAgMj
Q5+uf9ZBO8R7pK5/1kEAAExqRlS+QAAAAAACTIhDpq5/1kGt3wQQr3/WQQAA0MdL+79A
AAAAAAKcNkUWr3/WQZ/o/B+vf9ZBAADuRxURwEAAAAAAAlBWxSKvf9ZBUUxIVa9/1kEA
APAzG3bAQAAAAAACdEEFWK9/1kF/iDxdr3/WQQAABsKJgMBAAAAAAAKYpwVir3/WQaJE
tnGvf9ZBAAAa/OqfwEAAAAAAArIQhHqvf9ZBPNx3kK9/1kEAAC6T0svAQAAAAAACn64F
ma9/1kHDf/ijr3/WQQAAdjW44cBAAAAAAAKeJUWmr3/WQdOjfKuvf9ZBAADgMSfswEAA
AAAAAjeLBLGvf9ZBJa64sq9/1kEAALx3j+/AQAAAAAACLEpLV7B/1kEsEXuYsH/WQQAA
vAXvccFAAAAAAAI49secsH/WQeaUhqywf9ZBAAAYQ2yRwUAAAAAAAkxsh7Kwf9ZBUnt9
wLB/1kEAACRhWK3BQAAAAAAC6IOGw7B/1kF6UH3FsH/WQQAASPpFscFAAAAAAAJRgwjN
sH/WQRiXxiaxf9ZBAADWIcJkwkAAAAAAAse6B62xf9ZBsYp4rbF/1kEAAKrBo2XCQAAA
AAACViiGrbF/1kG0zQWusX/WQQAAZgyjZsJAAAAAAAKSA4fesX/WQf7R+N6xf9ZBAAA+
qYZnwkAAAAAAAugWRuGxf9ZBlQ9747F/1kEAAJia8GvCQAAAAAAC2laF7bF/1kFcIvbz
sX/WQQAAnDHSeMJAAAAAAALfb4YAsn/WQfwzxRmyf9ZBAADWuU+rwkAAAAAAAiGvRR2y
f9ZBaqS2JbJ/1kEAAGikMbzCQAAAAAACTpzFJ7J/1kFeuPZIsn/WQQAAiNyT/sJAAAAA
AAJIMwVUsn/WQfM8BFWyf9ZBAADe75EAw0AAAAAAAjfCKG2yf9ZBOIAEbrJ/1kEAAOBr
SQLDQAAAAAACCHLHe7J/1kEu/8V8sn/WQQAALIZGBMNAAAAAAALkZ0WHsn/WQdLiRIiy
f9ZBAAAIfEUGw0AAAAAAApxQBpSyf9ZBNNwElbJ/1kEAADiTQgjDQAAAAAACzJlFobJ/
1kFcH3qmsn/WQQAAWJ6rEsNAAAAAAAK6Fga/sn/WQajENM+yf9ZBAAA0+ggzw0AAAAAA
AsgLB9Oyf9ZBiukE77J/1kEAALi1BGvDQAAAAAAC93YH87J/1kF3hIX2sn/WQQAAuNAA
csNAAAAAAALqO4b8sn/WQV7z9xSzf9ZBAACgP+Siw0AAAAAAAjC3Rh2zf9ZBGov0HbN/
1kEAAHTnP6TDQAAAAAACeTxGULN/1kGqm0VRs3/WQQAA1qU+psNAAAAAAAIOoUVVs3/W
QUaxxVazf9ZBAABGxj6pw0AAAAAAAqa5hV2zf9ZBzuR4ZLN/1kEAAJYcJbfDQAAAAAAC
6PvMdrN/1kEP8LmEs3/WQQAA5AT/0sNAAAAAAALePAass3/WQfgcs62zf9ZBAAAYxVjW
w0AAAAAAAsY2Rq+zf9ZBqaByvbN/1kEAAN6YsfLDQAAAAAAChsUFwbN/1kH684PHs3/W
QQAAxvWt/8NAAAAAAAJqTcXMs3/WQUqxBdizf9ZBAACGvS4WxEAAAAAAAj4kBdyzf9ZB
zuID7LN/1kEAAKY6LDbEQAAAAAACHH7E7bN/1kFTlAT9s3/WQQAAFGesVMRAAAAAAAKv
Bgb/s3/WQWB5IQW0f9ZBAAB2TONgxEAAAAAAAioghBa0f9ZBMSODF7R/1kEAAIRS4WLE
QAAAAAAC6pbFHbR/1kFEL7IftH/WQQAAOIO6ZsRAAAAAAAL4U4kytH/WQfNYhTO0f9ZB
AAAujbJoxEAAAAAAAvbvhTi0f9ZBa553SbR/1kEAABjqlYrEQAAAAAAC0H4FTLR/1kEh
c7VatH/WQQAAutL1p8RAAAAAAAJYA8ZftH/WQQthxGK0f9ZBAAAgjvKtxEAAAAAAAviK
BWi0f9ZBM2xEt7R/1kEAAJZQcEzFQAAAAAACio0GurR/1kEmVYXAtH/WQQAAzt9tWcVA
AAAAAAJQAUXHtH/WQcpw88q0f9ZBAADCvspgxUAAAAAAAgB0Bc20f9ZBtP8w1LR/1kEA
ACrWIW/FQAAAAAACLAsF1rR/1kF4KLHXtH/WQQAAwhB6csVAAAAAAAL0NgXitH/WQZay
seq0f9ZBAAAGCNODxUAAAAAAArDMhvG0f9ZBnuswC7V/1kEAAOJFJ7fFQAAAAAAC1C2K
krV/1kGuRQSUtX/WQQAAlnUbusVAAAAAAAIktISWtX/WQSgqg5m1f9ZBAACeYRjAxUAA
AAAAArAdxq61f9ZBpdsvsbV/1kEAAIjd68TFQAAAAAACF7lDtbV/1kHltXLPtX/WQQAA
JNdJ+cVAAAAAAAJZbAjWtX/WQSSX8wG2f9ZBAAC6LCBRxkAAAAAAAsb+xwO2f9ZBweTS
CbZ/1kEAALD4NV3GQAAAAAAC38FHDbZ/1kFbCLYbtn/WQQAAqIUSesZAAAAAAAI4aQcf
tn/WQSbjtyW2f9ZBAACEeXOHxkAAAAAAAsv0BSe2f9ZBXiw0QLZ/1kEAAKroz7nGQAAA
AAACZVXHQbZ/1kFVFHVntn/WQQAAimYrBcdAAAAAAALymIZvtn/WQSy4hr22f9ZBAAD+
pCuhx0AAAAAAAhbZCMO2f9ZBL1J1T7d/1kEAADCXBLrIQAAAAAACtjEIWrd/1kH6DLFd
t3/WQQAAuE1WwchAAAAAAAK3t4Zht3/WQSJWxm63f9ZBAACOitXbyEAAAAAAAoV8RnO3
f9ZBCFcFvbd/1kEAAJQ/U2/JQAAAAAACQL3Gwbd/1kHc82/Yt3/WQQAAzKylnMlAAAAA
AAJYrsfet3/WQYQt8ey3f9ZBAAAkq/i4yUAAAAAAAqLQBvS3f9ZBuB7097d/1kEAAFBH
08DJQAAAAAAD9G5xIbh/1kH0bnEhuH/WQQAAUEfTwMlAAAAAAAPPSQujuH/WQc9JC6O4
f9ZBAABQR9PAyUAAAAAAAxwmUKS4f9ZBHCZQpLh/1kEAAFBH08DJQAAAAAAEdCPFprh/
1kF0I8WmuH/WQQAAUEfTwMlAAAAAAAHU7cemuH/WQf93xKe4f9ZBH4WRrWQ8ykAAAAAA
AAAAAA==
</bin>
</fpdata>
</extensions>
</gpx>
